<?xml version="1.0" encoding="UTF-8" ?>
<gpx version="1.1" xmlns:xsi="http://www.w3.org/2001/XMLSchema-instance" 
    xmlns="http://www.topografix.com/GPX/1/1" 
    xsi:schemaLocation="http://www.topografix.com/GPX/1/1 http://www.topografix.com/GPX/1/1/gpx.xsd" 
    creator="Openrunner - https://www.openrunner.com" >	<trk>
						<name>10306209-Les Lacs du Verdon</name>
						<trkseg>
					<trkpt lat="43.758430" lon="5.886110">
						<ele>343</ele>
						<time>2019-07-31T12:49:03Z</time>
					</trkpt>
					<trkpt lat="43.758360" lon="5.886100">
						<ele>343</ele>
						<time>2019-07-31T12:49:04Z</time>
					</trkpt>
					<trkpt lat="43.757990" lon="5.887540">
						<ele>336</ele>
						<time>2019-07-31T12:49:24Z</time>
					</trkpt>
					<trkpt lat="43.757920" lon="5.887550">
						<ele>336</ele>
						<time>2019-07-31T12:49:25Z</time>
					</trkpt>
					<trkpt lat="43.757870" lon="5.887620">
						<ele>336</ele>
						<time>2019-07-31T12:49:26Z</time>
					</trkpt>
					<trkpt lat="43.757860" lon="5.887700">
						<ele>336</ele>
						<time>2019-07-31T12:49:27Z</time>
					</trkpt>
					<trkpt lat="43.757910" lon="5.887810">
						<ele>335</ele>
						<time>2019-07-31T12:49:29Z</time>
					</trkpt>
					<trkpt lat="43.757990" lon="5.887840">
						<ele>335</ele>
						<time>2019-07-31T12:49:31Z</time>
					</trkpt>
					<trkpt lat="43.758000" lon="5.887930">
						<ele>334</ele>
						<time>2019-07-31T12:49:32Z</time>
					</trkpt>
					<trkpt lat="43.757970" lon="5.892750">
						<ele>319</ele>
						<time>2019-07-31T12:50:34Z</time>
					</trkpt>
					<trkpt lat="43.757900" lon="5.893330">
						<ele>323</ele>
						<time>2019-07-31T12:50:41Z</time>
					</trkpt>
					<trkpt lat="43.757730" lon="5.894130">
						<ele>331</ele>
						<time>2019-07-31T12:50:52Z</time>
					</trkpt>
					<trkpt lat="43.757210" lon="5.895630">
						<ele>333</ele>
						<time>2019-07-31T12:51:13Z</time>
					</trkpt>
					<trkpt lat="43.757190" lon="5.895750">
						<ele>333</ele>
						<time>2019-07-31T12:51:15Z</time>
					</trkpt>
					<trkpt lat="43.757200" lon="5.896000">
						<ele>334</ele>
						<time>2019-07-31T12:51:18Z</time>
					</trkpt>
					<trkpt lat="43.757260" lon="5.896160">
						<ele>335</ele>
						<time>2019-07-31T12:51:20Z</time>
					</trkpt>
					<trkpt lat="43.757700" lon="5.896900">
						<ele>341</ele>
						<time>2019-07-31T12:51:33Z</time>
					</trkpt>
					<trkpt lat="43.757870" lon="5.897460">
						<ele>343</ele>
						<time>2019-07-31T12:51:41Z</time>
					</trkpt>
					<trkpt lat="43.758070" lon="5.898370">
						<ele>341</ele>
						<time>2019-07-31T12:51:53Z</time>
					</trkpt>
					<trkpt lat="43.758160" lon="5.898930">
						<ele>340</ele>
						<time>2019-07-31T12:52:00Z</time>
					</trkpt>
					<trkpt lat="43.758420" lon="5.901470">
						<ele>343</ele>
						<time>2019-07-31T12:52:33Z</time>
					</trkpt>
					<trkpt lat="43.758370" lon="5.901940">
						<ele>343</ele>
						<time>2019-07-31T12:52:39Z</time>
					</trkpt>
					<trkpt lat="43.758170" lon="5.902680">
						<ele>342</ele>
						<time>2019-07-31T12:52:49Z</time>
					</trkpt>
					<trkpt lat="43.758090" lon="5.903070">
						<ele>342</ele>
						<time>2019-07-31T12:52:55Z</time>
					</trkpt>
					<trkpt lat="43.757960" lon="5.905230">
						<ele>338</ele>
						<time>2019-07-31T12:53:23Z</time>
					</trkpt>
					<trkpt lat="43.757910" lon="5.905720">
						<ele>337</ele>
						<time>2019-07-31T12:53:29Z</time>
					</trkpt>
					<trkpt lat="43.757640" lon="5.907300">
						<ele>329</ele>
						<time>2019-07-31T12:53:50Z</time>
					</trkpt>
					<trkpt lat="43.757060" lon="5.912820">
						<ele>322</ele>
						<time>2019-07-31T12:55:01Z</time>
					</trkpt>
					<trkpt lat="43.756770" lon="5.914440">
						<ele>324</ele>
						<time>2019-07-31T12:55:23Z</time>
					</trkpt>
					<trkpt lat="43.756170" lon="5.917060">
						<ele>327</ele>
						<time>2019-07-31T12:55:58Z</time>
					</trkpt>
					<trkpt lat="43.756150" lon="5.917310">
						<ele>326</ele>
						<time>2019-07-31T12:56:01Z</time>
					</trkpt>
					<trkpt lat="43.756170" lon="5.917660">
						<ele>326</ele>
						<time>2019-07-31T12:56:06Z</time>
					</trkpt>
					<trkpt lat="43.756310" lon="5.918070">
						<ele>326</ele>
						<time>2019-07-31T12:56:12Z</time>
					</trkpt>
					<trkpt lat="43.756980" lon="5.919110">
						<ele>329</ele>
						<time>2019-07-31T12:56:30Z</time>
					</trkpt>
					<trkpt lat="43.757320" lon="5.919890">
						<ele>333</ele>
						<time>2019-07-31T12:56:41Z</time>
					</trkpt>
					<trkpt lat="43.757470" lon="5.920070">
						<ele>335</ele>
						<time>2019-07-31T12:56:45Z</time>
					</trkpt>
					<trkpt lat="43.757630" lon="5.920160">
						<ele>336</ele>
						<time>2019-07-31T12:56:48Z</time>
					</trkpt>
					<trkpt lat="43.757780" lon="5.920180">
						<ele>337</ele>
						<time>2019-07-31T12:56:51Z</time>
					</trkpt>
					<trkpt lat="43.757960" lon="5.920130">
						<ele>340</ele>
						<time>2019-07-31T12:56:54Z</time>
					</trkpt>
					<trkpt lat="43.758320" lon="5.919920">
						<ele>348</ele>
						<time>2019-07-31T12:57:01Z</time>
					</trkpt>
					<trkpt lat="43.758420" lon="5.919890">
						<ele>350</ele>
						<time>2019-07-31T12:57:03Z</time>
					</trkpt>
					<trkpt lat="43.758630" lon="5.919880">
						<ele>352</ele>
						<time>2019-07-31T12:57:06Z</time>
					</trkpt>
					<trkpt lat="43.758720" lon="5.919900">
						<ele>353</ele>
						<time>2019-07-31T12:57:08Z</time>
					</trkpt>
					<trkpt lat="43.758960" lon="5.920040">
						<ele>354</ele>
						<time>2019-07-31T12:57:13Z</time>
					</trkpt>
					<trkpt lat="43.759470" lon="5.920490">
						<ele>351</ele>
						<time>2019-07-31T12:57:23Z</time>
					</trkpt>
					<trkpt lat="43.759670" lon="5.920720">
						<ele>351</ele>
						<time>2019-07-31T12:57:28Z</time>
					</trkpt>
					<trkpt lat="43.759900" lon="5.921120">
						<ele>349</ele>
						<time>2019-07-31T12:57:35Z</time>
					</trkpt>
					<trkpt lat="43.760230" lon="5.921820">
						<ele>349</ele>
						<time>2019-07-31T12:57:45Z</time>
					</trkpt>
					<trkpt lat="43.760300" lon="5.922060">
						<ele>349</ele>
						<time>2019-07-31T12:57:49Z</time>
					</trkpt>
					<trkpt lat="43.760400" lon="5.922600">
						<ele>347</ele>
						<time>2019-07-31T12:57:56Z</time>
					</trkpt>
					<trkpt lat="43.760600" lon="5.923890">
						<ele>346</ele>
						<time>2019-07-31T12:58:13Z</time>
					</trkpt>
					<trkpt lat="43.760790" lon="5.924590">
						<ele>346</ele>
						<time>2019-07-31T12:58:22Z</time>
					</trkpt>
					<trkpt lat="43.761270" lon="5.925960">
						<ele>345</ele>
						<time>2019-07-31T12:58:42Z</time>
					</trkpt>
					<trkpt lat="43.761380" lon="5.926120">
						<ele>346</ele>
						<time>2019-07-31T12:58:45Z</time>
					</trkpt>
					<trkpt lat="43.761730" lon="5.926370">
						<ele>350</ele>
						<time>2019-07-31T12:58:52Z</time>
					</trkpt>
					<trkpt lat="43.761980" lon="5.926810">
						<ele>349</ele>
						<time>2019-07-31T12:58:59Z</time>
					</trkpt>
					<trkpt lat="43.762100" lon="5.926940">
						<ele>349</ele>
						<time>2019-07-31T12:59:02Z</time>
					</trkpt>
					<trkpt lat="43.762570" lon="5.927020">
						<ele>357</ele>
						<time>2019-07-31T12:59:10Z</time>
					</trkpt>
					<trkpt lat="43.762820" lon="5.927170">
						<ele>362</ele>
						<time>2019-07-31T12:59:15Z</time>
					</trkpt>
					<trkpt lat="43.762970" lon="5.927380">
						<ele>362</ele>
						<time>2019-07-31T12:59:19Z</time>
					</trkpt>
					<trkpt lat="43.763080" lon="5.927640">
						<ele>361</ele>
						<time>2019-07-31T12:59:23Z</time>
					</trkpt>
					<trkpt lat="43.763190" lon="5.928110">
						<ele>355</ele>
						<time>2019-07-31T12:59:29Z</time>
					</trkpt>
					<trkpt lat="43.763290" lon="5.928270">
						<ele>354</ele>
						<time>2019-07-31T12:59:32Z</time>
					</trkpt>
					<trkpt lat="43.763450" lon="5.928370">
						<ele>355</ele>
						<time>2019-07-31T12:59:35Z</time>
					</trkpt>
					<trkpt lat="43.763800" lon="5.928480">
						<ele>360</ele>
						<time>2019-07-31T12:59:41Z</time>
					</trkpt>
					<trkpt lat="43.764000" lon="5.928570">
						<ele>362</ele>
						<time>2019-07-31T12:59:45Z</time>
					</trkpt>
					<trkpt lat="43.764140" lon="5.928700">
						<ele>362</ele>
						<time>2019-07-31T12:59:48Z</time>
					</trkpt>
					<trkpt lat="43.764270" lon="5.928920">
						<ele>363</ele>
						<time>2019-07-31T12:59:52Z</time>
					</trkpt>
					<trkpt lat="43.764340" lon="5.929090">
						<ele>362</ele>
						<time>2019-07-31T12:59:54Z</time>
					</trkpt>
					<trkpt lat="43.764380" lon="5.929280">
						<ele>362</ele>
						<time>2019-07-31T12:59:57Z</time>
					</trkpt>
					<trkpt lat="43.764460" lon="5.930040">
						<ele>359</ele>
						<time>2019-07-31T13:00:07Z</time>
					</trkpt>
					<trkpt lat="43.764280" lon="5.931960">
						<ele>356</ele>
						<time>2019-07-31T13:00:31Z</time>
					</trkpt>
					<trkpt lat="43.764290" lon="5.932280">
						<ele>356</ele>
						<time>2019-07-31T13:00:36Z</time>
					</trkpt>
					<trkpt lat="43.764320" lon="5.932390">
						<ele>356</ele>
						<time>2019-07-31T13:00:37Z</time>
					</trkpt>
					<trkpt lat="43.764430" lon="5.932560">
						<ele>358</ele>
						<time>2019-07-31T13:00:40Z</time>
					</trkpt>
					<trkpt lat="43.764930" lon="5.932980">
						<ele>366</ele>
						<time>2019-07-31T13:00:50Z</time>
					</trkpt>
					<trkpt lat="43.765050" lon="5.933190">
						<ele>366</ele>
						<time>2019-07-31T13:00:54Z</time>
					</trkpt>
					<trkpt lat="43.765230" lon="5.933960">
						<ele>359</ele>
						<time>2019-07-31T13:01:04Z</time>
					</trkpt>
					<trkpt lat="43.765330" lon="5.934160">
						<ele>358</ele>
						<time>2019-07-31T13:01:07Z</time>
					</trkpt>
					<trkpt lat="43.765460" lon="5.934280">
						<ele>358</ele>
						<time>2019-07-31T13:01:10Z</time>
					</trkpt>
					<trkpt lat="43.765530" lon="5.934310">
						<ele>358</ele>
						<time>2019-07-31T13:01:11Z</time>
					</trkpt>
					<trkpt lat="43.766140" lon="5.934350">
						<ele>361</ele>
						<time>2019-07-31T13:01:22Z</time>
					</trkpt>
					<trkpt lat="43.766400" lon="5.934480">
						<ele>360</ele>
						<time>2019-07-31T13:01:27Z</time>
					</trkpt>
					<trkpt lat="43.766610" lon="5.934670">
						<ele>359</ele>
						<time>2019-07-31T13:01:32Z</time>
					</trkpt>
					<trkpt lat="43.767270" lon="5.935510">
						<ele>363</ele>
						<time>2019-07-31T13:01:48Z</time>
					</trkpt>
					<trkpt lat="43.767360" lon="5.935640">
						<ele>363</ele>
						<time>2019-07-31T13:01:50Z</time>
					</trkpt>
					<trkpt lat="43.767450" lon="5.935840">
						<ele>361</ele>
						<time>2019-07-31T13:01:53Z</time>
					</trkpt>
					<trkpt lat="43.767520" lon="5.936140">
						<ele>362</ele>
						<time>2019-07-31T13:01:57Z</time>
					</trkpt>
					<trkpt lat="43.767520" lon="5.936620">
						<ele>360</ele>
						<time>2019-07-31T13:02:03Z</time>
					</trkpt>
					<trkpt lat="43.767400" lon="5.937400">
						<ele>359</ele>
						<time>2019-07-31T13:02:14Z</time>
					</trkpt>
					<trkpt lat="43.767250" lon="5.938020">
						<ele>360</ele>
						<time>2019-07-31T13:02:22Z</time>
					</trkpt>
					<trkpt lat="43.767250" lon="5.938220">
						<ele>361</ele>
						<time>2019-07-31T13:02:24Z</time>
					</trkpt>
					<trkpt lat="43.767300" lon="5.938440">
						<ele>362</ele>
						<time>2019-07-31T13:02:27Z</time>
					</trkpt>
					<trkpt lat="43.767340" lon="5.938560">
						<ele>362</ele>
						<time>2019-07-31T13:02:29Z</time>
					</trkpt>
					<trkpt lat="43.767690" lon="5.939220">
						<ele>362</ele>
						<time>2019-07-31T13:02:40Z</time>
					</trkpt>
					<trkpt lat="43.767830" lon="5.939630">
						<ele>362</ele>
						<time>2019-07-31T13:02:45Z</time>
					</trkpt>
					<trkpt lat="43.767860" lon="5.939760">
						<ele>362</ele>
						<time>2019-07-31T13:02:47Z</time>
					</trkpt>
					<trkpt lat="43.767950" lon="5.941080">
						<ele>359</ele>
						<time>2019-07-31T13:03:04Z</time>
					</trkpt>
					<trkpt lat="43.768010" lon="5.941280">
						<ele>359</ele>
						<time>2019-07-31T13:03:07Z</time>
					</trkpt>
					<trkpt lat="43.768140" lon="5.941500">
						<ele>360</ele>
						<time>2019-07-31T13:03:11Z</time>
					</trkpt>
					<trkpt lat="43.768670" lon="5.942190">
						<ele>359</ele>
						<time>2019-07-31T13:03:24Z</time>
					</trkpt>
					<trkpt lat="43.769000" lon="5.942710">
						<ele>356</ele>
						<time>2019-07-31T13:03:33Z</time>
					</trkpt>
					<trkpt lat="43.769080" lon="5.942870">
						<ele>355</ele>
						<time>2019-07-31T13:03:35Z</time>
					</trkpt>
					<trkpt lat="43.769170" lon="5.943160">
						<ele>353</ele>
						<time>2019-07-31T13:03:39Z</time>
					</trkpt>
					<trkpt lat="43.769220" lon="5.943450">
						<ele>352</ele>
						<time>2019-07-31T13:03:43Z</time>
					</trkpt>
					<trkpt lat="43.769230" lon="5.943740">
						<ele>352</ele>
						<time>2019-07-31T13:03:47Z</time>
					</trkpt>
					<trkpt lat="43.769190" lon="5.944070">
						<ele>351</ele>
						<time>2019-07-31T13:03:51Z</time>
					</trkpt>
					<trkpt lat="43.768840" lon="5.945400">
						<ele>360</ele>
						<time>2019-07-31T13:04:09Z</time>
					</trkpt>
					<trkpt lat="43.768830" lon="5.945680">
						<ele>361</ele>
						<time>2019-07-31T13:04:13Z</time>
					</trkpt>
					<trkpt lat="43.768860" lon="5.945930">
						<ele>362</ele>
						<time>2019-07-31T13:04:16Z</time>
					</trkpt>
					<trkpt lat="43.768920" lon="5.946170">
						<ele>362</ele>
						<time>2019-07-31T13:04:19Z</time>
					</trkpt>
					<trkpt lat="43.769390" lon="5.947280">
						<ele>362</ele>
						<time>2019-07-31T13:04:36Z</time>
					</trkpt>
					<trkpt lat="43.770020" lon="5.948300">
						<ele>364</ele>
						<time>2019-07-31T13:04:53Z</time>
					</trkpt>
					<trkpt lat="43.770300" lon="5.948690">
						<ele>365</ele>
						<time>2019-07-31T13:05:00Z</time>
					</trkpt>
					<trkpt lat="43.770650" lon="5.949050">
						<ele>366</ele>
						<time>2019-07-31T13:05:08Z</time>
					</trkpt>
					<trkpt lat="43.771380" lon="5.949680">
						<ele>368</ele>
						<time>2019-07-31T13:05:23Z</time>
					</trkpt>
					<trkpt lat="43.771610" lon="5.949920">
						<ele>368</ele>
						<time>2019-07-31T13:05:28Z</time>
					</trkpt>
					<trkpt lat="43.771830" lon="5.950210">
						<ele>368</ele>
						<time>2019-07-31T13:05:34Z</time>
					</trkpt>
					<trkpt lat="43.772210" lon="5.950850">
						<ele>368</ele>
						<time>2019-07-31T13:05:44Z</time>
					</trkpt>
					<trkpt lat="43.772360" lon="5.951200">
						<ele>368</ele>
						<time>2019-07-31T13:05:50Z</time>
					</trkpt>
					<trkpt lat="43.772770" lon="5.952480">
						<ele>369</ele>
						<time>2019-07-31T13:06:08Z</time>
					</trkpt>
					<trkpt lat="43.773030" lon="5.953130">
						<ele>371</ele>
						<time>2019-07-31T13:06:17Z</time>
					</trkpt>
					<trkpt lat="43.774120" lon="5.955350">
						<ele>374</ele>
						<time>2019-07-31T13:06:52Z</time>
					</trkpt>
					<trkpt lat="43.774430" lon="5.956610">
						<ele>378</ele>
						<time>2019-07-31T13:07:09Z</time>
					</trkpt>
					<trkpt lat="43.774530" lon="5.957290">
						<ele>376</ele>
						<time>2019-07-31T13:07:18Z</time>
					</trkpt>
					<trkpt lat="43.775140" lon="5.959320">
						<ele>379</ele>
						<time>2019-07-31T13:07:46Z</time>
					</trkpt>
					<trkpt lat="43.775200" lon="5.959610">
						<ele>380</ele>
						<time>2019-07-31T13:07:50Z</time>
					</trkpt>
					<trkpt lat="43.775310" lon="5.961050">
						<ele>377</ele>
						<time>2019-07-31T13:08:08Z</time>
					</trkpt>
					<trkpt lat="43.775360" lon="5.961330">
						<ele>377</ele>
						<time>2019-07-31T13:08:12Z</time>
					</trkpt>
					<trkpt lat="43.775630" lon="5.962270">
						<ele>381</ele>
						<time>2019-07-31T13:08:25Z</time>
					</trkpt>
					<trkpt lat="43.775840" lon="5.963770">
						<ele>380</ele>
						<time>2019-07-31T13:08:45Z</time>
					</trkpt>
					<trkpt lat="43.776290" lon="5.965630">
						<ele>386</ele>
						<time>2019-07-31T13:09:10Z</time>
					</trkpt>
					<trkpt lat="43.776520" lon="5.967530">
						<ele>387</ele>
						<time>2019-07-31T13:09:35Z</time>
					</trkpt>
					<trkpt lat="43.776680" lon="5.969920">
						<ele>381</ele>
						<time>2019-07-31T13:10:05Z</time>
					</trkpt>
					<trkpt lat="43.776980" lon="5.971890">
						<ele>383</ele>
						<time>2019-07-31T13:10:31Z</time>
					</trkpt>
					<trkpt lat="43.777110" lon="5.973390">
						<ele>385</ele>
						<time>2019-07-31T13:10:51Z</time>
					</trkpt>
					<trkpt lat="43.777080" lon="5.973860">
						<ele>384</ele>
						<time>2019-07-31T13:10:57Z</time>
					</trkpt>
					<trkpt lat="43.776920" lon="5.974630">
						<ele>384</ele>
						<time>2019-07-31T13:11:07Z</time>
					</trkpt>
					<trkpt lat="43.776900" lon="5.974920">
						<ele>384</ele>
						<time>2019-07-31T13:11:11Z</time>
					</trkpt>
					<trkpt lat="43.776950" lon="5.975480">
						<ele>384</ele>
						<time>2019-07-31T13:11:18Z</time>
					</trkpt>
					<trkpt lat="43.777020" lon="5.975750">
						<ele>385</ele>
						<time>2019-07-31T13:11:22Z</time>
					</trkpt>
					<trkpt lat="43.777160" lon="5.976060">
						<ele>386</ele>
						<time>2019-07-31T13:11:26Z</time>
					</trkpt>
					<trkpt lat="43.777410" lon="5.976510">
						<ele>387</ele>
						<time>2019-07-31T13:11:34Z</time>
					</trkpt>
					<trkpt lat="43.777510" lon="5.976760">
						<ele>387</ele>
						<time>2019-07-31T13:11:37Z</time>
					</trkpt>
					<trkpt lat="43.777740" lon="5.978580">
						<ele>386</ele>
						<time>2019-07-31T13:12:01Z</time>
					</trkpt>
					<trkpt lat="43.777810" lon="5.978850">
						<ele>386</ele>
						<time>2019-07-31T13:12:05Z</time>
					</trkpt>
					<trkpt lat="43.777910" lon="5.979090">
						<ele>386</ele>
						<time>2019-07-31T13:12:08Z</time>
					</trkpt>
					<trkpt lat="43.779790" lon="5.982600">
						<ele>392</ele>
						<time>2019-07-31T13:13:05Z</time>
					</trkpt>
					<trkpt lat="43.780280" lon="5.983630">
						<ele>392</ele>
						<time>2019-07-31T13:13:20Z</time>
					</trkpt>
					<trkpt lat="43.780670" lon="5.984140">
						<ele>394</ele>
						<time>2019-07-31T13:13:30Z</time>
					</trkpt>
					<trkpt lat="43.780930" lon="5.984560">
						<ele>396</ele>
						<time>2019-07-31T13:13:37Z</time>
					</trkpt>
					<trkpt lat="43.781090" lon="5.984990">
						<ele>397</ele>
						<time>2019-07-31T13:13:43Z</time>
					</trkpt>
					<trkpt lat="43.781170" lon="5.985360">
						<ele>396</ele>
						<time>2019-07-31T13:13:48Z</time>
					</trkpt>
					<trkpt lat="43.781260" lon="5.986450">
						<ele>395</ele>
						<time>2019-07-31T13:14:02Z</time>
					</trkpt>
					<trkpt lat="43.781540" lon="5.987520">
						<ele>394</ele>
						<time>2019-07-31T13:14:17Z</time>
					</trkpt>
					<trkpt lat="43.782120" lon="5.990850">
						<ele>398</ele>
						<time>2019-07-31T13:15:01Z</time>
					</trkpt>
					<trkpt lat="43.782340" lon="5.991530">
						<ele>400</ele>
						<time>2019-07-31T13:15:11Z</time>
					</trkpt>
					<trkpt lat="43.782730" lon="5.992440">
						<ele>401</ele>
						<time>2019-07-31T13:15:24Z</time>
					</trkpt>
					<trkpt lat="43.782780" lon="5.992670">
						<ele>401</ele>
						<time>2019-07-31T13:15:27Z</time>
					</trkpt>
					<trkpt lat="43.782800" lon="5.992920">
						<ele>402</ele>
						<time>2019-07-31T13:15:30Z</time>
					</trkpt>
					<trkpt lat="43.782640" lon="5.993800">
						<ele>402</ele>
						<time>2019-07-31T13:15:42Z</time>
					</trkpt>
					<trkpt lat="43.782610" lon="5.994320">
						<ele>401</ele>
						<time>2019-07-31T13:15:49Z</time>
					</trkpt>
					<trkpt lat="43.782650" lon="5.994650">
						<ele>401</ele>
						<time>2019-07-31T13:15:53Z</time>
					</trkpt>
					<trkpt lat="43.783290" lon="5.998350">
						<ele>403</ele>
						<time>2019-07-31T13:16:42Z</time>
					</trkpt>
					<trkpt lat="43.783390" lon="5.999050">
						<ele>404</ele>
						<time>2019-07-31T13:16:51Z</time>
					</trkpt>
					<trkpt lat="43.783490" lon="6.000120">
						<ele>405</ele>
						<time>2019-07-31T13:17:05Z</time>
					</trkpt>
					<trkpt lat="43.783480" lon="6.000400">
						<ele>406</ele>
						<time>2019-07-31T13:17:09Z</time>
					</trkpt>
					<trkpt lat="43.782820" lon="6.003370">
						<ele>421</ele>
						<time>2019-07-31T13:17:49Z</time>
					</trkpt>
					<trkpt lat="43.782710" lon="6.004040">
						<ele>424</ele>
						<time>2019-07-31T13:17:57Z</time>
					</trkpt>
					<trkpt lat="43.782630" lon="6.004840">
						<ele>425</ele>
						<time>2019-07-31T13:18:08Z</time>
					</trkpt>
					<trkpt lat="43.782680" lon="6.005710">
						<ele>426</ele>
						<time>2019-07-31T13:18:19Z</time>
					</trkpt>
					<trkpt lat="43.782560" lon="6.006260">
						<ele>427</ele>
						<time>2019-07-31T13:18:26Z</time>
					</trkpt>
					<trkpt lat="43.782400" lon="6.007830">
						<ele>424</ele>
						<time>2019-07-31T13:18:47Z</time>
					</trkpt>
					<trkpt lat="43.782220" lon="6.008700">
						<ele>424</ele>
						<time>2019-07-31T13:18:58Z</time>
					</trkpt>
					<trkpt lat="43.781990" lon="6.009400">
						<ele>424</ele>
						<time>2019-07-31T13:19:08Z</time>
					</trkpt>
					<trkpt lat="43.781830" lon="6.009840">
						<ele>425</ele>
						<time>2019-07-31T13:19:15Z</time>
					</trkpt>
					<trkpt lat="43.781760" lon="6.009970">
						<ele>425</ele>
						<time>2019-07-31T13:19:17Z</time>
					</trkpt>
					<trkpt lat="43.780940" lon="6.010990">
						<ele>427</ele>
						<time>2019-07-31T13:19:36Z</time>
					</trkpt>
					<trkpt lat="43.780410" lon="6.011720">
						<ele>433</ele>
						<time>2019-07-31T13:19:50Z</time>
					</trkpt>
					<trkpt lat="43.780130" lon="6.012180">
						<ele>434</ele>
						<time>2019-07-31T13:19:57Z</time>
					</trkpt>
					<trkpt lat="43.779800" lon="6.012790">
						<ele>437</ele>
						<time>2019-07-31T13:20:07Z</time>
					</trkpt>
					<trkpt lat="43.779010" lon="6.014080">
						<ele>445</ele>
						<time>2019-07-31T13:20:29Z</time>
					</trkpt>
					<trkpt lat="43.778830" lon="6.014440">
						<ele>450</ele>
						<time>2019-07-31T13:20:34Z</time>
					</trkpt>
					<trkpt lat="43.778690" lon="6.014860">
						<ele>453</ele>
						<time>2019-07-31T13:20:40Z</time>
					</trkpt>
					<trkpt lat="43.778430" lon="6.016600">
						<ele>451</ele>
						<time>2019-07-31T13:21:03Z</time>
					</trkpt>
					<trkpt lat="43.778300" lon="6.017670">
						<ele>453</ele>
						<time>2019-07-31T13:21:17Z</time>
					</trkpt>
					<trkpt lat="43.778190" lon="6.019150">
						<ele>460</ele>
						<time>2019-07-31T13:21:36Z</time>
					</trkpt>
					<trkpt lat="43.778190" lon="6.019640">
						<ele>460</ele>
						<time>2019-07-31T13:21:43Z</time>
					</trkpt>
					<trkpt lat="43.778310" lon="6.020770">
						<ele>458</ele>
						<time>2019-07-31T13:21:57Z</time>
					</trkpt>
					<trkpt lat="43.778330" lon="6.021250">
						<ele>458</ele>
						<time>2019-07-31T13:22:03Z</time>
					</trkpt>
					<trkpt lat="43.778120" lon="6.023250">
						<ele>461</ele>
						<time>2019-07-31T13:22:29Z</time>
					</trkpt>
					<trkpt lat="43.778120" lon="6.023990">
						<ele>461</ele>
						<time>2019-07-31T13:22:39Z</time>
					</trkpt>
					<trkpt lat="43.778090" lon="6.024490">
						<ele>461</ele>
						<time>2019-07-31T13:22:45Z</time>
					</trkpt>
					<trkpt lat="43.777890" lon="6.025690">
						<ele>466</ele>
						<time>2019-07-31T13:23:01Z</time>
					</trkpt>
					<trkpt lat="43.777830" lon="6.026210">
						<ele>467</ele>
						<time>2019-07-31T13:23:08Z</time>
					</trkpt>
					<trkpt lat="43.777830" lon="6.026980">
						<ele>467</ele>
						<time>2019-07-31T13:23:18Z</time>
					</trkpt>
					<trkpt lat="43.777770" lon="6.028200">
						<ele>471</ele>
						<time>2019-07-31T13:23:33Z</time>
					</trkpt>
					<trkpt lat="43.777770" lon="6.028980">
						<ele>472</ele>
						<time>2019-07-31T13:23:43Z</time>
					</trkpt>
					<trkpt lat="43.777690" lon="6.030410">
						<ele>472</ele>
						<time>2019-07-31T13:24:02Z</time>
					</trkpt>
					<trkpt lat="43.777490" lon="6.031240">
						<ele>474</ele>
						<time>2019-07-31T13:24:13Z</time>
					</trkpt>
					<trkpt lat="43.777290" lon="6.032350">
						<ele>480</ele>
						<time>2019-07-31T13:24:28Z</time>
					</trkpt>
					<trkpt lat="43.777270" lon="6.032810">
						<ele>479</ele>
						<time>2019-07-31T13:24:34Z</time>
					</trkpt>
					<trkpt lat="43.777290" lon="6.033050">
						<ele>478</ele>
						<time>2019-07-31T13:24:37Z</time>
					</trkpt>
					<trkpt lat="43.777370" lon="6.033480">
						<ele>474</ele>
						<time>2019-07-31T13:24:43Z</time>
					</trkpt>
					<trkpt lat="43.777380" lon="6.033690">
						<ele>474</ele>
						<time>2019-07-31T13:24:45Z</time>
					</trkpt>
					<trkpt lat="43.777360" lon="6.033870">
						<ele>474</ele>
						<time>2019-07-31T13:24:48Z</time>
					</trkpt>
					<trkpt lat="43.777300" lon="6.034090">
						<ele>475</ele>
						<time>2019-07-31T13:24:51Z</time>
					</trkpt>
					<trkpt lat="43.777080" lon="6.034690">
						<ele>480</ele>
						<time>2019-07-31T13:24:59Z</time>
					</trkpt>
					<trkpt lat="43.777030" lon="6.034920">
						<ele>481</ele>
						<time>2019-07-31T13:25:02Z</time>
					</trkpt>
					<trkpt lat="43.776920" lon="6.035670">
						<ele>482</ele>
						<time>2019-07-31T13:25:12Z</time>
					</trkpt>
					<trkpt lat="43.776850" lon="6.036570">
						<ele>481</ele>
						<time>2019-07-31T13:25:24Z</time>
					</trkpt>
					<trkpt lat="43.776570" lon="6.037640">
						<ele>484</ele>
						<time>2019-07-31T13:25:38Z</time>
					</trkpt>
					<trkpt lat="43.775790" lon="6.043520">
						<ele>483</ele>
						<time>2019-07-31T13:26:55Z</time>
					</trkpt>
					<trkpt lat="43.775770" lon="6.044060">
						<ele>484</ele>
						<time>2019-07-31T13:27:02Z</time>
					</trkpt>
					<trkpt lat="43.775800" lon="6.045040">
						<ele>490</ele>
						<time>2019-07-31T13:27:15Z</time>
					</trkpt>
					<trkpt lat="43.775850" lon="6.045470">
						<ele>489</ele>
						<time>2019-07-31T13:27:20Z</time>
					</trkpt>
					<trkpt lat="43.776250" lon="6.046700">
						<ele>494</ele>
						<time>2019-07-31T13:27:38Z</time>
					</trkpt>
					<trkpt lat="43.776300" lon="6.047120">
						<ele>494</ele>
						<time>2019-07-31T13:27:43Z</time>
					</trkpt>
					<trkpt lat="43.776120" lon="6.048230">
						<ele>496</ele>
						<time>2019-07-31T13:27:58Z</time>
					</trkpt>
					<trkpt lat="43.776020" lon="6.048690">
						<ele>496</ele>
						<time>2019-07-31T13:28:04Z</time>
					</trkpt>
					<trkpt lat="43.775940" lon="6.048890">
						<ele>495</ele>
						<time>2019-07-31T13:28:07Z</time>
					</trkpt>
					<trkpt lat="43.775840" lon="6.049050">
						<ele>494</ele>
						<time>2019-07-31T13:28:10Z</time>
					</trkpt>
					<trkpt lat="43.775530" lon="6.049440">
						<ele>501</ele>
						<time>2019-07-31T13:28:17Z</time>
					</trkpt>
					<trkpt lat="43.775450" lon="6.049590">
						<ele>504</ele>
						<time>2019-07-31T13:28:20Z</time>
					</trkpt>
					<trkpt lat="43.775260" lon="6.050670">
						<ele>510</ele>
						<time>2019-07-31T13:28:34Z</time>
					</trkpt>
					<trkpt lat="43.775120" lon="6.051860">
						<ele>505</ele>
						<time>2019-07-31T13:28:49Z</time>
					</trkpt>
					<trkpt lat="43.774860" lon="6.052770">
						<ele>506</ele>
						<time>2019-07-31T13:29:02Z</time>
					</trkpt>
					<trkpt lat="43.774760" lon="6.053300">
						<ele>508</ele>
						<time>2019-07-31T13:29:09Z</time>
					</trkpt>
					<trkpt lat="43.774670" lon="6.053850">
						<ele>510</ele>
						<time>2019-07-31T13:29:16Z</time>
					</trkpt>
					<trkpt lat="43.774510" lon="6.055930">
						<ele>513</ele>
						<time>2019-07-31T13:29:43Z</time>
					</trkpt>
					<trkpt lat="43.774520" lon="6.056850">
						<ele>512</ele>
						<time>2019-07-31T13:29:55Z</time>
					</trkpt>
					<trkpt lat="43.773930" lon="6.060110">
						<ele>519</ele>
						<time>2019-07-31T13:30:38Z</time>
					</trkpt>
					<trkpt lat="43.773880" lon="6.060650">
						<ele>523</ele>
						<time>2019-07-31T13:30:45Z</time>
					</trkpt>
					<trkpt lat="43.773850" lon="6.061800">
						<ele>526</ele>
						<time>2019-07-31T13:31:00Z</time>
					</trkpt>
					<trkpt lat="43.773890" lon="6.062690">
						<ele>526</ele>
						<time>2019-07-31T13:31:11Z</time>
					</trkpt>
					<trkpt lat="43.774000" lon="6.064170">
						<ele>524</ele>
						<time>2019-07-31T13:31:30Z</time>
					</trkpt>
					<trkpt lat="43.774060" lon="6.065600">
						<ele>527</ele>
						<time>2019-07-31T13:31:49Z</time>
					</trkpt>
					<trkpt lat="43.774100" lon="6.065870">
						<ele>527</ele>
						<time>2019-07-31T13:31:52Z</time>
					</trkpt>
					<trkpt lat="43.774420" lon="6.067220">
						<ele>529</ele>
						<time>2019-07-31T13:32:11Z</time>
					</trkpt>
					<trkpt lat="43.774690" lon="6.068850">
						<ele>530</ele>
						<time>2019-07-31T13:32:32Z</time>
					</trkpt>
					<trkpt lat="43.774820" lon="6.069940">
						<ele>533</ele>
						<time>2019-07-31T13:32:46Z</time>
					</trkpt>
					<trkpt lat="43.774980" lon="6.070790">
						<ele>533</ele>
						<time>2019-07-31T13:32:58Z</time>
					</trkpt>
					<trkpt lat="43.775280" lon="6.072150">
						<ele>538</ele>
						<time>2019-07-31T13:33:16Z</time>
					</trkpt>
					<trkpt lat="43.775820" lon="6.074360">
						<ele>537</ele>
						<time>2019-07-31T13:33:46Z</time>
					</trkpt>
					<trkpt lat="43.776130" lon="6.076450">
						<ele>548</ele>
						<time>2019-07-31T13:34:13Z</time>
					</trkpt>
					<trkpt lat="43.776270" lon="6.076950">
						<ele>548</ele>
						<time>2019-07-31T13:34:20Z</time>
					</trkpt>
					<trkpt lat="43.776760" lon="6.078140">
						<ele>548</ele>
						<time>2019-07-31T13:34:38Z</time>
					</trkpt>
					<trkpt lat="43.776950" lon="6.078720">
						<ele>547</ele>
						<time>2019-07-31T13:34:46Z</time>
					</trkpt>
					<trkpt lat="43.776960" lon="6.079440">
						<ele>550</ele>
						<time>2019-07-31T13:34:55Z</time>
					</trkpt>
					<trkpt lat="43.777050" lon="6.079960">
						<ele>550</ele>
						<time>2019-07-31T13:35:02Z</time>
					</trkpt>
					<trkpt lat="43.777080" lon="6.080580">
						<ele>554</ele>
						<time>2019-07-31T13:35:10Z</time>
					</trkpt>
					<trkpt lat="43.777320" lon="6.082160">
						<ele>554</ele>
						<time>2019-07-31T13:35:31Z</time>
					</trkpt>
					<trkpt lat="43.777440" lon="6.082580">
						<ele>553</ele>
						<time>2019-07-31T13:35:37Z</time>
					</trkpt>
					<trkpt lat="43.777830" lon="6.083610">
						<ele>552</ele>
						<time>2019-07-31T13:35:51Z</time>
					</trkpt>
					<trkpt lat="43.777940" lon="6.083970">
						<ele>553</ele>
						<time>2019-07-31T13:35:56Z</time>
					</trkpt>
					<trkpt lat="43.777990" lon="6.084290">
						<ele>554</ele>
						<time>2019-07-31T13:36:01Z</time>
					</trkpt>
					<trkpt lat="43.777960" lon="6.084590">
						<ele>553</ele>
						<time>2019-07-31T13:36:05Z</time>
					</trkpt>
					<trkpt lat="43.777970" lon="6.084730">
						<ele>553</ele>
						<time>2019-07-31T13:36:06Z</time>
					</trkpt>
					<trkpt lat="43.778010" lon="6.084850">
						<ele>553</ele>
						<time>2019-07-31T13:36:08Z</time>
					</trkpt>
					<trkpt lat="43.778080" lon="6.084930">
						<ele>552</ele>
						<time>2019-07-31T13:36:10Z</time>
					</trkpt>
					<trkpt lat="43.778360" lon="6.085130">
						<ele>551</ele>
						<time>2019-07-31T13:36:15Z</time>
					</trkpt>
					<trkpt lat="43.778800" lon="6.085610">
						<ele>552</ele>
						<time>2019-07-31T13:36:25Z</time>
					</trkpt>
					<trkpt lat="43.779120" lon="6.086080">
						<ele>552</ele>
						<time>2019-07-31T13:36:34Z</time>
					</trkpt>
					<trkpt lat="43.779750" lon="6.087140">
						<ele>553</ele>
						<time>2019-07-31T13:36:51Z</time>
					</trkpt>
					<trkpt lat="43.779880" lon="6.087520">
						<ele>554</ele>
						<time>2019-07-31T13:36:57Z</time>
					</trkpt>
					<trkpt lat="43.779870" lon="6.087740">
						<ele>554</ele>
						<time>2019-07-31T13:36:59Z</time>
					</trkpt>
					<trkpt lat="43.779790" lon="6.088020">
						<ele>556</ele>
						<time>2019-07-31T13:37:03Z</time>
					</trkpt>
					<trkpt lat="43.778650" lon="6.090970">
						<ele>564</ele>
						<time>2019-07-31T13:37:46Z</time>
					</trkpt>
					<trkpt lat="43.778560" lon="6.091340">
						<ele>564</ele>
						<time>2019-07-31T13:37:51Z</time>
					</trkpt>
					<trkpt lat="43.778460" lon="6.091910">
						<ele>565</ele>
						<time>2019-07-31T13:37:59Z</time>
					</trkpt>
					<trkpt lat="43.778350" lon="6.092960">
						<ele>565</ele>
						<time>2019-07-31T13:38:12Z</time>
					</trkpt>
					<trkpt lat="43.778390" lon="6.093650">
						<ele>567</ele>
						<time>2019-07-31T13:38:21Z</time>
					</trkpt>
					<trkpt lat="43.778310" lon="6.095010">
						<ele>572</ele>
						<time>2019-07-31T13:38:39Z</time>
					</trkpt>
					<trkpt lat="43.778080" lon="6.095850">
						<ele>575</ele>
						<time>2019-07-31T13:38:50Z</time>
					</trkpt>
					<trkpt lat="43.777970" lon="6.096080">
						<ele>576</ele>
						<time>2019-07-31T13:38:54Z</time>
					</trkpt>
					<trkpt lat="43.777780" lon="6.096340">
						<ele>576</ele>
						<time>2019-07-31T13:38:59Z</time>
					</trkpt>
					<trkpt lat="43.777690" lon="6.096640">
						<ele>576</ele>
						<time>2019-07-31T13:39:03Z</time>
					</trkpt>
					<trkpt lat="43.777600" lon="6.097810">
						<ele>581</ele>
						<time>2019-07-31T13:39:18Z</time>
					</trkpt>
					<trkpt lat="43.777700" lon="6.098730">
						<ele>581</ele>
						<time>2019-07-31T13:39:30Z</time>
					</trkpt>
					<trkpt lat="43.777810" lon="6.098830">
						<ele>581</ele>
						<time>2019-07-31T13:39:32Z</time>
					</trkpt>
					<trkpt lat="43.777990" lon="6.098890">
						<ele>582</ele>
						<time>2019-07-31T13:39:36Z</time>
					</trkpt>
					<trkpt lat="43.778220" lon="6.098870">
						<ele>582</ele>
						<time>2019-07-31T13:39:40Z</time>
					</trkpt>
					<trkpt lat="43.778360" lon="6.098330">
						<ele>581</ele>
						<time>2019-07-31T13:39:47Z</time>
					</trkpt>
					<trkpt lat="43.778620" lon="6.097110">
						<ele>587</ele>
						<time>2019-07-31T13:40:03Z</time>
					</trkpt>
					<trkpt lat="43.778750" lon="6.096820">
						<ele>589</ele>
						<time>2019-07-31T13:40:08Z</time>
					</trkpt>
					<trkpt lat="43.778970" lon="6.096160">
						<ele>590</ele>
						<time>2019-07-31T13:40:17Z</time>
					</trkpt>
					<trkpt lat="43.779060" lon="6.096040">
						<ele>591</ele>
						<time>2019-07-31T13:40:19Z</time>
					</trkpt>
					<trkpt lat="43.779100" lon="6.095860">
						<ele>591</ele>
						<time>2019-07-31T13:40:22Z</time>
					</trkpt>
					<trkpt lat="43.779120" lon="6.095490">
						<ele>589</ele>
						<time>2019-07-31T13:40:27Z</time>
					</trkpt>
					<trkpt lat="43.779230" lon="6.095490">
						<ele>591</ele>
						<time>2019-07-31T13:40:28Z</time>
					</trkpt>
					<trkpt lat="43.779330" lon="6.095340">
						<ele>591</ele>
						<time>2019-07-31T13:40:31Z</time>
					</trkpt>
					<trkpt lat="43.779770" lon="6.095250">
						<ele>594</ele>
						<time>2019-07-31T13:40:39Z</time>
					</trkpt>
					<trkpt lat="43.779780" lon="6.095340">
						<ele>595</ele>
						<time>2019-07-31T13:40:40Z</time>
					</trkpt>
					<trkpt lat="43.779740" lon="6.095470">
						<ele>595</ele>
						<time>2019-07-31T13:40:42Z</time>
					</trkpt>
					<trkpt lat="43.779680" lon="6.095610">
						<ele>596</ele>
						<time>2019-07-31T13:40:44Z</time>
					</trkpt>
					<trkpt lat="43.779580" lon="6.095730">
						<ele>595</ele>
						<time>2019-07-31T13:40:46Z</time>
					</trkpt>
					<trkpt lat="43.779520" lon="6.095880">
						<ele>596</ele>
						<time>2019-07-31T13:40:49Z</time>
					</trkpt>
					<trkpt lat="43.779310" lon="6.096940">
						<ele>601</ele>
						<time>2019-07-31T13:41:03Z</time>
					</trkpt>
					<trkpt lat="43.779580" lon="6.098860">
						<ele>610</ele>
						<time>2019-07-31T13:41:28Z</time>
					</trkpt>
					<trkpt lat="43.779670" lon="6.099290">
						<ele>612</ele>
						<time>2019-07-31T13:41:34Z</time>
					</trkpt>
					<trkpt lat="43.780260" lon="6.101430">
						<ele>613</ele>
						<time>2019-07-31T13:42:03Z</time>
					</trkpt>
					<trkpt lat="43.780600" lon="6.102570">
						<ele>616</ele>
						<time>2019-07-31T13:42:19Z</time>
					</trkpt>
					<trkpt lat="43.780800" lon="6.103400">
						<ele>618</ele>
						<time>2019-07-31T13:42:30Z</time>
					</trkpt>
					<trkpt lat="43.781100" lon="6.104330">
						<ele>616</ele>
						<time>2019-07-31T13:42:43Z</time>
					</trkpt>
					<trkpt lat="43.781160" lon="6.104710">
						<ele>617</ele>
						<time>2019-07-31T13:42:48Z</time>
					</trkpt>
					<trkpt lat="43.781230" lon="6.105930">
						<ele>620</ele>
						<time>2019-07-31T13:43:04Z</time>
					</trkpt>
					<trkpt lat="43.781250" lon="6.106820">
						<ele>622</ele>
						<time>2019-07-31T13:43:15Z</time>
					</trkpt>
					<trkpt lat="43.781140" lon="6.113210">
						<ele>630</ele>
						<time>2019-07-31T13:44:38Z</time>
					</trkpt>
					<trkpt lat="43.781150" lon="6.114060">
						<ele>631</ele>
						<time>2019-07-31T13:44:48Z</time>
					</trkpt>
					<trkpt lat="43.781180" lon="6.114780">
						<ele>632</ele>
						<time>2019-07-31T13:44:58Z</time>
					</trkpt>
					<trkpt lat="43.781320" lon="6.116610">
						<ele>633</ele>
						<time>2019-07-31T13:45:21Z</time>
					</trkpt>
					<trkpt lat="43.781570" lon="6.119410">
						<ele>635</ele>
						<time>2019-07-31T13:45:58Z</time>
					</trkpt>
					<trkpt lat="43.781790" lon="6.121380">
						<ele>638</ele>
						<time>2019-07-31T13:46:23Z</time>
					</trkpt>
					<trkpt lat="43.781840" lon="6.122280">
						<ele>637</ele>
						<time>2019-07-31T13:46:35Z</time>
					</trkpt>
					<trkpt lat="43.781830" lon="6.123190">
						<ele>635</ele>
						<time>2019-07-31T13:46:47Z</time>
					</trkpt>
					<trkpt lat="43.781710" lon="6.126920">
						<ele>637</ele>
						<time>2019-07-31T13:47:34Z</time>
					</trkpt>
					<trkpt lat="43.781750" lon="6.127350">
						<ele>636</ele>
						<time>2019-07-31T13:47:40Z</time>
					</trkpt>
					<trkpt lat="43.781870" lon="6.127960">
						<ele>636</ele>
						<time>2019-07-31T13:47:48Z</time>
					</trkpt>
					<trkpt lat="43.782480" lon="6.130220">
						<ele>638</ele>
						<time>2019-07-31T13:48:19Z</time>
					</trkpt>
					<trkpt lat="43.782570" lon="6.130860">
						<ele>637</ele>
						<time>2019-07-31T13:48:28Z</time>
					</trkpt>
					<trkpt lat="43.782580" lon="6.131320">
						<ele>637</ele>
						<time>2019-07-31T13:48:33Z</time>
					</trkpt>
					<trkpt lat="43.782540" lon="6.131770">
						<ele>637</ele>
						<time>2019-07-31T13:48:39Z</time>
					</trkpt>
					<trkpt lat="43.782160" lon="6.133500">
						<ele>641</ele>
						<time>2019-07-31T13:49:02Z</time>
					</trkpt>
					<trkpt lat="43.781940" lon="6.135030">
						<ele>640</ele>
						<time>2019-07-31T13:49:23Z</time>
					</trkpt>
					<trkpt lat="43.781920" lon="6.135840">
						<ele>641</ele>
						<time>2019-07-31T13:49:33Z</time>
					</trkpt>
					<trkpt lat="43.782110" lon="6.137900">
						<ele>643</ele>
						<time>2019-07-31T13:50:00Z</time>
					</trkpt>
					<trkpt lat="43.782080" lon="6.137980">
						<ele>643</ele>
						<time>2019-07-31T13:50:01Z</time>
					</trkpt>
					<trkpt lat="43.782820" lon="6.139860">
						<ele>643</ele>
						<time>2019-07-31T13:50:28Z</time>
					</trkpt>
					<trkpt lat="43.783460" lon="6.141150">
						<ele>645</ele>
						<time>2019-07-31T13:50:48Z</time>
					</trkpt>
					<trkpt lat="43.783570" lon="6.141330">
						<ele>646</ele>
						<time>2019-07-31T13:50:51Z</time>
					</trkpt>
					<trkpt lat="43.783850" lon="6.141590">
						<ele>645</ele>
						<time>2019-07-31T13:50:57Z</time>
					</trkpt>
					<trkpt lat="43.784080" lon="6.141730">
						<ele>645</ele>
						<time>2019-07-31T13:51:02Z</time>
					</trkpt>
					<trkpt lat="43.784400" lon="6.141810">
						<ele>644</ele>
						<time>2019-07-31T13:51:08Z</time>
					</trkpt>
					<trkpt lat="43.784480" lon="6.141900">
						<ele>644</ele>
						<time>2019-07-31T13:51:10Z</time>
					</trkpt>
					<trkpt lat="43.784550" lon="6.142120">
						<ele>644</ele>
						<time>2019-07-31T13:51:13Z</time>
					</trkpt>
					<trkpt lat="43.784510" lon="6.142270">
						<ele>645</ele>
						<time>2019-07-31T13:51:15Z</time>
					</trkpt>
					<trkpt lat="43.784220" lon="6.142470">
						<ele>647</ele>
						<time>2019-07-31T13:51:20Z</time>
					</trkpt>
					<trkpt lat="43.782320" lon="6.143270">
						<ele>647</ele>
						<time>2019-07-31T13:51:56Z</time>
					</trkpt>
					<trkpt lat="43.780640" lon="6.143930">
						<ele>647</ele>
						<time>2019-07-31T13:52:27Z</time>
					</trkpt>
					<trkpt lat="43.780060" lon="6.144120">
						<ele>647</ele>
						<time>2019-07-31T13:52:37Z</time>
					</trkpt>
					<trkpt lat="43.778720" lon="6.144500">
						<ele>649</ele>
						<time>2019-07-31T13:53:02Z</time>
					</trkpt>
					<trkpt lat="43.777070" lon="6.144900">
						<ele>645</ele>
						<time>2019-07-31T13:53:32Z</time>
					</trkpt>
					<trkpt lat="43.776480" lon="6.144970">
						<ele>644</ele>
						<time>2019-07-31T13:53:42Z</time>
					</trkpt>
					<trkpt lat="43.775050" lon="6.144950">
						<ele>646</ele>
						<time>2019-07-31T13:54:08Z</time>
					</trkpt>
					<trkpt lat="43.774440" lon="6.144990">
						<ele>643</ele>
						<time>2019-07-31T13:54:18Z</time>
					</trkpt>
					<trkpt lat="43.773850" lon="6.145080">
						<ele>642</ele>
						<time>2019-07-31T13:54:29Z</time>
					</trkpt>
					<trkpt lat="43.771310" lon="6.145600">
						<ele>641</ele>
						<time>2019-07-31T13:55:15Z</time>
					</trkpt>
					<trkpt lat="43.770760" lon="6.145680">
						<ele>643</ele>
						<time>2019-07-31T13:55:25Z</time>
					</trkpt>
					<trkpt lat="43.770000" lon="6.145710">
						<ele>644</ele>
						<time>2019-07-31T13:55:38Z</time>
					</trkpt>
					<trkpt lat="43.768370" lon="6.145650">
						<ele>643</ele>
						<time>2019-07-31T13:56:07Z</time>
					</trkpt>
					<trkpt lat="43.767780" lon="6.145660">
						<ele>643</ele>
						<time>2019-07-31T13:56:18Z</time>
					</trkpt>
					<trkpt lat="43.766970" lon="6.145710">
						<ele>643</ele>
						<time>2019-07-31T13:56:32Z</time>
					</trkpt>
					<trkpt lat="43.765960" lon="6.145880">
						<ele>641</ele>
						<time>2019-07-31T13:56:50Z</time>
					</trkpt>
					<trkpt lat="43.765580" lon="6.145980">
						<ele>641</ele>
						<time>2019-07-31T13:56:57Z</time>
					</trkpt>
					<trkpt lat="43.765100" lon="6.146260">
						<ele>642</ele>
						<time>2019-07-31T13:57:06Z</time>
					</trkpt>
					<trkpt lat="43.764670" lon="6.146590">
						<ele>641</ele>
						<time>2019-07-31T13:57:15Z</time>
					</trkpt>
					<trkpt lat="43.763440" lon="6.147730">
						<ele>636</ele>
						<time>2019-07-31T13:57:41Z</time>
					</trkpt>
					<trkpt lat="43.763180" lon="6.147810">
						<ele>633</ele>
						<time>2019-07-31T13:57:46Z</time>
					</trkpt>
					<trkpt lat="43.762850" lon="6.147770">
						<ele>630</ele>
						<time>2019-07-31T13:57:52Z</time>
					</trkpt>
					<trkpt lat="43.762650" lon="6.147680">
						<ele>630</ele>
						<time>2019-07-31T13:57:56Z</time>
					</trkpt>
					<trkpt lat="43.762170" lon="6.147230">
						<ele>631</ele>
						<time>2019-07-31T13:58:06Z</time>
					</trkpt>
					<trkpt lat="43.762060" lon="6.147160">
						<ele>631</ele>
						<time>2019-07-31T13:58:08Z</time>
					</trkpt>
					<trkpt lat="43.761490" lon="6.146970">
						<ele>625</ele>
						<time>2019-07-31T13:58:19Z</time>
					</trkpt>
					<trkpt lat="43.761390" lon="6.146910">
						<ele>623</ele>
						<time>2019-07-31T13:58:21Z</time>
					</trkpt>
					<trkpt lat="43.761250" lon="6.146710">
						<ele>622</ele>
						<time>2019-07-31T13:58:24Z</time>
					</trkpt>
					<trkpt lat="43.760990" lon="6.145870">
						<ele>623</ele>
						<time>2019-07-31T13:58:36Z</time>
					</trkpt>
					<trkpt lat="43.760900" lon="6.145330">
						<ele>621</ele>
						<time>2019-07-31T13:58:43Z</time>
					</trkpt>
					<trkpt lat="43.760820" lon="6.145170">
						<ele>619</ele>
						<time>2019-07-31T13:58:45Z</time>
					</trkpt>
					<trkpt lat="43.760730" lon="6.145180">
						<ele>617</ele>
						<time>2019-07-31T13:58:47Z</time>
					</trkpt>
					<trkpt lat="43.760660" lon="6.145310">
						<ele>615</ele>
						<time>2019-07-31T13:58:49Z</time>
					</trkpt>
					<trkpt lat="43.760650" lon="6.145510">
						<ele>615</ele>
						<time>2019-07-31T13:58:52Z</time>
					</trkpt>
					<trkpt lat="43.760870" lon="6.146320">
						<ele>615</ele>
						<time>2019-07-31T13:59:03Z</time>
					</trkpt>
					<trkpt lat="43.760880" lon="6.147040">
						<ele>608</ele>
						<time>2019-07-31T13:59:12Z</time>
					</trkpt>
					<trkpt lat="43.760920" lon="6.147310">
						<ele>606</ele>
						<time>2019-07-31T13:59:16Z</time>
					</trkpt>
					<trkpt lat="43.761030" lon="6.147530">
						<ele>606</ele>
						<time>2019-07-31T13:59:19Z</time>
					</trkpt>
					<trkpt lat="43.761100" lon="6.147610">
						<ele>605</ele>
						<time>2019-07-31T13:59:21Z</time>
					</trkpt>
					<trkpt lat="43.761410" lon="6.147740">
						<ele>608</ele>
						<time>2019-07-31T13:59:26Z</time>
					</trkpt>
					<trkpt lat="43.761480" lon="6.147840">
						<ele>607</ele>
						<time>2019-07-31T13:59:28Z</time>
					</trkpt>
					<trkpt lat="43.761470" lon="6.147940">
						<ele>604</ele>
						<time>2019-07-31T13:59:30Z</time>
					</trkpt>
					<trkpt lat="43.761390" lon="6.148000">
						<ele>602</ele>
						<time>2019-07-31T13:59:31Z</time>
					</trkpt>
					<trkpt lat="43.761100" lon="6.147860">
						<ele>600</ele>
						<time>2019-07-31T13:59:37Z</time>
					</trkpt>
					<trkpt lat="43.760850" lon="6.147690">
						<ele>599</ele>
						<time>2019-07-31T13:59:42Z</time>
					</trkpt>
					<trkpt lat="43.760710" lon="6.147520">
						<ele>598</ele>
						<time>2019-07-31T13:59:45Z</time>
					</trkpt>
					<trkpt lat="43.760620" lon="6.147140">
						<ele>598</ele>
						<time>2019-07-31T13:59:50Z</time>
					</trkpt>
					<trkpt lat="43.760580" lon="6.147080">
						<ele>597</ele>
						<time>2019-07-31T13:59:51Z</time>
					</trkpt>
					<trkpt lat="43.760480" lon="6.147050">
						<ele>594</ele>
						<time>2019-07-31T13:59:53Z</time>
					</trkpt>
					<trkpt lat="43.760430" lon="6.147090">
						<ele>592</ele>
						<time>2019-07-31T13:59:54Z</time>
					</trkpt>
					<trkpt lat="43.760390" lon="6.147230">
						<ele>590</ele>
						<time>2019-07-31T13:59:56Z</time>
					</trkpt>
					<trkpt lat="43.760410" lon="6.147310">
						<ele>590</ele>
						<time>2019-07-31T13:59:57Z</time>
					</trkpt>
					<trkpt lat="43.760920" lon="6.148360">
						<ele>588</ele>
						<time>2019-07-31T14:00:13Z</time>
					</trkpt>
					<trkpt lat="43.760930" lon="6.148430">
						<ele>587</ele>
						<time>2019-07-31T14:00:14Z</time>
					</trkpt>
					<trkpt lat="43.760880" lon="6.148530">
						<ele>585</ele>
						<time>2019-07-31T14:00:16Z</time>
					</trkpt>
					<trkpt lat="43.760780" lon="6.148520">
						<ele>584</ele>
						<time>2019-07-31T14:00:17Z</time>
					</trkpt>
					<trkpt lat="43.760730" lon="6.148480">
						<ele>583</ele>
						<time>2019-07-31T14:00:19Z</time>
					</trkpt>
					<trkpt lat="43.760570" lon="6.148140">
						<ele>585</ele>
						<time>2019-07-31T14:00:24Z</time>
					</trkpt>
					<trkpt lat="43.760450" lon="6.147950">
						<ele>584</ele>
						<time>2019-07-31T14:00:27Z</time>
					</trkpt>
					<trkpt lat="43.760260" lon="6.147810">
						<ele>581</ele>
						<time>2019-07-31T14:00:31Z</time>
					</trkpt>
					<trkpt lat="43.760080" lon="6.147590">
						<ele>578</ele>
						<time>2019-07-31T14:00:35Z</time>
					</trkpt>
					<trkpt lat="43.760040" lon="6.147490">
						<ele>577</ele>
						<time>2019-07-31T14:00:37Z</time>
					</trkpt>
					<trkpt lat="43.760030" lon="6.147370">
						<ele>577</ele>
						<time>2019-07-31T14:00:38Z</time>
					</trkpt>
					<trkpt lat="43.760140" lon="6.146920">
						<ele>583</ele>
						<time>2019-07-31T14:00:44Z</time>
					</trkpt>
					<trkpt lat="43.760170" lon="6.146640">
						<ele>586</ele>
						<time>2019-07-31T14:00:48Z</time>
					</trkpt>
					<trkpt lat="43.760130" lon="6.146490">
						<ele>587</ele>
						<time>2019-07-31T14:00:50Z</time>
					</trkpt>
					<trkpt lat="43.760030" lon="6.146310">
						<ele>586</ele>
						<time>2019-07-31T14:00:53Z</time>
					</trkpt>
					<trkpt lat="43.759580" lon="6.145830">
						<ele>582</ele>
						<time>2019-07-31T14:01:03Z</time>
					</trkpt>
					<trkpt lat="43.759250" lon="6.145370">
						<ele>580</ele>
						<time>2019-07-31T14:01:11Z</time>
					</trkpt>
					<trkpt lat="43.759120" lon="6.145110">
						<ele>581</ele>
						<time>2019-07-31T14:01:15Z</time>
					</trkpt>
					<trkpt lat="43.759020" lon="6.144820">
						<ele>581</ele>
						<time>2019-07-31T14:01:19Z</time>
					</trkpt>
					<trkpt lat="43.758780" lon="6.143870">
						<ele>579</ele>
						<time>2019-07-31T14:01:32Z</time>
					</trkpt>
					<trkpt lat="43.758590" lon="6.143440">
						<ele>578</ele>
						<time>2019-07-31T14:01:39Z</time>
					</trkpt>
					<trkpt lat="43.758340" lon="6.143040">
						<ele>578</ele>
						<time>2019-07-31T14:01:46Z</time>
					</trkpt>
					<trkpt lat="43.757610" lon="6.142050">
						<ele>578</ele>
						<time>2019-07-31T14:02:04Z</time>
					</trkpt>
					<trkpt lat="43.757270" lon="6.141390">
						<ele>574</ele>
						<time>2019-07-31T14:02:14Z</time>
					</trkpt>
					<trkpt lat="43.757060" lon="6.141110">
						<ele>571</ele>
						<time>2019-07-31T14:02:19Z</time>
					</trkpt>
					<trkpt lat="43.756510" lon="6.140500">
						<ele>565</ele>
						<time>2019-07-31T14:02:32Z</time>
					</trkpt>
					<trkpt lat="43.756220" lon="6.140240">
						<ele>560</ele>
						<time>2019-07-31T14:02:38Z</time>
					</trkpt>
					<trkpt lat="43.755970" lon="6.140140">
						<ele>559</ele>
						<time>2019-07-31T14:02:43Z</time>
					</trkpt>
					<trkpt lat="43.755880" lon="6.140150">
						<ele>559</ele>
						<time>2019-07-31T14:02:44Z</time>
					</trkpt>
					<trkpt lat="43.755730" lon="6.140240">
						<ele>558</ele>
						<time>2019-07-31T14:02:47Z</time>
					</trkpt>
					<trkpt lat="43.755460" lon="6.140780">
						<ele>558</ele>
						<time>2019-07-31T14:02:56Z</time>
					</trkpt>
					<trkpt lat="43.755340" lon="6.140820">
						<ele>556</ele>
						<time>2019-07-31T14:02:58Z</time>
					</trkpt>
					<trkpt lat="43.755230" lon="6.140730">
						<ele>553</ele>
						<time>2019-07-31T14:03:00Z</time>
					</trkpt>
					<trkpt lat="43.755200" lon="6.140550">
						<ele>551</ele>
						<time>2019-07-31T14:03:03Z</time>
					</trkpt>
					<trkpt lat="43.755220" lon="6.140460">
						<ele>550</ele>
						<time>2019-07-31T14:03:04Z</time>
					</trkpt>
					<trkpt lat="43.755630" lon="6.139710">
						<ele>548</ele>
						<time>2019-07-31T14:03:16Z</time>
					</trkpt>
					<trkpt lat="43.755790" lon="6.139620">
						<ele>551</ele>
						<time>2019-07-31T14:03:19Z</time>
					</trkpt>
					<trkpt lat="43.755970" lon="6.139650">
						<ele>551</ele>
						<time>2019-07-31T14:03:22Z</time>
					</trkpt>
					<trkpt lat="43.757710" lon="6.140380">
						<ele>547</ele>
						<time>2019-07-31T14:03:55Z</time>
					</trkpt>
					<trkpt lat="43.757940" lon="6.140440">
						<ele>547</ele>
						<time>2019-07-31T14:03:59Z</time>
					</trkpt>
					<trkpt lat="43.758140" lon="6.140350">
						<ele>544</ele>
						<time>2019-07-31T14:04:02Z</time>
					</trkpt>
					<trkpt lat="43.758220" lon="6.140240">
						<ele>542</ele>
						<time>2019-07-31T14:04:04Z</time>
					</trkpt>
					<trkpt lat="43.758300" lon="6.139970">
						<ele>538</ele>
						<time>2019-07-31T14:04:08Z</time>
					</trkpt>
					<trkpt lat="43.758300" lon="6.139810">
						<ele>539</ele>
						<time>2019-07-31T14:04:10Z</time>
					</trkpt>
					<trkpt lat="43.758260" lon="6.139660">
						<ele>539</ele>
						<time>2019-07-31T14:04:12Z</time>
					</trkpt>
					<trkpt lat="43.758190" lon="6.139520">
						<ele>538</ele>
						<time>2019-07-31T14:04:14Z</time>
					</trkpt>
					<trkpt lat="43.756440" lon="6.136210">
						<ele>511</ele>
						<time>2019-07-31T14:05:07Z</time>
					</trkpt>
					<trkpt lat="43.756200" lon="6.135910">
						<ele>509</ele>
						<time>2019-07-31T14:05:13Z</time>
					</trkpt>
					<trkpt lat="43.755840" lon="6.135520">
						<ele>504</ele>
						<time>2019-07-31T14:05:21Z</time>
					</trkpt>
					<trkpt lat="43.755580" lon="6.135100">
						<ele>502</ele>
						<time>2019-07-31T14:05:28Z</time>
					</trkpt>
					<trkpt lat="43.755530" lon="6.134930">
						<ele>502</ele>
						<time>2019-07-31T14:05:31Z</time>
					</trkpt>
					<trkpt lat="43.755480" lon="6.134560">
						<ele>502</ele>
						<time>2019-07-31T14:05:35Z</time>
					</trkpt>
					<trkpt lat="43.755480" lon="6.131970">
						<ele>502</ele>
						<time>2019-07-31T14:06:09Z</time>
					</trkpt>
					<trkpt lat="43.755460" lon="6.131800">
						<ele>502</ele>
						<time>2019-07-31T14:06:11Z</time>
					</trkpt>
					<trkpt lat="43.755420" lon="6.131640">
						<ele>501</ele>
						<time>2019-07-31T14:06:13Z</time>
					</trkpt>
					<trkpt lat="43.755280" lon="6.131390">
						<ele>501</ele>
						<time>2019-07-31T14:06:17Z</time>
					</trkpt>
					<trkpt lat="43.755080" lon="6.131240">
						<ele>499</ele>
						<time>2019-07-31T14:06:21Z</time>
					</trkpt>
					<trkpt lat="43.754960" lon="6.131210">
						<ele>499</ele>
						<time>2019-07-31T14:06:23Z</time>
					</trkpt>
					<trkpt lat="43.754840" lon="6.131220">
						<ele>501</ele>
						<time>2019-07-31T14:06:25Z</time>
					</trkpt>
					<trkpt lat="43.754720" lon="6.131270">
						<ele>503</ele>
						<time>2019-07-31T14:06:28Z</time>
					</trkpt>
					<trkpt lat="43.754540" lon="6.131490">
						<ele>504</ele>
						<time>2019-07-31T14:06:32Z</time>
					</trkpt>
					<trkpt lat="43.753810" lon="6.133110">
						<ele>498</ele>
						<time>2019-07-31T14:06:57Z</time>
					</trkpt>
					<trkpt lat="43.753730" lon="6.133260">
						<ele>497</ele>
						<time>2019-07-31T14:06:59Z</time>
					</trkpt>
					<trkpt lat="43.753520" lon="6.133520">
						<ele>496</ele>
						<time>2019-07-31T14:07:04Z</time>
					</trkpt>
					<trkpt lat="43.753260" lon="6.133680">
						<ele>497</ele>
						<time>2019-07-31T14:07:09Z</time>
					</trkpt>
					<trkpt lat="43.752400" lon="6.133940">
						<ele>499</ele>
						<time>2019-07-31T14:07:25Z</time>
					</trkpt>
					<trkpt lat="43.751970" lon="6.134200">
						<ele>500</ele>
						<time>2019-07-31T14:07:33Z</time>
					</trkpt>
					<trkpt lat="43.751600" lon="6.134620">
						<ele>500</ele>
						<time>2019-07-31T14:07:42Z</time>
					</trkpt>
					<trkpt lat="43.750880" lon="6.135690">
						<ele>501</ele>
						<time>2019-07-31T14:08:00Z</time>
					</trkpt>
					<trkpt lat="43.749970" lon="6.136900">
						<ele>497</ele>
						<time>2019-07-31T14:08:23Z</time>
					</trkpt>
					<trkpt lat="43.749740" lon="6.137080">
						<ele>494</ele>
						<time>2019-07-31T14:08:27Z</time>
					</trkpt>
					<trkpt lat="43.749490" lon="6.137090">
						<ele>493</ele>
						<time>2019-07-31T14:08:32Z</time>
					</trkpt>
					<trkpt lat="43.749270" lon="6.136940">
						<ele>494</ele>
						<time>2019-07-31T14:08:36Z</time>
					</trkpt>
					<trkpt lat="43.749190" lon="6.136820">
						<ele>495</ele>
						<time>2019-07-31T14:08:38Z</time>
					</trkpt>
					<trkpt lat="43.749080" lon="6.136500">
						<ele>495</ele>
						<time>2019-07-31T14:08:43Z</time>
					</trkpt>
					<trkpt lat="43.749080" lon="6.136140">
						<ele>495</ele>
						<time>2019-07-31T14:08:48Z</time>
					</trkpt>
					<trkpt lat="43.749620" lon="6.132990">
						<ele>513</ele>
						<time>2019-07-31T14:09:29Z</time>
					</trkpt>
					<trkpt lat="43.749620" lon="6.132830">
						<ele>513</ele>
						<time>2019-07-31T14:09:31Z</time>
					</trkpt>
					<trkpt lat="43.749540" lon="6.132550">
						<ele>511</ele>
						<time>2019-07-31T14:09:35Z</time>
					</trkpt>
					<trkpt lat="43.749460" lon="6.132450">
						<ele>509</ele>
						<time>2019-07-31T14:09:37Z</time>
					</trkpt>
					<trkpt lat="43.749370" lon="6.132390">
						<ele>507</ele>
						<time>2019-07-31T14:09:39Z</time>
					</trkpt>
					<trkpt lat="43.749270" lon="6.132360">
						<ele>505</ele>
						<time>2019-07-31T14:09:41Z</time>
					</trkpt>
					<trkpt lat="43.749160" lon="6.132370">
						<ele>502</ele>
						<time>2019-07-31T14:09:43Z</time>
					</trkpt>
					<trkpt lat="43.749050" lon="6.132430">
						<ele>504</ele>
						<time>2019-07-31T14:09:45Z</time>
					</trkpt>
					<trkpt lat="43.748960" lon="6.132520">
						<ele>505</ele>
						<time>2019-07-31T14:09:47Z</time>
					</trkpt>
					<trkpt lat="43.748590" lon="6.133050">
						<ele>503</ele>
						<time>2019-07-31T14:09:56Z</time>
					</trkpt>
					<trkpt lat="43.748370" lon="6.133320">
						<ele>500</ele>
						<time>2019-07-31T14:10:01Z</time>
					</trkpt>
					<trkpt lat="43.747580" lon="6.134040">
						<ele>502</ele>
						<time>2019-07-31T14:10:18Z</time>
					</trkpt>
					<trkpt lat="43.747220" lon="6.134450">
						<ele>502</ele>
						<time>2019-07-31T14:10:26Z</time>
					</trkpt>
					<trkpt lat="43.745200" lon="6.137290">
						<ele>495</ele>
						<time>2019-07-31T14:11:18Z</time>
					</trkpt>
					<trkpt lat="43.745090" lon="6.137410">
						<ele>495</ele>
						<time>2019-07-31T14:11:20Z</time>
					</trkpt>
					<trkpt lat="43.744850" lon="6.137590">
						<ele>496</ele>
						<time>2019-07-31T14:11:25Z</time>
					</trkpt>
					<trkpt lat="43.744590" lon="6.137740">
						<ele>498</ele>
						<time>2019-07-31T14:11:30Z</time>
					</trkpt>
					<trkpt lat="43.744350" lon="6.137940">
						<ele>499</ele>
						<time>2019-07-31T14:11:35Z</time>
					</trkpt>
					<trkpt lat="43.743970" lon="6.138460">
						<ele>496</ele>
						<time>2019-07-31T14:11:45Z</time>
					</trkpt>
					<trkpt lat="43.743740" lon="6.138660">
						<ele>496</ele>
						<time>2019-07-31T14:11:49Z</time>
					</trkpt>
					<trkpt lat="43.743400" lon="6.138780">
						<ele>499</ele>
						<time>2019-07-31T14:11:56Z</time>
					</trkpt>
					<trkpt lat="43.742940" lon="6.138890">
						<ele>506</ele>
						<time>2019-07-31T14:12:04Z</time>
					</trkpt>
					<trkpt lat="43.742690" lon="6.139020">
						<ele>507</ele>
						<time>2019-07-31T14:12:09Z</time>
					</trkpt>
					<trkpt lat="43.741840" lon="6.139930">
						<ele>505</ele>
						<time>2019-07-31T14:12:28Z</time>
					</trkpt>
					<trkpt lat="43.741510" lon="6.140210">
						<ele>504</ele>
						<time>2019-07-31T14:12:35Z</time>
					</trkpt>
					<trkpt lat="43.741260" lon="6.140340">
						<ele>504</ele>
						<time>2019-07-31T14:12:39Z</time>
					</trkpt>
					<trkpt lat="43.740860" lon="6.140450">
						<ele>505</ele>
						<time>2019-07-31T14:12:47Z</time>
					</trkpt>
					<trkpt lat="43.740200" lon="6.140530">
						<ele>503</ele>
						<time>2019-07-31T14:12:58Z</time>
					</trkpt>
					<trkpt lat="43.739940" lon="6.140520">
						<ele>503</ele>
						<time>2019-07-31T14:13:03Z</time>
					</trkpt>
					<trkpt lat="43.739810" lon="6.140490">
						<ele>503</ele>
						<time>2019-07-31T14:13:05Z</time>
					</trkpt>
					<trkpt lat="43.739430" lon="6.140320">
						<ele>501</ele>
						<time>2019-07-31T14:13:13Z</time>
					</trkpt>
					<trkpt lat="43.739210" lon="6.140140">
						<ele>501</ele>
						<time>2019-07-31T14:13:17Z</time>
					</trkpt>
					<trkpt lat="43.739110" lon="6.140020">
						<ele>501</ele>
						<time>2019-07-31T14:13:19Z</time>
					</trkpt>
					<trkpt lat="43.739040" lon="6.139890">
						<ele>502</ele>
						<time>2019-07-31T14:13:22Z</time>
					</trkpt>
					<trkpt lat="43.738850" lon="6.139360">
						<ele>505</ele>
						<time>2019-07-31T14:13:29Z</time>
					</trkpt>
					<trkpt lat="43.738790" lon="6.139260">
						<ele>505</ele>
						<time>2019-07-31T14:13:31Z</time>
					</trkpt>
					<trkpt lat="43.738640" lon="6.139160">
						<ele>500</ele>
						<time>2019-07-31T14:13:34Z</time>
					</trkpt>
					<trkpt lat="43.736240" lon="6.140190">
						<ele>506</ele>
						<time>2019-07-31T14:14:19Z</time>
					</trkpt>
					<trkpt lat="43.736160" lon="6.140280">
						<ele>509</ele>
						<time>2019-07-31T14:14:20Z</time>
					</trkpt>
					<trkpt lat="43.736010" lon="6.140040">
						<ele>516</ele>
						<time>2019-07-31T14:14:24Z</time>
					</trkpt>
					<trkpt lat="43.735810" lon="6.139080">
						<ele>519</ele>
						<time>2019-07-31T14:14:37Z</time>
					</trkpt>
					<trkpt lat="43.735790" lon="6.138710">
						<ele>521</ele>
						<time>2019-07-31T14:14:42Z</time>
					</trkpt>
					<trkpt lat="43.735710" lon="6.138190">
						<ele>525</ele>
						<time>2019-07-31T14:14:49Z</time>
					</trkpt>
					<trkpt lat="43.735690" lon="6.137840">
						<ele>526</ele>
						<time>2019-07-31T14:14:53Z</time>
					</trkpt>
					<trkpt lat="43.735710" lon="6.136980">
						<ele>514</ele>
						<time>2019-07-31T14:15:04Z</time>
					</trkpt>
					<trkpt lat="43.735650" lon="6.136860">
						<ele>514</ele>
						<time>2019-07-31T14:15:06Z</time>
					</trkpt>
					<trkpt lat="43.735000" lon="6.136290">
						<ele>534</ele>
						<time>2019-07-31T14:15:20Z</time>
					</trkpt>
					<trkpt lat="43.734580" lon="6.136170">
						<ele>543</ele>
						<time>2019-07-31T14:15:28Z</time>
					</trkpt>
					<trkpt lat="43.734520" lon="6.136100">
						<ele>544</ele>
						<time>2019-07-31T14:15:29Z</time>
					</trkpt>
					<trkpt lat="43.734490" lon="6.135950">
						<ele>543</ele>
						<time>2019-07-31T14:15:31Z</time>
					</trkpt>
					<trkpt lat="43.734510" lon="6.135800">
						<ele>542</ele>
						<time>2019-07-31T14:15:33Z</time>
					</trkpt>
					<trkpt lat="43.734560" lon="6.135680">
						<ele>543</ele>
						<time>2019-07-31T14:15:35Z</time>
					</trkpt>
					<trkpt lat="43.734770" lon="6.135470">
						<ele>542</ele>
						<time>2019-07-31T14:15:39Z</time>
					</trkpt>
					<trkpt lat="43.735310" lon="6.135140">
						<ele>532</ele>
						<time>2019-07-31T14:15:50Z</time>
					</trkpt>
					<trkpt lat="43.735410" lon="6.134920">
						<ele>532</ele>
						<time>2019-07-31T14:15:53Z</time>
					</trkpt>
					<trkpt lat="43.735610" lon="6.133830">
						<ele>538</ele>
						<time>2019-07-31T14:16:08Z</time>
					</trkpt>
					<trkpt lat="43.735670" lon="6.133090">
						<ele>538</ele>
						<time>2019-07-31T14:16:17Z</time>
					</trkpt>
					<trkpt lat="43.735670" lon="6.132890">
						<ele>538</ele>
						<time>2019-07-31T14:16:20Z</time>
					</trkpt>
					<trkpt lat="43.735590" lon="6.132440">
						<ele>541</ele>
						<time>2019-07-31T14:16:26Z</time>
					</trkpt>
					<trkpt lat="43.735510" lon="6.132190">
						<ele>541</ele>
						<time>2019-07-31T14:16:29Z</time>
					</trkpt>
					<trkpt lat="43.735180" lon="6.131380">
						<ele>544</ele>
						<time>2019-07-31T14:16:41Z</time>
					</trkpt>
					<trkpt lat="43.734540" lon="6.130260">
						<ele>550</ele>
						<time>2019-07-31T14:17:00Z</time>
					</trkpt>
					<trkpt lat="43.733490" lon="6.128630">
						<ele>556</ele>
						<time>2019-07-31T14:17:28Z</time>
					</trkpt>
					<trkpt lat="43.733230" lon="6.128450">
						<ele>557</ele>
						<time>2019-07-31T14:17:33Z</time>
					</trkpt>
					<trkpt lat="43.732750" lon="6.128290">
						<ele>561</ele>
						<time>2019-07-31T14:17:42Z</time>
					</trkpt>
					<trkpt lat="43.731660" lon="6.128160">
						<ele>570</ele>
						<time>2019-07-31T14:18:01Z</time>
					</trkpt>
					<trkpt lat="43.730880" lon="6.127920">
						<ele>573</ele>
						<time>2019-07-31T14:18:15Z</time>
					</trkpt>
					<trkpt lat="43.730090" lon="6.127760">
						<ele>576</ele>
						<time>2019-07-31T14:18:30Z</time>
					</trkpt>
					<trkpt lat="43.729370" lon="6.127480">
						<ele>577</ele>
						<time>2019-07-31T14:18:43Z</time>
					</trkpt>
					<trkpt lat="43.728990" lon="6.127260">
						<ele>579</ele>
						<time>2019-07-31T14:18:50Z</time>
					</trkpt>
					<trkpt lat="43.727790" lon="6.125850">
						<ele>582</ele>
						<time>2019-07-31T14:19:18Z</time>
					</trkpt>
					<trkpt lat="43.727530" lon="6.125390">
						<ele>585</ele>
						<time>2019-07-31T14:19:26Z</time>
					</trkpt>
					<trkpt lat="43.727380" lon="6.125050">
						<ele>587</ele>
						<time>2019-07-31T14:19:31Z</time>
					</trkpt>
					<trkpt lat="43.727320" lon="6.124990">
						<ele>587</ele>
						<time>2019-07-31T14:19:32Z</time>
					</trkpt>
					<trkpt lat="43.727100" lon="6.124990">
						<ele>588</ele>
						<time>2019-07-31T14:19:36Z</time>
					</trkpt>
					<trkpt lat="43.726870" lon="6.125110">
						<ele>588</ele>
						<time>2019-07-31T14:19:40Z</time>
					</trkpt>
					<trkpt lat="43.726770" lon="6.124850">
						<ele>589</ele>
						<time>2019-07-31T14:19:44Z</time>
					</trkpt>
					<trkpt lat="43.726770" lon="6.124780">
						<ele>589</ele>
						<time>2019-07-31T14:19:45Z</time>
					</trkpt>
					<trkpt lat="43.726940" lon="6.124230">
						<ele>590</ele>
						<time>2019-07-31T14:19:53Z</time>
					</trkpt>
					<trkpt lat="43.726950" lon="6.123940">
						<ele>591</ele>
						<time>2019-07-31T14:19:57Z</time>
					</trkpt>
					<trkpt lat="43.726830" lon="6.122730">
						<ele>593</ele>
						<time>2019-07-31T14:20:12Z</time>
					</trkpt>
					<trkpt lat="43.726830" lon="6.122410">
						<ele>593</ele>
						<time>2019-07-31T14:20:16Z</time>
					</trkpt>
					<trkpt lat="43.726890" lon="6.122150">
						<ele>594</ele>
						<time>2019-07-31T14:20:20Z</time>
					</trkpt>
					<trkpt lat="43.728880" lon="6.115910">
						<ele>559</ele>
						<time>2019-07-31T14:21:48Z</time>
					</trkpt>
					<trkpt lat="43.729000" lon="6.115640">
						<ele>557</ele>
						<time>2019-07-31T14:21:52Z</time>
					</trkpt>
					<trkpt lat="43.729560" lon="6.114790">
						<ele>554</ele>
						<time>2019-07-31T14:22:06Z</time>
					</trkpt>
					<trkpt lat="43.729780" lon="6.114360">
						<ele>551</ele>
						<time>2019-07-31T14:22:13Z</time>
					</trkpt>
					<trkpt lat="43.730570" lon="6.112550">
						<ele>547</ele>
						<time>2019-07-31T14:22:40Z</time>
					</trkpt>
					<trkpt lat="43.731640" lon="6.110220">
						<ele>544</ele>
						<time>2019-07-31T14:23:16Z</time>
					</trkpt>
					<trkpt lat="43.732080" lon="6.109510">
						<ele>545</ele>
						<time>2019-07-31T14:23:28Z</time>
					</trkpt>
					<trkpt lat="43.732630" lon="6.108730">
						<ele>542</ele>
						<time>2019-07-31T14:23:42Z</time>
					</trkpt>
					<trkpt lat="43.732740" lon="6.108460">
						<ele>540</ele>
						<time>2019-07-31T14:23:46Z</time>
					</trkpt>
					<trkpt lat="43.732860" lon="6.107860">
						<ele>535</ele>
						<time>2019-07-31T14:23:54Z</time>
					</trkpt>
					<trkpt lat="43.733100" lon="6.107050">
						<ele>529</ele>
						<time>2019-07-31T14:24:05Z</time>
					</trkpt>
					<trkpt lat="43.733120" lon="6.105930">
						<ele>521</ele>
						<time>2019-07-31T14:24:20Z</time>
					</trkpt>
					<trkpt lat="43.733200" lon="6.105200">
						<ele>518</ele>
						<time>2019-07-31T14:24:29Z</time>
					</trkpt>
					<trkpt lat="43.733270" lon="6.104870">
						<ele>517</ele>
						<time>2019-07-31T14:24:33Z</time>
					</trkpt>
					<trkpt lat="43.733540" lon="6.104400">
						<ele>515</ele>
						<time>2019-07-31T14:24:41Z</time>
					</trkpt>
					<trkpt lat="43.733740" lon="6.104150">
						<ele>514</ele>
						<time>2019-07-31T14:24:46Z</time>
					</trkpt>
					<trkpt lat="43.734230" lon="6.103420">
						<ele>509</ele>
						<time>2019-07-31T14:24:59Z</time>
					</trkpt>
					<trkpt lat="43.734650" lon="6.102850">
						<ele>505</ele>
						<time>2019-07-31T14:25:09Z</time>
					</trkpt>
					<trkpt lat="43.735240" lon="6.101880">
						<ele>500</ele>
						<time>2019-07-31T14:25:26Z</time>
					</trkpt>
					<trkpt lat="43.735820" lon="6.101030">
						<ele>496</ele>
						<time>2019-07-31T14:25:41Z</time>
					</trkpt>
					<trkpt lat="43.736490" lon="6.100350">
						<ele>495</ele>
						<time>2019-07-31T14:25:55Z</time>
					</trkpt>
					<trkpt lat="43.736850" lon="6.099830">
						<ele>494</ele>
						<time>2019-07-31T14:26:05Z</time>
					</trkpt>
					<trkpt lat="43.737670" lon="6.098790">
						<ele>489</ele>
						<time>2019-07-31T14:26:24Z</time>
					</trkpt>
					<trkpt lat="43.738360" lon="6.098580">
						<ele>485</ele>
						<time>2019-07-31T14:26:37Z</time>
					</trkpt>
					<trkpt lat="43.739510" lon="6.098460">
						<ele>479</ele>
						<time>2019-07-31T14:26:58Z</time>
					</trkpt>
					<trkpt lat="43.739830" lon="6.098400">
						<ele>475</ele>
						<time>2019-07-31T14:27:03Z</time>
					</trkpt>
					<trkpt lat="43.740110" lon="6.098450">
						<ele>472</ele>
						<time>2019-07-31T14:27:08Z</time>
					</trkpt>
					<trkpt lat="43.740300" lon="6.098580">
						<ele>470</ele>
						<time>2019-07-31T14:27:12Z</time>
					</trkpt>
					<trkpt lat="43.740510" lon="6.098790">
						<ele>467</ele>
						<time>2019-07-31T14:27:17Z</time>
					</trkpt>
					<trkpt lat="43.741020" lon="6.099510">
						<ele>460</ele>
						<time>2019-07-31T14:27:30Z</time>
					</trkpt>
					<trkpt lat="43.741260" lon="6.099620">
						<ele>458</ele>
						<time>2019-07-31T14:27:34Z</time>
					</trkpt>
					<trkpt lat="43.741370" lon="6.099630">
						<ele>457</ele>
						<time>2019-07-31T14:27:36Z</time>
					</trkpt>
					<trkpt lat="43.741470" lon="6.099580">
						<ele>457</ele>
						<time>2019-07-31T14:27:38Z</time>
					</trkpt>
					<trkpt lat="43.741570" lon="6.099430">
						<ele>456</ele>
						<time>2019-07-31T14:27:41Z</time>
					</trkpt>
					<trkpt lat="43.741740" lon="6.098840">
						<ele>455</ele>
						<time>2019-07-31T14:27:49Z</time>
					</trkpt>
					<trkpt lat="43.741850" lon="6.098560">
						<ele>455</ele>
						<time>2019-07-31T14:27:53Z</time>
					</trkpt>
					<trkpt lat="43.741990" lon="6.098270">
						<ele>454</ele>
						<time>2019-07-31T14:27:57Z</time>
					</trkpt>
					<trkpt lat="43.742250" lon="6.097930">
						<ele>449</ele>
						<time>2019-07-31T14:28:04Z</time>
					</trkpt>
					<trkpt lat="43.742380" lon="6.097850">
						<ele>447</ele>
						<time>2019-07-31T14:28:06Z</time>
					</trkpt>
					<trkpt lat="43.742520" lon="6.097800">
						<ele>445</ele>
						<time>2019-07-31T14:28:09Z</time>
					</trkpt>
					<trkpt lat="43.742760" lon="6.097780">
						<ele>443</ele>
						<time>2019-07-31T14:28:13Z</time>
					</trkpt>
					<trkpt lat="43.743500" lon="6.097620">
						<ele>434</ele>
						<time>2019-07-31T14:28:26Z</time>
					</trkpt>
					<trkpt lat="43.743850" lon="6.097590">
						<ele>430</ele>
						<time>2019-07-31T14:28:33Z</time>
					</trkpt>
					<trkpt lat="43.743990" lon="6.097680">
						<ele>429</ele>
						<time>2019-07-31T14:28:35Z</time>
					</trkpt>
					<trkpt lat="43.744090" lon="6.097780">
						<ele>428</ele>
						<time>2019-07-31T14:28:38Z</time>
					</trkpt>
					<trkpt lat="43.744150" lon="6.097950">
						<ele>428</ele>
						<time>2019-07-31T14:28:40Z</time>
					</trkpt>
					<trkpt lat="43.744180" lon="6.098150">
						<ele>428</ele>
						<time>2019-07-31T14:28:43Z</time>
					</trkpt>
					<trkpt lat="43.744140" lon="6.098370">
						<ele>429</ele>
						<time>2019-07-31T14:28:46Z</time>
					</trkpt>
					<trkpt lat="43.744050" lon="6.098560">
						<ele>428</ele>
						<time>2019-07-31T14:28:49Z</time>
					</trkpt>
					<trkpt lat="43.743840" lon="6.098790">
						<ele>430</ele>
						<time>2019-07-31T14:28:53Z</time>
					</trkpt>
					<trkpt lat="43.743920" lon="6.099110">
						<ele>426</ele>
						<time>2019-07-31T14:28:58Z</time>
					</trkpt>
					<trkpt lat="43.743900" lon="6.099220">
						<ele>426</ele>
						<time>2019-07-31T14:28:59Z</time>
					</trkpt>
					<trkpt lat="43.743810" lon="6.099390">
						<ele>428</ele>
						<time>2019-07-31T14:29:02Z</time>
					</trkpt>
					<trkpt lat="43.743800" lon="6.099580">
						<ele>427</ele>
						<time>2019-07-31T14:29:04Z</time>
					</trkpt>
					<trkpt lat="43.743920" lon="6.099790">
						<ele>424</ele>
						<time>2019-07-31T14:29:08Z</time>
					</trkpt>
					<trkpt lat="43.744140" lon="6.099990">
						<ele>419</ele>
						<time>2019-07-31T14:29:12Z</time>
					</trkpt>
					<trkpt lat="43.744490" lon="6.100420">
						<ele>416</ele>
						<time>2019-07-31T14:29:21Z</time>
					</trkpt>
					<trkpt lat="43.744680" lon="6.100800">
						<ele>415</ele>
						<time>2019-07-31T14:29:27Z</time>
					</trkpt>
					<trkpt lat="43.744760" lon="6.101030">
						<ele>414</ele>
						<time>2019-07-31T14:29:30Z</time>
					</trkpt>
					<trkpt lat="43.745150" lon="6.101070">
						<ele>409</ele>
						<time>2019-07-31T14:29:37Z</time>
					</trkpt>
					<trkpt lat="43.745260" lon="6.101240">
						<ele>410</ele>
						<time>2019-07-31T14:29:40Z</time>
					</trkpt>
					<trkpt lat="43.745640" lon="6.101640">
						<ele>411</ele>
						<time>2019-07-31T14:29:48Z</time>
					</trkpt>
					<trkpt lat="43.745900" lon="6.101770">
						<ele>413</ele>
						<time>2019-07-31T14:29:53Z</time>
					</trkpt>
					<trkpt lat="43.746200" lon="6.101850">
						<ele>417</ele>
						<time>2019-07-31T14:29:59Z</time>
					</trkpt>
					<trkpt lat="43.746420" lon="6.101810">
						<ele>419</ele>
						<time>2019-07-31T14:30:03Z</time>
					</trkpt>
					<trkpt lat="43.746710" lon="6.101710">
						<ele>421</ele>
						<time>2019-07-31T14:30:08Z</time>
					</trkpt>
					<trkpt lat="43.746820" lon="6.101520">
						<ele>422</ele>
						<time>2019-07-31T14:30:11Z</time>
					</trkpt>
					<trkpt lat="43.746860" lon="6.101290">
						<ele>423</ele>
						<time>2019-07-31T14:30:14Z</time>
					</trkpt>
					<trkpt lat="43.747050" lon="6.100960">
						<ele>426</ele>
						<time>2019-07-31T14:30:20Z</time>
					</trkpt>
					<trkpt lat="43.747020" lon="6.100780">
						<ele>426</ele>
						<time>2019-07-31T14:30:22Z</time>
					</trkpt>
					<trkpt lat="43.746690" lon="6.100430">
						<ele>423</ele>
						<time>2019-07-31T14:30:29Z</time>
					</trkpt>
					<trkpt lat="43.746680" lon="6.100330">
						<ele>423</ele>
						<time>2019-07-31T14:30:31Z</time>
					</trkpt>
					<trkpt lat="43.746710" lon="6.100240">
						<ele>424</ele>
						<time>2019-07-31T14:30:32Z</time>
					</trkpt>
					<trkpt lat="43.748250" lon="6.099890">
						<ele>436</ele>
						<time>2019-07-31T14:31:00Z</time>
					</trkpt>
					<trkpt lat="43.748900" lon="6.099370">
						<ele>442</ele>
						<time>2019-07-31T14:31:13Z</time>
					</trkpt>
					<trkpt lat="43.749450" lon="6.099080">
						<ele>447</ele>
						<time>2019-07-31T14:31:23Z</time>
					</trkpt>
					<trkpt lat="43.749600" lon="6.099060">
						<ele>449</ele>
						<time>2019-07-31T14:31:26Z</time>
					</trkpt>
					<trkpt lat="43.749800" lon="6.099080">
						<ele>450</ele>
						<time>2019-07-31T14:31:30Z</time>
					</trkpt>
					<trkpt lat="43.750090" lon="6.099180">
						<ele>453</ele>
						<time>2019-07-31T14:31:35Z</time>
					</trkpt>
					<trkpt lat="43.750490" lon="6.099250">
						<ele>456</ele>
						<time>2019-07-31T14:31:42Z</time>
					</trkpt>
					<trkpt lat="43.750780" lon="6.099220">
						<ele>459</ele>
						<time>2019-07-31T14:31:47Z</time>
					</trkpt>
					<trkpt lat="43.751010" lon="6.099110">
						<ele>461</ele>
						<time>2019-07-31T14:31:52Z</time>
					</trkpt>
					<trkpt lat="43.751080" lon="6.098980">
						<ele>462</ele>
						<time>2019-07-31T14:31:54Z</time>
					</trkpt>
					<trkpt lat="43.751120" lon="6.098700">
						<ele>462</ele>
						<time>2019-07-31T14:31:57Z</time>
					</trkpt>
					<trkpt lat="43.751220" lon="6.098470">
						<ele>464</ele>
						<time>2019-07-31T14:32:01Z</time>
					</trkpt>
					<trkpt lat="43.751560" lon="6.098410">
						<ele>466</ele>
						<time>2019-07-31T14:32:07Z</time>
					</trkpt>
					<trkpt lat="43.751960" lon="6.098440">
						<ele>470</ele>
						<time>2019-07-31T14:32:14Z</time>
					</trkpt>
					<trkpt lat="43.752590" lon="6.098430">
						<ele>477</ele>
						<time>2019-07-31T14:32:25Z</time>
					</trkpt>
					<trkpt lat="43.752800" lon="6.098370">
						<ele>479</ele>
						<time>2019-07-31T14:32:29Z</time>
					</trkpt>
					<trkpt lat="43.753220" lon="6.098100">
						<ele>482</ele>
						<time>2019-07-31T14:32:37Z</time>
					</trkpt>
					<trkpt lat="43.754170" lon="6.097560">
						<ele>493</ele>
						<time>2019-07-31T14:32:56Z</time>
					</trkpt>
					<trkpt lat="43.754470" lon="6.097490">
						<ele>496</ele>
						<time>2019-07-31T14:33:01Z</time>
					</trkpt>
					<trkpt lat="43.754800" lon="6.097340">
						<ele>499</ele>
						<time>2019-07-31T14:33:07Z</time>
					</trkpt>
					<trkpt lat="43.754990" lon="6.097160">
						<ele>502</ele>
						<time>2019-07-31T14:33:11Z</time>
					</trkpt>
					<trkpt lat="43.755030" lon="6.096940">
						<ele>504</ele>
						<time>2019-07-31T14:33:14Z</time>
					</trkpt>
					<trkpt lat="43.754990" lon="6.096720">
						<ele>505</ele>
						<time>2019-07-31T14:33:17Z</time>
					</trkpt>
					<trkpt lat="43.754900" lon="6.096460">
						<ele>505</ele>
						<time>2019-07-31T14:33:21Z</time>
					</trkpt>
					<trkpt lat="43.754770" lon="6.095920">
						<ele>506</ele>
						<time>2019-07-31T14:33:28Z</time>
					</trkpt>
					<trkpt lat="43.754790" lon="6.095750">
						<ele>507</ele>
						<time>2019-07-31T14:33:30Z</time>
					</trkpt>
					<trkpt lat="43.754770" lon="6.095530">
						<ele>509</ele>
						<time>2019-07-31T14:33:33Z</time>
					</trkpt>
					<trkpt lat="43.754700" lon="6.095330">
						<ele>510</ele>
						<time>2019-07-31T14:33:36Z</time>
					</trkpt>
					<trkpt lat="43.754610" lon="6.095200">
						<ele>509</ele>
						<time>2019-07-31T14:33:38Z</time>
					</trkpt>
					<trkpt lat="43.754530" lon="6.095020">
						<ele>509</ele>
						<time>2019-07-31T14:33:41Z</time>
					</trkpt>
					<trkpt lat="43.754300" lon="6.094250">
						<ele>513</ele>
						<time>2019-07-31T14:33:52Z</time>
					</trkpt>
					<trkpt lat="43.754260" lon="6.093950">
						<ele>513</ele>
						<time>2019-07-31T14:33:56Z</time>
					</trkpt>
					<trkpt lat="43.754280" lon="6.093700">
						<ele>514</ele>
						<time>2019-07-31T14:33:59Z</time>
					</trkpt>
					<trkpt lat="43.754350" lon="6.093460">
						<ele>517</ele>
						<time>2019-07-31T14:34:02Z</time>
					</trkpt>
					<trkpt lat="43.754510" lon="6.093160">
						<ele>520</ele>
						<time>2019-07-31T14:34:07Z</time>
					</trkpt>
					<trkpt lat="43.754800" lon="6.092810">
						<ele>525</ele>
						<time>2019-07-31T14:34:14Z</time>
					</trkpt>
					<trkpt lat="43.754890" lon="6.092620">
						<ele>527</ele>
						<time>2019-07-31T14:34:17Z</time>
					</trkpt>
					<trkpt lat="43.754900" lon="6.092400">
						<ele>528</ele>
						<time>2019-07-31T14:34:20Z</time>
					</trkpt>
					<trkpt lat="43.754800" lon="6.092210">
						<ele>526</ele>
						<time>2019-07-31T14:34:23Z</time>
					</trkpt>
					<trkpt lat="43.754690" lon="6.091900">
						<ele>524</ele>
						<time>2019-07-31T14:34:27Z</time>
					</trkpt>
					<trkpt lat="43.754640" lon="6.091620">
						<ele>524</ele>
						<time>2019-07-31T14:34:31Z</time>
					</trkpt>
					<trkpt lat="43.754670" lon="6.091320">
						<ele>524</ele>
						<time>2019-07-31T14:34:35Z</time>
					</trkpt>
					<trkpt lat="43.754760" lon="6.091020">
						<ele>527</ele>
						<time>2019-07-31T14:34:39Z</time>
					</trkpt>
					<trkpt lat="43.755100" lon="6.090530">
						<ele>537</ele>
						<time>2019-07-31T14:34:48Z</time>
					</trkpt>
					<trkpt lat="43.755190" lon="6.090310">
						<ele>540</ele>
						<time>2019-07-31T14:34:51Z</time>
					</trkpt>
					<trkpt lat="43.755200" lon="6.090060">
						<ele>539</ele>
						<time>2019-07-31T14:34:54Z</time>
					</trkpt>
					<trkpt lat="43.755150" lon="6.089930">
						<ele>538</ele>
						<time>2019-07-31T14:34:56Z</time>
					</trkpt>
					<trkpt lat="43.754880" lon="6.089730">
						<ele>533</ele>
						<time>2019-07-31T14:35:02Z</time>
					</trkpt>
					<trkpt lat="43.754840" lon="6.089780">
						<ele>531</ele>
						<time>2019-07-31T14:35:02Z</time>
					</trkpt>
					<trkpt lat="43.754800" lon="6.089780">
						<ele>530</ele>
						<time>2019-07-31T14:35:03Z</time>
					</trkpt>
					<trkpt lat="43.754720" lon="6.089730">
						<ele>528</ele>
						<time>2019-07-31T14:35:05Z</time>
					</trkpt>
					<trkpt lat="43.754530" lon="6.089450">
						<ele>527</ele>
						<time>2019-07-31T14:35:10Z</time>
					</trkpt>
					<trkpt lat="43.754440" lon="6.089270">
						<ele>526</ele>
						<time>2019-07-31T14:35:12Z</time>
					</trkpt>
					<trkpt lat="43.754300" lon="6.088800">
						<ele>527</ele>
						<time>2019-07-31T14:35:19Z</time>
					</trkpt>
					<trkpt lat="43.754210" lon="6.088650">
						<ele>525</ele>
						<time>2019-07-31T14:35:22Z</time>
					</trkpt>
					<trkpt lat="43.753540" lon="6.088000">
						<ele>510</ele>
						<time>2019-07-31T14:35:36Z</time>
					</trkpt>
					<trkpt lat="43.753400" lon="6.087970">
						<ele>507</ele>
						<time>2019-07-31T14:35:39Z</time>
					</trkpt>
					<trkpt lat="43.752990" lon="6.088100">
						<ele>505</ele>
						<time>2019-07-31T14:35:46Z</time>
					</trkpt>
					<trkpt lat="43.752850" lon="6.087990">
						<ele>504</ele>
						<time>2019-07-31T14:35:49Z</time>
					</trkpt>
					<trkpt lat="43.752440" lon="6.088010">
						<ele>503</ele>
						<time>2019-07-31T14:35:56Z</time>
					</trkpt>
					<trkpt lat="43.752080" lon="6.087950">
						<ele>500</ele>
						<time>2019-07-31T14:36:03Z</time>
					</trkpt>
					<trkpt lat="43.751670" lon="6.088010">
						<ele>499</ele>
						<time>2019-07-31T14:36:10Z</time>
					</trkpt>
					<trkpt lat="43.751420" lon="6.088190">
						<ele>496</ele>
						<time>2019-07-31T14:36:15Z</time>
					</trkpt>
					<trkpt lat="43.751360" lon="6.088160">
						<ele>494</ele>
						<time>2019-07-31T14:36:16Z</time>
					</trkpt>
					<trkpt lat="43.751370" lon="6.088080">
						<ele>493</ele>
						<time>2019-07-31T14:36:17Z</time>
					</trkpt>
					<trkpt lat="43.751610" lon="6.087750">
						<ele>493</ele>
						<time>2019-07-31T14:36:23Z</time>
					</trkpt>
					<trkpt lat="43.751720" lon="6.087500">
						<ele>490</ele>
						<time>2019-07-31T14:36:27Z</time>
					</trkpt>
					<trkpt lat="43.751920" lon="6.086680">
						<ele>484</ele>
						<time>2019-07-31T14:36:38Z</time>
					</trkpt>
					<trkpt lat="43.752170" lon="6.086180">
						<ele>482</ele>
						<time>2019-07-31T14:36:46Z</time>
					</trkpt>
					<trkpt lat="43.752280" lon="6.086040">
						<ele>481</ele>
						<time>2019-07-31T14:36:49Z</time>
					</trkpt>
					<trkpt lat="43.752400" lon="6.085980">
						<ele>481</ele>
						<time>2019-07-31T14:36:51Z</time>
					</trkpt>
					<trkpt lat="43.752470" lon="6.085980">
						<ele>481</ele>
						<time>2019-07-31T14:36:52Z</time>
					</trkpt>
					<trkpt lat="43.752670" lon="6.086060">
						<ele>482</ele>
						<time>2019-07-31T14:36:56Z</time>
					</trkpt>
					<trkpt lat="43.752700" lon="6.086040">
						<ele>482</ele>
						<time>2019-07-31T14:36:56Z</time>
					</trkpt>
					<trkpt lat="43.752730" lon="6.085960">
						<ele>481</ele>
						<time>2019-07-31T14:36:58Z</time>
					</trkpt>
					<trkpt lat="43.752720" lon="6.085870">
						<ele>480</ele>
						<time>2019-07-31T14:36:59Z</time>
					</trkpt>
					<trkpt lat="43.752690" lon="6.085820">
						<ele>480</ele>
						<time>2019-07-31T14:37:00Z</time>
					</trkpt>
					<trkpt lat="43.751910" lon="6.085140">
						<ele>469</ele>
						<time>2019-07-31T14:37:16Z</time>
					</trkpt>
					<trkpt lat="43.751780" lon="6.085070">
						<ele>468</ele>
						<time>2019-07-31T14:37:18Z</time>
					</trkpt>
					<trkpt lat="43.751640" lon="6.085030">
						<ele>467</ele>
						<time>2019-07-31T14:37:21Z</time>
					</trkpt>
					<trkpt lat="43.751010" lon="6.084940">
						<ele>459</ele>
						<time>2019-07-31T14:37:32Z</time>
					</trkpt>
					<trkpt lat="43.750850" lon="6.085000">
						<ele>458</ele>
						<time>2019-07-31T14:37:35Z</time>
					</trkpt>
					<trkpt lat="43.750630" lon="6.085160">
						<ele>457</ele>
						<time>2019-07-31T14:37:40Z</time>
					</trkpt>
					<trkpt lat="43.750550" lon="6.085180">
						<ele>456</ele>
						<time>2019-07-31T14:37:41Z</time>
					</trkpt>
					<trkpt lat="43.749860" lon="6.085300">
						<ele>449</ele>
						<time>2019-07-31T14:37:53Z</time>
					</trkpt>
					<trkpt lat="43.749400" lon="6.085260">
						<ele>442</ele>
						<time>2019-07-31T14:38:02Z</time>
					</trkpt>
					<trkpt lat="43.749130" lon="6.085360">
						<ele>440</ele>
						<time>2019-07-31T14:38:07Z</time>
					</trkpt>
					<trkpt lat="43.748690" lon="6.085680">
						<ele>438</ele>
						<time>2019-07-31T14:38:15Z</time>
					</trkpt>
					<trkpt lat="43.748610" lon="6.085720">
						<ele>437</ele>
						<time>2019-07-31T14:38:17Z</time>
					</trkpt>
					<trkpt lat="43.748450" lon="6.085750">
						<ele>436</ele>
						<time>2019-07-31T14:38:20Z</time>
					</trkpt>
					<trkpt lat="43.748200" lon="6.085700">
						<ele>433</ele>
						<time>2019-07-31T14:38:24Z</time>
					</trkpt>
					<trkpt lat="43.748050" lon="6.085570">
						<ele>432</ele>
						<time>2019-07-31T14:38:28Z</time>
					</trkpt>
					<trkpt lat="43.747750" lon="6.085190">
						<ele>429</ele>
						<time>2019-07-31T14:38:35Z</time>
					</trkpt>
					<trkpt lat="43.747590" lon="6.085110">
						<ele>428</ele>
						<time>2019-07-31T14:38:38Z</time>
					</trkpt>
					<trkpt lat="43.747410" lon="6.085140">
						<ele>427</ele>
						<time>2019-07-31T14:38:41Z</time>
					</trkpt>
					<trkpt lat="43.746960" lon="6.085430">
						<ele>425</ele>
						<time>2019-07-31T14:38:50Z</time>
					</trkpt>
					<trkpt lat="43.746760" lon="6.085470">
						<ele>423</ele>
						<time>2019-07-31T14:38:53Z</time>
					</trkpt>
					<trkpt lat="43.746560" lon="6.085450">
						<ele>421</ele>
						<time>2019-07-31T14:38:57Z</time>
					</trkpt>
					<trkpt lat="43.746280" lon="6.085340">
						<ele>418</ele>
						<time>2019-07-31T14:39:02Z</time>
					</trkpt>
					<trkpt lat="43.746110" lon="6.085180">
						<ele>416</ele>
						<time>2019-07-31T14:39:06Z</time>
					</trkpt>
					<trkpt lat="43.745980" lon="6.084950">
						<ele>414</ele>
						<time>2019-07-31T14:39:10Z</time>
					</trkpt>
					<trkpt lat="43.745930" lon="6.084700">
						<ele>413</ele>
						<time>2019-07-31T14:39:13Z</time>
					</trkpt>
					<trkpt lat="43.745980" lon="6.084350">
						<ele>412</ele>
						<time>2019-07-31T14:39:18Z</time>
					</trkpt>
					<trkpt lat="43.746100" lon="6.084150">
						<ele>412</ele>
						<time>2019-07-31T14:39:21Z</time>
					</trkpt>
					<trkpt lat="43.746500" lon="6.083790">
						<ele>413</ele>
						<time>2019-07-31T14:39:29Z</time>
					</trkpt>
					<trkpt lat="43.746570" lon="6.083600">
						<ele>413</ele>
						<time>2019-07-31T14:39:32Z</time>
					</trkpt>
					<trkpt lat="43.746560" lon="6.083430">
						<ele>413</ele>
						<time>2019-07-31T14:39:34Z</time>
					</trkpt>
					<trkpt lat="43.746490" lon="6.083290">
						<ele>413</ele>
						<time>2019-07-31T14:39:36Z</time>
					</trkpt>
					<trkpt lat="43.746390" lon="6.083170">
						<ele>412</ele>
						<time>2019-07-31T14:39:39Z</time>
					</trkpt>
					<trkpt lat="43.746240" lon="6.083080">
						<ele>411</ele>
						<time>2019-07-31T14:39:42Z</time>
					</trkpt>
					<trkpt lat="43.746110" lon="6.082940">
						<ele>409</ele>
						<time>2019-07-31T14:39:45Z</time>
					</trkpt>
					<trkpt lat="43.746040" lon="6.082720">
						<ele>409</ele>
						<time>2019-07-31T14:39:48Z</time>
					</trkpt>
					<trkpt lat="43.746060" lon="6.082300">
						<ele>409</ele>
						<time>2019-07-31T14:39:53Z</time>
					</trkpt>
					<trkpt lat="43.746330" lon="6.082100">
						<ele>413</ele>
						<time>2019-07-31T14:39:59Z</time>
					</trkpt>
					<trkpt lat="43.746370" lon="6.082040">
						<ele>413</ele>
						<time>2019-07-31T14:40:00Z</time>
					</trkpt>
					<trkpt lat="43.746380" lon="6.081890">
						<ele>414</ele>
						<time>2019-07-31T14:40:02Z</time>
					</trkpt>
					<trkpt lat="43.746320" lon="6.081750">
						<ele>413</ele>
						<time>2019-07-31T14:40:04Z</time>
					</trkpt>
					<trkpt lat="43.746080" lon="6.081520">
						<ele>411</ele>
						<time>2019-07-31T14:40:09Z</time>
					</trkpt>
					<trkpt lat="43.745860" lon="6.081180">
						<ele>410</ele>
						<time>2019-07-31T14:40:15Z</time>
					</trkpt>
					<trkpt lat="43.745760" lon="6.080840">
						<ele>412</ele>
						<time>2019-07-31T14:40:19Z</time>
					</trkpt>
					<trkpt lat="43.745680" lon="6.080430">
						<ele>414</ele>
						<time>2019-07-31T14:40:25Z</time>
					</trkpt>
					<trkpt lat="43.745640" lon="6.080380">
						<ele>415</ele>
						<time>2019-07-31T14:40:26Z</time>
					</trkpt>
					<trkpt lat="43.745580" lon="6.080360">
						<ele>415</ele>
						<time>2019-07-31T14:40:27Z</time>
					</trkpt>
					<trkpt lat="43.745330" lon="6.080400">
						<ele>413</ele>
						<time>2019-07-31T14:40:31Z</time>
					</trkpt>
					<trkpt lat="43.745210" lon="6.080330">
						<ele>414</ele>
						<time>2019-07-31T14:40:34Z</time>
					</trkpt>
					<trkpt lat="43.744530" lon="6.079410">
						<ele>415</ele>
						<time>2019-07-31T14:40:51Z</time>
					</trkpt>
					<trkpt lat="43.744440" lon="6.079140">
						<ele>415</ele>
						<time>2019-07-31T14:40:55Z</time>
					</trkpt>
					<trkpt lat="43.744430" lon="6.078770">
						<ele>415</ele>
						<time>2019-07-31T14:40:59Z</time>
					</trkpt>
					<trkpt lat="43.744380" lon="6.078540">
						<ele>415</ele>
						<time>2019-07-31T14:41:02Z</time>
					</trkpt>
					<trkpt lat="43.744260" lon="6.078370">
						<ele>414</ele>
						<time>2019-07-31T14:41:05Z</time>
					</trkpt>
					<trkpt lat="43.744040" lon="6.078230">
						<ele>415</ele>
						<time>2019-07-31T14:41:10Z</time>
					</trkpt>
					<trkpt lat="43.743950" lon="6.078230">
						<ele>415</ele>
						<time>2019-07-31T14:41:11Z</time>
					</trkpt>
					<trkpt lat="43.743800" lon="6.078290">
						<ele>415</ele>
						<time>2019-07-31T14:41:14Z</time>
					</trkpt>
					<trkpt lat="43.743500" lon="6.078480">
						<ele>413</ele>
						<time>2019-07-31T14:41:20Z</time>
					</trkpt>
					<trkpt lat="43.743260" lon="6.078460">
						<ele>413</ele>
						<time>2019-07-31T14:41:24Z</time>
					</trkpt>
					<trkpt lat="43.743110" lon="6.078340">
						<ele>413</ele>
						<time>2019-07-31T14:41:27Z</time>
					</trkpt>
					<trkpt lat="43.742720" lon="6.077650">
						<ele>418</ele>
						<time>2019-07-31T14:41:39Z</time>
					</trkpt>
					<trkpt lat="43.742650" lon="6.077560">
						<ele>418</ele>
						<time>2019-07-31T14:41:40Z</time>
					</trkpt>
					<trkpt lat="43.742580" lon="6.077520">
						<ele>418</ele>
						<time>2019-07-31T14:41:42Z</time>
					</trkpt>
					<trkpt lat="43.742510" lon="6.077510">
						<ele>417</ele>
						<time>2019-07-31T14:41:43Z</time>
					</trkpt>
					<trkpt lat="43.742300" lon="6.077580">
						<ele>416</ele>
						<time>2019-07-31T14:41:47Z</time>
					</trkpt>
					<trkpt lat="43.742180" lon="6.077570">
						<ele>415</ele>
						<time>2019-07-31T14:41:49Z</time>
					</trkpt>
					<trkpt lat="43.741710" lon="6.077260">
						<ele>419</ele>
						<time>2019-07-31T14:41:58Z</time>
					</trkpt>
					<trkpt lat="43.741100" lon="6.077540">
						<ele>419</ele>
						<time>2019-07-31T14:42:10Z</time>
					</trkpt>
					<trkpt lat="43.740510" lon="6.077740">
						<ele>417</ele>
						<time>2019-07-31T14:42:20Z</time>
					</trkpt>
					<trkpt lat="43.740350" lon="6.077720">
						<ele>416</ele>
						<time>2019-07-31T14:42:23Z</time>
					</trkpt>
					<trkpt lat="43.740280" lon="6.077680">
						<ele>416</ele>
						<time>2019-07-31T14:42:25Z</time>
					</trkpt>
					<trkpt lat="43.740150" lon="6.077520">
						<ele>416</ele>
						<time>2019-07-31T14:42:28Z</time>
					</trkpt>
					<trkpt lat="43.739950" lon="6.077120">
						<ele>419</ele>
						<time>2019-07-31T14:42:34Z</time>
					</trkpt>
					<trkpt lat="43.739830" lon="6.076970">
						<ele>422</ele>
						<time>2019-07-31T14:42:37Z</time>
					</trkpt>
					<trkpt lat="43.739560" lon="6.076980">
						<ele>424</ele>
						<time>2019-07-31T14:42:42Z</time>
					</trkpt>
					<trkpt lat="43.739490" lon="6.077150">
						<ele>423</ele>
						<time>2019-07-31T14:42:44Z</time>
					</trkpt>
					<trkpt lat="43.739240" lon="6.078170">
						<ele>415</ele>
						<time>2019-07-31T14:42:58Z</time>
					</trkpt>
					<trkpt lat="43.739130" lon="6.078340">
						<ele>414</ele>
						<time>2019-07-31T14:43:01Z</time>
					</trkpt>
					<trkpt lat="43.738720" lon="6.078660">
						<ele>414</ele>
						<time>2019-07-31T14:43:09Z</time>
					</trkpt>
					<trkpt lat="43.738580" lon="6.078890">
						<ele>413</ele>
						<time>2019-07-31T14:43:13Z</time>
					</trkpt>
					<trkpt lat="43.738470" lon="6.079160">
						<ele>412</ele>
						<time>2019-07-31T14:43:17Z</time>
					</trkpt>
					<trkpt lat="43.738430" lon="6.079450">
						<ele>412</ele>
						<time>2019-07-31T14:43:21Z</time>
					</trkpt>
					<trkpt lat="43.738380" lon="6.080420">
						<ele>412</ele>
						<time>2019-07-31T14:43:33Z</time>
					</trkpt>
					<trkpt lat="43.738290" lon="6.080850">
						<ele>412</ele>
						<time>2019-07-31T14:43:39Z</time>
					</trkpt>
					<trkpt lat="43.738210" lon="6.081060">
						<ele>412</ele>
						<time>2019-07-31T14:43:42Z</time>
					</trkpt>
					<trkpt lat="43.738040" lon="6.081260">
						<ele>411</ele>
						<time>2019-07-31T14:43:46Z</time>
					</trkpt>
					<trkpt lat="43.737840" lon="6.081390">
						<ele>411</ele>
						<time>2019-07-31T14:43:50Z</time>
					</trkpt>
					<trkpt lat="43.737610" lon="6.081470">
						<ele>411</ele>
						<time>2019-07-31T14:43:54Z</time>
					</trkpt>
					<trkpt lat="43.737370" lon="6.081490">
						<ele>411</ele>
						<time>2019-07-31T14:43:59Z</time>
					</trkpt>
					<trkpt lat="43.737160" lon="6.081450">
						<ele>411</ele>
						<time>2019-07-31T14:44:02Z</time>
					</trkpt>
					<trkpt lat="43.736960" lon="6.081330">
						<ele>411</ele>
						<time>2019-07-31T14:44:06Z</time>
					</trkpt>
					<trkpt lat="43.736690" lon="6.081080">
						<ele>413</ele>
						<time>2019-07-31T14:44:12Z</time>
					</trkpt>
					<trkpt lat="43.736350" lon="6.080620">
						<ele>415</ele>
						<time>2019-07-31T14:44:21Z</time>
					</trkpt>
					<trkpt lat="43.736230" lon="6.080390">
						<ele>416</ele>
						<time>2019-07-31T14:44:24Z</time>
					</trkpt>
					<trkpt lat="43.735930" lon="6.079360">
						<ele>420</ele>
						<time>2019-07-31T14:44:38Z</time>
					</trkpt>
					<trkpt lat="43.735850" lon="6.078390">
						<ele>426</ele>
						<time>2019-07-31T14:44:51Z</time>
					</trkpt>
					<trkpt lat="43.735860" lon="6.078050">
						<ele>428</ele>
						<time>2019-07-31T14:44:55Z</time>
					</trkpt>
					<trkpt lat="43.735960" lon="6.077600">
						<ele>432</ele>
						<time>2019-07-31T14:45:01Z</time>
					</trkpt>
					<trkpt lat="43.736190" lon="6.077180">
						<ele>436</ele>
						<time>2019-07-31T14:45:08Z</time>
					</trkpt>
					<trkpt lat="43.736220" lon="6.076990">
						<ele>438</ele>
						<time>2019-07-31T14:45:11Z</time>
					</trkpt>
					<trkpt lat="43.736160" lon="6.076800">
						<ele>440</ele>
						<time>2019-07-31T14:45:13Z</time>
					</trkpt>
					<trkpt lat="43.736010" lon="6.076590">
						<ele>442</ele>
						<time>2019-07-31T14:45:17Z</time>
					</trkpt>
					<trkpt lat="43.735900" lon="6.076540">
						<ele>442</ele>
						<time>2019-07-31T14:45:19Z</time>
					</trkpt>
					<trkpt lat="43.735580" lon="6.076600">
						<ele>441</ele>
						<time>2019-07-31T14:45:25Z</time>
					</trkpt>
					<trkpt lat="43.735350" lon="6.076540">
						<ele>441</ele>
						<time>2019-07-31T14:45:29Z</time>
					</trkpt>
					<trkpt lat="43.735210" lon="6.076470">
						<ele>442</ele>
						<time>2019-07-31T14:45:32Z</time>
					</trkpt>
					<trkpt lat="43.735040" lon="6.076280">
						<ele>444</ele>
						<time>2019-07-31T14:45:36Z</time>
					</trkpt>
					<trkpt lat="43.734900" lon="6.076000">
						<ele>447</ele>
						<time>2019-07-31T14:45:40Z</time>
					</trkpt>
					<trkpt lat="43.734810" lon="6.075930">
						<ele>448</ele>
						<time>2019-07-31T14:45:42Z</time>
					</trkpt>
					<trkpt lat="43.734540" lon="6.075890">
						<ele>449</ele>
						<time>2019-07-31T14:45:47Z</time>
					</trkpt>
					<trkpt lat="43.734210" lon="6.075770">
						<ele>450</ele>
						<time>2019-07-31T14:45:53Z</time>
					</trkpt>
					<trkpt lat="43.733620" lon="6.075400">
						<ele>456</ele>
						<time>2019-07-31T14:46:04Z</time>
					</trkpt>
					<trkpt lat="43.733280" lon="6.075100">
						<ele>459</ele>
						<time>2019-07-31T14:46:12Z</time>
					</trkpt>
					<trkpt lat="43.733000" lon="6.074620">
						<ele>464</ele>
						<time>2019-07-31T14:46:19Z</time>
					</trkpt>
					<trkpt lat="43.732890" lon="6.074500">
						<ele>466</ele>
						<time>2019-07-31T14:46:22Z</time>
					</trkpt>
					<trkpt lat="43.732480" lon="6.074260">
						<ele>469</ele>
						<time>2019-07-31T14:46:30Z</time>
					</trkpt>
					<trkpt lat="43.732170" lon="6.073990">
						<ele>471</ele>
						<time>2019-07-31T14:46:36Z</time>
					</trkpt>
					<trkpt lat="43.731890" lon="6.073380">
						<ele>477</ele>
						<time>2019-07-31T14:46:46Z</time>
					</trkpt>
					<trkpt lat="43.731760" lon="6.073320">
						<ele>477</ele>
						<time>2019-07-31T14:46:48Z</time>
					</trkpt>
					<trkpt lat="43.731590" lon="6.073390">
						<ele>476</ele>
						<time>2019-07-31T14:46:51Z</time>
					</trkpt>
					<trkpt lat="43.731420" lon="6.073380">
						<ele>475</ele>
						<time>2019-07-31T14:46:54Z</time>
					</trkpt>
					<trkpt lat="43.731350" lon="6.073330">
						<ele>475</ele>
						<time>2019-07-31T14:46:56Z</time>
					</trkpt>
					<trkpt lat="43.729770" lon="6.071890">
						<ele>477</ele>
						<time>2019-07-31T14:47:29Z</time>
					</trkpt>
					<trkpt lat="43.729510" lon="6.071580">
						<ele>477</ele>
						<time>2019-07-31T14:47:35Z</time>
					</trkpt>
					<trkpt lat="43.729350" lon="6.071440">
						<ele>477</ele>
						<time>2019-07-31T14:47:39Z</time>
					</trkpt>
					<trkpt lat="43.729080" lon="6.071290">
						<ele>476</ele>
						<time>2019-07-31T14:47:44Z</time>
					</trkpt>
					<trkpt lat="43.728470" lon="6.071060">
						<ele>474</ele>
						<time>2019-07-31T14:47:55Z</time>
					</trkpt>
					<trkpt lat="43.727750" lon="6.070750">
						<ele>471</ele>
						<time>2019-07-31T14:48:09Z</time>
					</trkpt>
					<trkpt lat="43.727070" lon="6.070540">
						<ele>469</ele>
						<time>2019-07-31T14:48:21Z</time>
					</trkpt>
					<trkpt lat="43.726490" lon="6.070400">
						<ele>468</ele>
						<time>2019-07-31T14:48:32Z</time>
					</trkpt>
					<trkpt lat="43.726330" lon="6.070330">
						<ele>468</ele>
						<time>2019-07-31T14:48:35Z</time>
					</trkpt>
					<trkpt lat="43.726100" lon="6.070170">
						<ele>469</ele>
						<time>2019-07-31T14:48:39Z</time>
					</trkpt>
					<trkpt lat="43.725440" lon="6.069400">
						<ele>470</ele>
						<time>2019-07-31T14:48:54Z</time>
					</trkpt>
					<trkpt lat="43.725050" lon="6.068570">
						<ele>471</ele>
						<time>2019-07-31T14:49:07Z</time>
					</trkpt>
					<trkpt lat="43.724910" lon="6.068350">
						<ele>471</ele>
						<time>2019-07-31T14:49:11Z</time>
					</trkpt>
					<trkpt lat="43.724590" lon="6.068090">
						<ele>471</ele>
						<time>2019-07-31T14:49:18Z</time>
					</trkpt>
					<trkpt lat="43.724400" lon="6.068040">
						<ele>470</ele>
						<time>2019-07-31T14:49:21Z</time>
					</trkpt>
					<trkpt lat="43.724070" lon="6.067640">
						<ele>471</ele>
						<time>2019-07-31T14:49:29Z</time>
					</trkpt>
					<trkpt lat="43.723970" lon="6.067470">
						<ele>472</ele>
						<time>2019-07-31T14:49:32Z</time>
					</trkpt>
					<trkpt lat="43.723130" lon="6.066800">
						<ele>473</ele>
						<time>2019-07-31T14:49:49Z</time>
					</trkpt>
					<trkpt lat="43.722470" lon="6.065940">
						<ele>472</ele>
						<time>2019-07-31T14:50:05Z</time>
					</trkpt>
					<trkpt lat="43.722280" lon="6.065530">
						<ele>471</ele>
						<time>2019-07-31T14:50:11Z</time>
					</trkpt>
					<trkpt lat="43.722220" lon="6.065330">
						<ele>471</ele>
						<time>2019-07-31T14:50:14Z</time>
					</trkpt>
					<trkpt lat="43.722170" lon="6.064460">
						<ele>474</ele>
						<time>2019-07-31T14:50:25Z</time>
					</trkpt>
					<trkpt lat="43.722090" lon="6.064240">
						<ele>476</ele>
						<time>2019-07-31T14:50:28Z</time>
					</trkpt>
					<trkpt lat="43.722020" lon="6.064150">
						<ele>476</ele>
						<time>2019-07-31T14:50:30Z</time>
					</trkpt>
					<trkpt lat="43.721940" lon="6.064100">
						<ele>476</ele>
						<time>2019-07-31T14:50:32Z</time>
					</trkpt>
					<trkpt lat="43.721850" lon="6.064080">
						<ele>476</ele>
						<time>2019-07-31T14:50:33Z</time>
					</trkpt>
					<trkpt lat="43.721480" lon="6.064240">
						<ele>477</ele>
						<time>2019-07-31T14:50:40Z</time>
					</trkpt>
					<trkpt lat="43.721200" lon="6.064280">
						<ele>479</ele>
						<time>2019-07-31T14:50:45Z</time>
					</trkpt>
					<trkpt lat="43.721030" lon="6.064340">
						<ele>479</ele>
						<time>2019-07-31T14:50:48Z</time>
					</trkpt>
					<trkpt lat="43.720960" lon="6.064420">
						<ele>479</ele>
						<time>2019-07-31T14:50:50Z</time>
					</trkpt>
					<trkpt lat="43.720790" lon="6.064800">
						<ele>479</ele>
						<time>2019-07-31T14:50:56Z</time>
					</trkpt>
					<trkpt lat="43.720730" lon="6.064860">
						<ele>479</ele>
						<time>2019-07-31T14:50:57Z</time>
					</trkpt>
					<trkpt lat="43.720670" lon="6.064860">
						<ele>480</ele>
						<time>2019-07-31T14:50:58Z</time>
					</trkpt>
					<trkpt lat="43.720610" lon="6.064810">
						<ele>481</ele>
						<time>2019-07-31T14:50:59Z</time>
					</trkpt>
					<trkpt lat="43.720550" lon="6.064610">
						<ele>483</ele>
						<time>2019-07-31T14:51:02Z</time>
					</trkpt>
					<trkpt lat="43.720500" lon="6.064190">
						<ele>486</ele>
						<time>2019-07-31T14:51:08Z</time>
					</trkpt>
					<trkpt lat="43.720530" lon="6.063890">
						<ele>488</ele>
						<time>2019-07-31T14:51:12Z</time>
					</trkpt>
					<trkpt lat="43.720780" lon="6.063270">
						<ele>491</ele>
						<time>2019-07-31T14:51:21Z</time>
					</trkpt>
					<trkpt lat="43.720790" lon="6.063140">
						<ele>492</ele>
						<time>2019-07-31T14:51:22Z</time>
					</trkpt>
					<trkpt lat="43.720710" lon="6.062900">
						<ele>493</ele>
						<time>2019-07-31T14:51:26Z</time>
					</trkpt>
					<trkpt lat="43.720540" lon="6.062710">
						<ele>494</ele>
						<time>2019-07-31T14:51:30Z</time>
					</trkpt>
					<trkpt lat="43.720330" lon="6.062570">
						<ele>495</ele>
						<time>2019-07-31T14:51:34Z</time>
					</trkpt>
					<trkpt lat="43.720000" lon="6.062410">
						<ele>497</ele>
						<time>2019-07-31T14:51:40Z</time>
					</trkpt>
					<trkpt lat="43.719790" lon="6.062280">
						<ele>497</ele>
						<time>2019-07-31T14:51:44Z</time>
					</trkpt>
					<trkpt lat="43.718740" lon="6.061580">
						<ele>494</ele>
						<time>2019-07-31T14:52:05Z</time>
					</trkpt>
					<trkpt lat="43.718570" lon="6.061430">
						<ele>493</ele>
						<time>2019-07-31T14:52:08Z</time>
					</trkpt>
					<trkpt lat="43.718510" lon="6.061320">
						<ele>492</ele>
						<time>2019-07-31T14:52:10Z</time>
					</trkpt>
					<trkpt lat="43.718470" lon="6.061060">
						<ele>491</ele>
						<time>2019-07-31T14:52:14Z</time>
					</trkpt>
					<trkpt lat="43.718550" lon="6.060650">
						<ele>490</ele>
						<time>2019-07-31T14:52:19Z</time>
					</trkpt>
					<trkpt lat="43.718600" lon="6.060540">
						<ele>489</ele>
						<time>2019-07-31T14:52:21Z</time>
					</trkpt>
					<trkpt lat="43.718730" lon="6.060380">
						<ele>489</ele>
						<time>2019-07-31T14:52:24Z</time>
					</trkpt>
					<trkpt lat="43.718910" lon="6.060270">
						<ele>489</ele>
						<time>2019-07-31T14:52:27Z</time>
					</trkpt>
					<trkpt lat="43.718950" lon="6.060230">
						<ele>489</ele>
						<time>2019-07-31T14:52:28Z</time>
					</trkpt>
					<trkpt lat="43.718960" lon="6.060170">
						<ele>488</ele>
						<time>2019-07-31T14:52:29Z</time>
					</trkpt>
					<trkpt lat="43.718900" lon="6.060110">
						<ele>488</ele>
						<time>2019-07-31T14:52:30Z</time>
					</trkpt>
					<trkpt lat="43.718540" lon="6.060120">
						<ele>486</ele>
						<time>2019-07-31T14:52:37Z</time>
					</trkpt>
					<trkpt lat="43.718030" lon="6.060020">
						<ele>484</ele>
						<time>2019-07-31T14:52:46Z</time>
					</trkpt>
					<trkpt lat="43.717910" lon="6.059970">
						<ele>483</ele>
						<time>2019-07-31T14:52:48Z</time>
					</trkpt>
					<trkpt lat="43.717800" lon="6.059890">
						<ele>482</ele>
						<time>2019-07-31T14:52:50Z</time>
					</trkpt>
					<trkpt lat="43.717630" lon="6.059650">
						<ele>480</ele>
						<time>2019-07-31T14:52:55Z</time>
					</trkpt>
					<trkpt lat="43.717320" lon="6.059040">
						<ele>478</ele>
						<time>2019-07-31T14:53:04Z</time>
					</trkpt>
					<trkpt lat="43.716260" lon="6.056620">
						<ele>486</ele>
						<time>2019-07-31T14:53:41Z</time>
					</trkpt>
					<trkpt lat="43.715510" lon="6.054270">
						<ele>477</ele>
						<time>2019-07-31T14:54:14Z</time>
					</trkpt>
					<trkpt lat="43.715130" lon="6.053320">
						<ele>475</ele>
						<time>2019-07-31T14:54:28Z</time>
					</trkpt>
					<trkpt lat="43.714920" lon="6.052940">
						<ele>474</ele>
						<time>2019-07-31T14:54:34Z</time>
					</trkpt>
					<trkpt lat="43.714740" lon="6.052740">
						<ele>475</ele>
						<time>2019-07-31T14:54:38Z</time>
					</trkpt>
					<trkpt lat="43.714190" lon="6.052470">
						<ele>478</ele>
						<time>2019-07-31T14:54:48Z</time>
					</trkpt>
					<trkpt lat="43.713880" lon="6.052280">
						<ele>483</ele>
						<time>2019-07-31T14:54:54Z</time>
					</trkpt>
					<trkpt lat="43.713800" lon="6.052280">
						<ele>483</ele>
						<time>2019-07-31T14:54:56Z</time>
					</trkpt>
					<trkpt lat="43.713720" lon="6.052330">
						<ele>484</ele>
						<time>2019-07-31T14:54:57Z</time>
					</trkpt>
					<trkpt lat="43.713550" lon="6.052690">
						<ele>483</ele>
						<time>2019-07-31T14:55:03Z</time>
					</trkpt>
					<trkpt lat="43.713500" lon="6.052750">
						<ele>484</ele>
						<time>2019-07-31T14:55:04Z</time>
					</trkpt>
					<trkpt lat="43.713440" lon="6.052780">
						<ele>484</ele>
						<time>2019-07-31T14:55:05Z</time>
					</trkpt>
					<trkpt lat="43.713390" lon="6.052760">
						<ele>485</ele>
						<time>2019-07-31T14:55:06Z</time>
					</trkpt>
					<trkpt lat="43.713350" lon="6.052700">
						<ele>486</ele>
						<time>2019-07-31T14:55:07Z</time>
					</trkpt>
					<trkpt lat="43.713110" lon="6.051200">
						<ele>493</ele>
						<time>2019-07-31T14:55:27Z</time>
					</trkpt>
					<trkpt lat="43.713010" lon="6.050970">
						<ele>494</ele>
						<time>2019-07-31T14:55:30Z</time>
					</trkpt>
					<trkpt lat="43.712660" lon="6.050430">
						<ele>494</ele>
						<time>2019-07-31T14:55:40Z</time>
					</trkpt>
					<trkpt lat="43.712610" lon="6.050290">
						<ele>494</ele>
						<time>2019-07-31T14:55:42Z</time>
					</trkpt>
					<trkpt lat="43.712400" lon="6.049410">
						<ele>490</ele>
						<time>2019-07-31T14:55:54Z</time>
					</trkpt>
					<trkpt lat="43.712380" lon="6.049120">
						<ele>488</ele>
						<time>2019-07-31T14:55:57Z</time>
					</trkpt>
					<trkpt lat="43.712400" lon="6.048980">
						<ele>487</ele>
						<time>2019-07-31T14:55:59Z</time>
					</trkpt>
					<trkpt lat="43.712500" lon="6.048600">
						<ele>484</ele>
						<time>2019-07-31T14:56:04Z</time>
					</trkpt>
					<trkpt lat="43.712600" lon="6.048340">
						<ele>481</ele>
						<time>2019-07-31T14:56:08Z</time>
					</trkpt>
					<trkpt lat="43.712660" lon="6.048260">
						<ele>481</ele>
						<time>2019-07-31T14:56:10Z</time>
					</trkpt>
					<trkpt lat="43.712740" lon="6.048200">
						<ele>480</ele>
						<time>2019-07-31T14:56:11Z</time>
					</trkpt>
					<trkpt lat="43.712920" lon="6.048130">
						<ele>480</ele>
						<time>2019-07-31T14:56:15Z</time>
					</trkpt>
					<trkpt lat="43.713110" lon="6.048090">
						<ele>480</ele>
						<time>2019-07-31T14:56:18Z</time>
					</trkpt>
					<trkpt lat="43.713400" lon="6.048080">
						<ele>481</ele>
						<time>2019-07-31T14:56:23Z</time>
					</trkpt>
					<trkpt lat="43.713480" lon="6.048060">
						<ele>481</ele>
						<time>2019-07-31T14:56:25Z</time>
					</trkpt>
					<trkpt lat="43.713550" lon="6.048010">
						<ele>481</ele>
						<time>2019-07-31T14:56:26Z</time>
					</trkpt>
					<trkpt lat="43.713780" lon="6.047650">
						<ele>477</ele>
						<time>2019-07-31T14:56:32Z</time>
					</trkpt>
					<trkpt lat="43.714120" lon="6.047360">
						<ele>478</ele>
						<time>2019-07-31T14:56:39Z</time>
					</trkpt>
					<trkpt lat="43.714150" lon="6.047150">
						<ele>480</ele>
						<time>2019-07-31T14:56:42Z</time>
					</trkpt>
					<trkpt lat="43.712700" lon="6.047100">
						<ele>470</ele>
						<time>2019-07-31T14:57:08Z</time>
					</trkpt>
					<trkpt lat="43.712310" lon="6.046980">
						<ele>467</ele>
						<time>2019-07-31T14:57:15Z</time>
					</trkpt>
					<trkpt lat="43.712050" lon="6.046780">
						<ele>464</ele>
						<time>2019-07-31T14:57:20Z</time>
					</trkpt>
					<trkpt lat="43.711940" lon="6.046650">
						<ele>462</ele>
						<time>2019-07-31T14:57:23Z</time>
					</trkpt>
					<trkpt lat="43.711750" lon="6.046360">
						<ele>459</ele>
						<time>2019-07-31T14:57:28Z</time>
					</trkpt>
					<trkpt lat="43.711500" lon="6.045850">
						<ele>455</ele>
						<time>2019-07-31T14:57:36Z</time>
					</trkpt>
					<trkpt lat="43.711410" lon="6.045710">
						<ele>455</ele>
						<time>2019-07-31T14:57:38Z</time>
					</trkpt>
					<trkpt lat="43.711290" lon="6.045590">
						<ele>455</ele>
						<time>2019-07-31T14:57:41Z</time>
					</trkpt>
					<trkpt lat="43.711040" lon="6.045430">
						<ele>453</ele>
						<time>2019-07-31T14:57:46Z</time>
					</trkpt>
					<trkpt lat="43.710440" lon="6.045200">
						<ele>451</ele>
						<time>2019-07-31T14:57:57Z</time>
					</trkpt>
					<trkpt lat="43.710330" lon="6.045130">
						<ele>450</ele>
						<time>2019-07-31T14:57:59Z</time>
					</trkpt>
					<trkpt lat="43.710230" lon="6.045050">
						<ele>449</ele>
						<time>2019-07-31T14:58:01Z</time>
					</trkpt>
					<trkpt lat="43.710110" lon="6.044810">
						<ele>444</ele>
						<time>2019-07-31T14:58:05Z</time>
					</trkpt>
					<trkpt lat="43.710080" lon="6.044560">
						<ele>439</ele>
						<time>2019-07-31T14:58:08Z</time>
					</trkpt>
					<trkpt lat="43.710100" lon="6.044420">
						<ele>436</ele>
						<time>2019-07-31T14:58:10Z</time>
					</trkpt>
					<trkpt lat="43.710160" lon="6.044290">
						<ele>435</ele>
						<time>2019-07-31T14:58:12Z</time>
					</trkpt>
					<trkpt lat="43.710320" lon="6.044110">
						<ele>435</ele>
						<time>2019-07-31T14:58:16Z</time>
					</trkpt>
					<trkpt lat="43.710590" lon="6.043940">
						<ele>439</ele>
						<time>2019-07-31T14:58:21Z</time>
					</trkpt>
					<trkpt lat="43.710660" lon="6.043850">
						<ele>440</ele>
						<time>2019-07-31T14:58:22Z</time>
					</trkpt>
					<trkpt lat="43.710710" lon="6.043730">
						<ele>441</ele>
						<time>2019-07-31T14:58:24Z</time>
					</trkpt>
					<trkpt lat="43.710730" lon="6.043560">
						<ele>442</ele>
						<time>2019-07-31T14:58:26Z</time>
					</trkpt>
					<trkpt lat="43.710700" lon="6.043430">
						<ele>441</ele>
						<time>2019-07-31T14:58:28Z</time>
					</trkpt>
					<trkpt lat="43.710640" lon="6.043330">
						<ele>439</ele>
						<time>2019-07-31T14:58:30Z</time>
					</trkpt>
					<trkpt lat="43.710310" lon="6.043010">
						<ele>431</ele>
						<time>2019-07-31T14:58:37Z</time>
					</trkpt>
					<trkpt lat="43.710260" lon="6.042880">
						<ele>431</ele>
						<time>2019-07-31T14:58:39Z</time>
					</trkpt>
					<trkpt lat="43.710080" lon="6.042090">
						<ele>430</ele>
						<time>2019-07-31T14:58:50Z</time>
					</trkpt>
					<trkpt lat="43.710060" lon="6.041620">
						<ele>430</ele>
						<time>2019-07-31T14:58:56Z</time>
					</trkpt>
					<trkpt lat="43.709910" lon="6.041160">
						<ele>425</ele>
						<time>2019-07-31T14:59:02Z</time>
					</trkpt>
					<trkpt lat="43.709880" lon="6.040990">
						<ele>425</ele>
						<time>2019-07-31T14:59:04Z</time>
					</trkpt>
					<trkpt lat="43.709880" lon="6.040830">
						<ele>424</ele>
						<time>2019-07-31T14:59:06Z</time>
					</trkpt>
					<trkpt lat="43.709950" lon="6.040340">
						<ele>422</ele>
						<time>2019-07-31T14:59:13Z</time>
					</trkpt>
					<trkpt lat="43.710120" lon="6.039560">
						<ele>424</ele>
						<time>2019-07-31T14:59:23Z</time>
					</trkpt>
					<trkpt lat="43.710150" lon="6.039250">
						<ele>425</ele>
						<time>2019-07-31T14:59:27Z</time>
					</trkpt>
					<trkpt lat="43.710140" lon="6.039120">
						<ele>424</ele>
						<time>2019-07-31T14:59:29Z</time>
					</trkpt>
					<trkpt lat="43.710090" lon="6.038960">
						<ele>423</ele>
						<time>2019-07-31T14:59:31Z</time>
					</trkpt>
					<trkpt lat="43.710040" lon="6.038920">
						<ele>421</ele>
						<time>2019-07-31T14:59:32Z</time>
					</trkpt>
					<trkpt lat="43.709980" lon="6.038910">
						<ele>419</ele>
						<time>2019-07-31T14:59:33Z</time>
					</trkpt>
					<trkpt lat="43.709870" lon="6.038990">
						<ele>418</ele>
						<time>2019-07-31T14:59:36Z</time>
					</trkpt>
					<trkpt lat="43.709740" lon="6.039500">
						<ele>416</ele>
						<time>2019-07-31T14:59:43Z</time>
					</trkpt>
					<trkpt lat="43.709160" lon="6.041000">
						<ele>409</ele>
						<time>2019-07-31T15:00:04Z</time>
					</trkpt>
					<trkpt lat="43.708920" lon="6.041340">
						<ele>405</ele>
						<time>2019-07-31T15:00:11Z</time>
					</trkpt>
					<trkpt lat="43.708780" lon="6.041480">
						<ele>404</ele>
						<time>2019-07-31T15:00:14Z</time>
					</trkpt>
					<trkpt lat="43.708450" lon="6.041680">
						<ele>399</ele>
						<time>2019-07-31T15:00:20Z</time>
					</trkpt>
					<trkpt lat="43.708270" lon="6.041720">
						<ele>398</ele>
						<time>2019-07-31T15:00:23Z</time>
					</trkpt>
					<trkpt lat="43.707930" lon="6.041750">
						<ele>395</ele>
						<time>2019-07-31T15:00:29Z</time>
					</trkpt>
					<trkpt lat="43.706510" lon="6.041790">
						<ele>389</ele>
						<time>2019-07-31T15:00:55Z</time>
					</trkpt>
					<trkpt lat="43.702830" lon="6.042470">
						<ele>373</ele>
						<time>2019-07-31T15:02:01Z</time>
					</trkpt>
					<trkpt lat="43.702670" lon="6.042450">
						<ele>372</ele>
						<time>2019-07-31T15:02:04Z</time>
					</trkpt>
					<trkpt lat="43.702470" lon="6.042360">
						<ele>371</ele>
						<time>2019-07-31T15:02:07Z</time>
					</trkpt>
					<trkpt lat="43.702360" lon="6.042230">
						<ele>371</ele>
						<time>2019-07-31T15:02:10Z</time>
					</trkpt>
					<trkpt lat="43.700480" lon="6.039480">
						<ele>371</ele>
						<time>2019-07-31T15:02:59Z</time>
					</trkpt>
					<trkpt lat="43.699800" lon="6.037940">
						<ele>372</ele>
						<time>2019-07-31T15:03:22Z</time>
					</trkpt>
					<trkpt lat="43.699730" lon="6.037840">
						<ele>372</ele>
						<time>2019-07-31T15:03:24Z</time>
					</trkpt>
					<trkpt lat="43.699820" lon="6.037860">
						<ele>373</ele>
						<time>2019-07-31T15:03:25Z</time>
					</trkpt>
					<trkpt lat="43.700720" lon="6.038420">
						<ele>377</ele>
						<time>2019-07-31T15:03:43Z</time>
					</trkpt>
					<trkpt lat="43.701020" lon="6.038890">
						<ele>379</ele>
						<time>2019-07-31T15:03:51Z</time>
					</trkpt>
					<trkpt lat="43.701280" lon="6.039240">
						<ele>381</ele>
						<time>2019-07-31T15:03:57Z</time>
					</trkpt>
					<trkpt lat="43.701440" lon="6.039370">
						<ele>383</ele>
						<time>2019-07-31T15:04:01Z</time>
					</trkpt>
					<trkpt lat="43.701510" lon="6.039290">
						<ele>384</ele>
						<time>2019-07-31T15:04:02Z</time>
					</trkpt>
					<trkpt lat="43.701710" lon="6.039170">
						<ele>386</ele>
						<time>2019-07-31T15:04:06Z</time>
					</trkpt>
					<trkpt lat="43.701950" lon="6.039050">
						<ele>387</ele>
						<time>2019-07-31T15:04:11Z</time>
					</trkpt>
					<trkpt lat="43.702050" lon="6.039060">
						<ele>388</ele>
						<time>2019-07-31T15:04:12Z</time>
					</trkpt>
					<trkpt lat="43.702280" lon="6.039270">
						<ele>388</ele>
						<time>2019-07-31T15:04:17Z</time>
					</trkpt>
					<trkpt lat="43.702670" lon="6.039810">
						<ele>384</ele>
						<time>2019-07-31T15:04:27Z</time>
					</trkpt>
					<trkpt lat="43.703210" lon="6.039150">
						<ele>387</ele>
						<time>2019-07-31T15:04:40Z</time>
					</trkpt>
					<trkpt lat="43.703370" lon="6.039020">
						<ele>387</ele>
						<time>2019-07-31T15:04:43Z</time>
					</trkpt>
					<trkpt lat="43.703480" lon="6.038970">
						<ele>387</ele>
						<time>2019-07-31T15:04:45Z</time>
					</trkpt>
					<trkpt lat="43.703580" lon="6.038970">
						<ele>388</ele>
						<time>2019-07-31T15:04:47Z</time>
					</trkpt>
					<trkpt lat="43.703730" lon="6.039020">
						<ele>388</ele>
						<time>2019-07-31T15:04:50Z</time>
					</trkpt>
					<trkpt lat="43.703990" lon="6.039260">
						<ele>387</ele>
						<time>2019-07-31T15:04:55Z</time>
					</trkpt>
					<trkpt lat="43.704120" lon="6.039340">
						<ele>387</ele>
						<time>2019-07-31T15:04:58Z</time>
					</trkpt>
					<trkpt lat="43.704200" lon="6.039360">
						<ele>387</ele>
						<time>2019-07-31T15:04:59Z</time>
					</trkpt>
					<trkpt lat="43.704360" lon="6.039350">
						<ele>388</ele>
						<time>2019-07-31T15:05:02Z</time>
					</trkpt>
					<trkpt lat="43.704870" lon="6.039190">
						<ele>391</ele>
						<time>2019-07-31T15:05:12Z</time>
					</trkpt>
					<trkpt lat="43.704990" lon="6.039120">
						<ele>392</ele>
						<time>2019-07-31T15:05:14Z</time>
					</trkpt>
					<trkpt lat="43.706460" lon="6.037850">
						<ele>412</ele>
						<time>2019-07-31T15:05:45Z</time>
					</trkpt>
					<trkpt lat="43.706600" lon="6.037760">
						<ele>414</ele>
						<time>2019-07-31T15:05:47Z</time>
					</trkpt>
					<trkpt lat="43.706720" lon="6.037720">
						<ele>415</ele>
						<time>2019-07-31T15:05:50Z</time>
					</trkpt>
					<trkpt lat="43.707220" lon="6.037620">
						<ele>419</ele>
						<time>2019-07-31T15:05:59Z</time>
					</trkpt>
					<trkpt lat="43.707370" lon="6.037520">
						<ele>421</ele>
						<time>2019-07-31T15:06:02Z</time>
					</trkpt>
					<trkpt lat="43.707860" lon="6.037110">
						<ele>426</ele>
						<time>2019-07-31T15:06:12Z</time>
					</trkpt>
					<trkpt lat="43.708110" lon="6.036870">
						<ele>429</ele>
						<time>2019-07-31T15:06:17Z</time>
					</trkpt>
					<trkpt lat="43.708370" lon="6.036690">
						<ele>432</ele>
						<time>2019-07-31T15:06:22Z</time>
					</trkpt>
					<trkpt lat="43.708490" lon="6.036690">
						<ele>433</ele>
						<time>2019-07-31T15:06:24Z</time>
					</trkpt>
					<trkpt lat="43.708490" lon="6.036560">
						<ele>434</ele>
						<time>2019-07-31T15:06:26Z</time>
					</trkpt>
					<trkpt lat="43.708870" lon="6.036500">
						<ele>438</ele>
						<time>2019-07-31T15:06:33Z</time>
					</trkpt>
					<trkpt lat="43.709060" lon="6.036550">
						<ele>438</ele>
						<time>2019-07-31T15:06:36Z</time>
					</trkpt>
					<trkpt lat="43.709200" lon="6.036530">
						<ele>439</ele>
						<time>2019-07-31T15:06:39Z</time>
					</trkpt>
					<trkpt lat="43.709470" lon="6.036540">
						<ele>437</ele>
						<time>2019-07-31T15:06:44Z</time>
					</trkpt>
					<trkpt lat="43.709760" lon="6.036200">
						<ele>442</ele>
						<time>2019-07-31T15:06:50Z</time>
					</trkpt>
					<trkpt lat="43.709890" lon="6.036100">
						<ele>444</ele>
						<time>2019-07-31T15:06:53Z</time>
					</trkpt>
					<trkpt lat="43.710200" lon="6.035940">
						<ele>445</ele>
						<time>2019-07-31T15:06:59Z</time>
					</trkpt>
					<trkpt lat="43.710370" lon="6.035720">
						<ele>447</ele>
						<time>2019-07-31T15:07:03Z</time>
					</trkpt>
					<trkpt lat="43.710550" lon="6.035150">
						<ele>458</ele>
						<time>2019-07-31T15:07:11Z</time>
					</trkpt>
					<trkpt lat="43.710600" lon="6.035110">
						<ele>458</ele>
						<time>2019-07-31T15:07:12Z</time>
					</trkpt>
					<trkpt lat="43.710690" lon="6.035100">
						<ele>458</ele>
						<time>2019-07-31T15:07:14Z</time>
					</trkpt>
					<trkpt lat="43.711150" lon="6.035330">
						<ele>455</ele>
						<time>2019-07-31T15:07:22Z</time>
					</trkpt>
					<trkpt lat="43.711850" lon="6.035380">
						<ele>460</ele>
						<time>2019-07-31T15:07:35Z</time>
					</trkpt>
					<trkpt lat="43.712280" lon="6.035240">
						<ele>464</ele>
						<time>2019-07-31T15:07:43Z</time>
					</trkpt>
					<trkpt lat="43.712770" lon="6.034940">
						<ele>469</ele>
						<time>2019-07-31T15:07:52Z</time>
					</trkpt>
					<trkpt lat="43.713200" lon="6.034950">
						<ele>468</ele>
						<time>2019-07-31T15:08:00Z</time>
					</trkpt>
					<trkpt lat="43.713330" lon="6.034860">
						<ele>469</ele>
						<time>2019-07-31T15:08:03Z</time>
					</trkpt>
					<trkpt lat="43.713630" lon="6.034520">
						<ele>475</ele>
						<time>2019-07-31T15:08:09Z</time>
					</trkpt>
					<trkpt lat="43.713930" lon="6.034010">
						<ele>482</ele>
						<time>2019-07-31T15:08:18Z</time>
					</trkpt>
					<trkpt lat="43.714290" lon="6.033540">
						<ele>491</ele>
						<time>2019-07-31T15:08:27Z</time>
					</trkpt>
					<trkpt lat="43.714370" lon="6.033480">
						<ele>492</ele>
						<time>2019-07-31T15:08:28Z</time>
					</trkpt>
					<trkpt lat="43.714630" lon="6.033420">
						<ele>492</ele>
						<time>2019-07-31T15:08:33Z</time>
					</trkpt>
					<trkpt lat="43.715120" lon="6.033470">
						<ele>491</ele>
						<time>2019-07-31T15:08:42Z</time>
					</trkpt>
					<trkpt lat="43.715440" lon="6.033390">
						<ele>495</ele>
						<time>2019-07-31T15:08:48Z</time>
					</trkpt>
					<trkpt lat="43.715610" lon="6.033310">
						<ele>497</ele>
						<time>2019-07-31T15:08:51Z</time>
					</trkpt>
					<trkpt lat="43.715670" lon="6.033250">
						<ele>499</ele>
						<time>2019-07-31T15:08:52Z</time>
					</trkpt>
					<trkpt lat="43.715700" lon="6.033120">
						<ele>502</ele>
						<time>2019-07-31T15:08:54Z</time>
					</trkpt>
					<trkpt lat="43.715680" lon="6.033060">
						<ele>503</ele>
						<time>2019-07-31T15:08:55Z</time>
					</trkpt>
					<trkpt lat="43.715600" lon="6.033000">
						<ele>504</ele>
						<time>2019-07-31T15:08:56Z</time>
					</trkpt>
					<trkpt lat="43.715420" lon="6.033030">
						<ele>503</ele>
						<time>2019-07-31T15:09:00Z</time>
					</trkpt>
					<trkpt lat="43.715160" lon="6.033130">
						<ele>499</ele>
						<time>2019-07-31T15:09:04Z</time>
					</trkpt>
					<trkpt lat="43.715080" lon="6.033130">
						<ele>499</ele>
						<time>2019-07-31T15:09:06Z</time>
					</trkpt>
					<trkpt lat="43.715010" lon="6.032990">
						<ele>503</ele>
						<time>2019-07-31T15:09:08Z</time>
					</trkpt>
					<trkpt lat="43.715040" lon="6.032910">
						<ele>505</ele>
						<time>2019-07-31T15:09:09Z</time>
					</trkpt>
					<trkpt lat="43.715100" lon="6.032860">
						<ele>507</ele>
						<time>2019-07-31T15:09:10Z</time>
					</trkpt>
					<trkpt lat="43.715440" lon="6.032740">
						<ele>510</ele>
						<time>2019-07-31T15:09:17Z</time>
					</trkpt>
					<trkpt lat="43.715810" lon="6.032500">
						<ele>514</ele>
						<time>2019-07-31T15:09:24Z</time>
					</trkpt>
					<trkpt lat="43.715940" lon="6.032450">
						<ele>516</ele>
						<time>2019-07-31T15:09:26Z</time>
					</trkpt>
					<trkpt lat="43.716360" lon="6.032360">
						<ele>523</ele>
						<time>2019-07-31T15:09:34Z</time>
					</trkpt>
					<trkpt lat="43.716430" lon="6.032370">
						<ele>523</ele>
						<time>2019-07-31T15:09:35Z</time>
					</trkpt>
					<trkpt lat="43.716510" lon="6.032430">
						<ele>523</ele>
						<time>2019-07-31T15:09:37Z</time>
					</trkpt>
					<trkpt lat="43.716560" lon="6.032510">
						<ele>523</ele>
						<time>2019-07-31T15:09:38Z</time>
					</trkpt>
					<trkpt lat="43.716700" lon="6.033010">
						<ele>516</ele>
						<time>2019-07-31T15:09:45Z</time>
					</trkpt>
					<trkpt lat="43.716740" lon="6.033080">
						<ele>516</ele>
						<time>2019-07-31T15:09:46Z</time>
					</trkpt>
					<trkpt lat="43.716810" lon="6.033130">
						<ele>515</ele>
						<time>2019-07-31T15:09:48Z</time>
					</trkpt>
					<trkpt lat="43.716930" lon="6.033120">
						<ele>517</ele>
						<time>2019-07-31T15:09:50Z</time>
					</trkpt>
					<trkpt lat="43.717560" lon="6.032920">
						<ele>526</ele>
						<time>2019-07-31T15:10:01Z</time>
					</trkpt>
					<trkpt lat="43.717810" lon="6.032770">
						<ele>528</ele>
						<time>2019-07-31T15:10:06Z</time>
					</trkpt>
					<trkpt lat="43.717990" lon="6.032580">
						<ele>530</ele>
						<time>2019-07-31T15:10:10Z</time>
					</trkpt>
					<trkpt lat="43.718250" lon="6.032140">
						<ele>536</ele>
						<time>2019-07-31T15:10:17Z</time>
					</trkpt>
					<trkpt lat="43.718680" lon="6.031890">
						<ele>536</ele>
						<time>2019-07-31T15:10:26Z</time>
					</trkpt>
					<trkpt lat="43.718750" lon="6.031710">
						<ele>538</ele>
						<time>2019-07-31T15:10:28Z</time>
					</trkpt>
					<trkpt lat="43.718790" lon="6.031170">
						<ele>542</ele>
						<time>2019-07-31T15:10:35Z</time>
					</trkpt>
					<trkpt lat="43.718770" lon="6.031010">
						<ele>544</ele>
						<time>2019-07-31T15:10:37Z</time>
					</trkpt>
					<trkpt lat="43.718670" lon="6.030710">
						<ele>545</ele>
						<time>2019-07-31T15:10:42Z</time>
					</trkpt>
					<trkpt lat="43.718650" lon="6.030410">
						<ele>546</ele>
						<time>2019-07-31T15:10:45Z</time>
					</trkpt>
					<trkpt lat="43.718710" lon="6.029930">
						<ele>547</ele>
						<time>2019-07-31T15:10:52Z</time>
					</trkpt>
					<trkpt lat="43.718810" lon="6.029500">
						<ele>548</ele>
						<time>2019-07-31T15:10:58Z</time>
					</trkpt>
					<trkpt lat="43.717750" lon="6.028580">
						<ele>547</ele>
						<time>2019-07-31T15:11:20Z</time>
					</trkpt>
					<trkpt lat="43.716110" lon="6.027460">
						<ele>550</ele>
						<time>2019-07-31T15:11:52Z</time>
					</trkpt>
					<trkpt lat="43.715950" lon="6.027260">
						<ele>550</ele>
						<time>2019-07-31T15:11:56Z</time>
					</trkpt>
					<trkpt lat="43.715750" lon="6.026720">
						<ele>549</ele>
						<time>2019-07-31T15:12:04Z</time>
					</trkpt>
					<trkpt lat="43.714490" lon="6.021980">
						<ele>543</ele>
						<time>2019-07-31T15:13:09Z</time>
					</trkpt>
					<trkpt lat="43.714450" lon="6.021630">
						<ele>543</ele>
						<time>2019-07-31T15:13:13Z</time>
					</trkpt>
					<trkpt lat="43.714480" lon="6.021470">
						<ele>543</ele>
						<time>2019-07-31T15:13:16Z</time>
					</trkpt>
					<trkpt lat="43.714580" lon="6.021190">
						<ele>543</ele>
						<time>2019-07-31T15:13:20Z</time>
					</trkpt>
					<trkpt lat="43.715160" lon="6.020040">
						<ele>545</ele>
						<time>2019-07-31T15:13:38Z</time>
					</trkpt>
					<trkpt lat="43.715430" lon="6.019670">
						<ele>545</ele>
						<time>2019-07-31T15:13:44Z</time>
					</trkpt>
					<trkpt lat="43.715950" lon="6.019100">
						<ele>545</ele>
						<time>2019-07-31T15:13:56Z</time>
					</trkpt>
					<trkpt lat="43.717670" lon="6.017410">
						<ele>543</ele>
						<time>2019-07-31T15:14:34Z</time>
					</trkpt>
					<trkpt lat="43.718190" lon="6.016790">
						<ele>541</ele>
						<time>2019-07-31T15:14:46Z</time>
					</trkpt>
					<trkpt lat="43.719260" lon="6.015190">
						<ele>541</ele>
						<time>2019-07-31T15:15:14Z</time>
					</trkpt>
					<trkpt lat="43.720610" lon="6.012910">
						<ele>540</ele>
						<time>2019-07-31T15:15:52Z</time>
					</trkpt>
					<trkpt lat="43.722000" lon="6.011440">
						<ele>543</ele>
						<time>2019-07-31T15:16:23Z</time>
					</trkpt>
					<trkpt lat="43.723230" lon="6.009580">
						<ele>542</ele>
						<time>2019-07-31T15:16:55Z</time>
					</trkpt>
					<trkpt lat="43.725500" lon="6.005750">
						<ele>540</ele>
						<time>2019-07-31T15:17:59Z</time>
					</trkpt>
					<trkpt lat="43.726770" lon="6.002690">
						<ele>541</ele>
						<time>2019-07-31T15:18:45Z</time>
					</trkpt>
					<trkpt lat="43.728200" lon="5.999960">
						<ele>537</ele>
						<time>2019-07-31T15:19:28Z</time>
					</trkpt>
					<trkpt lat="43.728500" lon="5.999160">
						<ele>535</ele>
						<time>2019-07-31T15:19:39Z</time>
					</trkpt>
					<trkpt lat="43.729170" lon="5.997160">
						<ele>534</ele>
						<time>2019-07-31T15:20:08Z</time>
					</trkpt>
					<trkpt lat="43.730000" lon="5.994500">
						<ele>536</ele>
						<time>2019-07-31T15:20:45Z</time>
					</trkpt>
					<trkpt lat="43.730060" lon="5.994390">
						<ele>536</ele>
						<time>2019-07-31T15:20:47Z</time>
					</trkpt>
					<trkpt lat="43.730190" lon="5.994320">
						<ele>536</ele>
						<time>2019-07-31T15:20:49Z</time>
					</trkpt>
					<trkpt lat="43.730970" lon="5.994780">
						<ele>533</ele>
						<time>2019-07-31T15:21:04Z</time>
					</trkpt>
					<trkpt lat="43.731250" lon="5.995010">
						<ele>531</ele>
						<time>2019-07-31T15:21:10Z</time>
					</trkpt>
					<trkpt lat="43.731320" lon="5.995020">
						<ele>531</ele>
						<time>2019-07-31T15:21:11Z</time>
					</trkpt>
					<trkpt lat="43.731370" lon="5.995000">
						<ele>530</ele>
						<time>2019-07-31T15:21:12Z</time>
					</trkpt>
					<trkpt lat="43.731450" lon="5.994930">
						<ele>530</ele>
						<time>2019-07-31T15:21:14Z</time>
					</trkpt>
					<trkpt lat="43.732130" lon="5.993900">
						<ele>521</ele>
						<time>2019-07-31T15:21:32Z</time>
					</trkpt>
					<trkpt lat="43.732450" lon="5.993540">
						<ele>519</ele>
						<time>2019-07-31T15:21:39Z</time>
					</trkpt>
					<trkpt lat="43.733190" lon="5.992870">
						<ele>512</ele>
						<time>2019-07-31T15:21:55Z</time>
					</trkpt>
					<trkpt lat="43.733380" lon="5.992630">
						<ele>511</ele>
						<time>2019-07-31T15:22:00Z</time>
					</trkpt>
					<trkpt lat="43.733890" lon="5.991650">
						<ele>502</ele>
						<time>2019-07-31T15:22:15Z</time>
					</trkpt>
					<trkpt lat="43.733980" lon="5.991300">
						<ele>496</ele>
						<time>2019-07-31T15:22:20Z</time>
					</trkpt>
					<trkpt lat="43.734010" lon="5.990950">
						<ele>493</ele>
						<time>2019-07-31T15:22:24Z</time>
					</trkpt>
					<trkpt lat="43.733970" lon="5.990610">
						<ele>491</ele>
						<time>2019-07-31T15:22:29Z</time>
					</trkpt>
					<trkpt lat="43.733680" lon="5.989760">
						<ele>493</ele>
						<time>2019-07-31T15:22:41Z</time>
					</trkpt>
					<trkpt lat="43.734040" lon="5.988650">
						<ele>487</ele>
						<time>2019-07-31T15:22:57Z</time>
					</trkpt>
					<trkpt lat="43.734510" lon="5.988230">
						<ele>479</ele>
						<time>2019-07-31T15:23:07Z</time>
					</trkpt>
					<trkpt lat="43.735120" lon="5.987810">
						<ele>470</ele>
						<time>2019-07-31T15:23:19Z</time>
					</trkpt>
					<trkpt lat="43.735430" lon="5.987330">
						<ele>466</ele>
						<time>2019-07-31T15:23:27Z</time>
					</trkpt>
					<trkpt lat="43.736200" lon="5.986580">
						<ele>455</ele>
						<time>2019-07-31T15:23:44Z</time>
					</trkpt>
					<trkpt lat="43.736360" lon="5.986360">
						<ele>454</ele>
						<time>2019-07-31T15:23:48Z</time>
					</trkpt>
					<trkpt lat="43.737290" lon="5.984630">
						<ele>453</ele>
						<time>2019-07-31T15:24:15Z</time>
					</trkpt>
					<trkpt lat="43.737480" lon="5.983810">
						<ele>446</ele>
						<time>2019-07-31T15:24:27Z</time>
					</trkpt>
					<trkpt lat="43.737980" lon="5.983030">
						<ele>442</ele>
						<time>2019-07-31T15:24:40Z</time>
					</trkpt>
					<trkpt lat="43.738260" lon="5.982340">
						<ele>437</ele>
						<time>2019-07-31T15:24:50Z</time>
					</trkpt>
					<trkpt lat="43.738560" lon="5.980720">
						<ele>425</ele>
						<time>2019-07-31T15:25:12Z</time>
					</trkpt>
					<trkpt lat="43.738550" lon="5.980540">
						<ele>425</ele>
						<time>2019-07-31T15:25:14Z</time>
					</trkpt>
					<trkpt lat="43.738230" lon="5.979460">
						<ele>420</ele>
						<time>2019-07-31T15:25:29Z</time>
					</trkpt>
					<trkpt lat="43.738220" lon="5.979320">
						<ele>419</ele>
						<time>2019-07-31T15:25:31Z</time>
					</trkpt>
					<trkpt lat="43.738260" lon="5.979160">
						<ele>418</ele>
						<time>2019-07-31T15:25:33Z</time>
					</trkpt>
					<trkpt lat="43.738390" lon="5.978950">
						<ele>415</ele>
						<time>2019-07-31T15:25:37Z</time>
					</trkpt>
					<trkpt lat="43.738580" lon="5.978750">
						<ele>412</ele>
						<time>2019-07-31T15:25:41Z</time>
					</trkpt>
					<trkpt lat="43.738740" lon="5.978630">
						<ele>411</ele>
						<time>2019-07-31T15:25:44Z</time>
					</trkpt>
					<trkpt lat="43.739090" lon="5.978470">
						<ele>411</ele>
						<time>2019-07-31T15:25:51Z</time>
					</trkpt>
					<trkpt lat="43.739180" lon="5.978490">
						<ele>411</ele>
						<time>2019-07-31T15:25:52Z</time>
					</trkpt>
					<trkpt lat="43.739240" lon="5.978540">
						<ele>410</ele>
						<time>2019-07-31T15:25:53Z</time>
					</trkpt>
					<trkpt lat="43.739300" lon="5.978670">
						<ele>410</ele>
						<time>2019-07-31T15:25:55Z</time>
					</trkpt>
					<trkpt lat="43.739350" lon="5.978960">
						<ele>411</ele>
						<time>2019-07-31T15:25:59Z</time>
					</trkpt>
					<trkpt lat="43.739400" lon="5.979030">
						<ele>411</ele>
						<time>2019-07-31T15:26:00Z</time>
					</trkpt>
					<trkpt lat="43.739470" lon="5.979040">
						<ele>410</ele>
						<time>2019-07-31T15:26:02Z</time>
					</trkpt>
					<trkpt lat="43.739520" lon="5.978940">
						<ele>408</ele>
						<time>2019-07-31T15:26:03Z</time>
					</trkpt>
					<trkpt lat="43.739530" lon="5.978730">
						<ele>407</ele>
						<time>2019-07-31T15:26:06Z</time>
					</trkpt>
					<trkpt lat="43.739480" lon="5.978390">
						<ele>405</ele>
						<time>2019-07-31T15:26:10Z</time>
					</trkpt>
					<trkpt lat="43.739440" lon="5.978290">
						<ele>405</ele>
						<time>2019-07-31T15:26:12Z</time>
					</trkpt>
					<trkpt lat="43.739320" lon="5.978120">
						<ele>403</ele>
						<time>2019-07-31T15:26:15Z</time>
					</trkpt>
					<trkpt lat="43.739110" lon="5.978020">
						<ele>403</ele>
						<time>2019-07-31T15:26:19Z</time>
					</trkpt>
					<trkpt lat="43.738570" lon="5.978260">
						<ele>406</ele>
						<time>2019-07-31T15:26:29Z</time>
					</trkpt>
					<trkpt lat="43.738470" lon="5.978270">
						<ele>406</ele>
						<time>2019-07-31T15:26:31Z</time>
					</trkpt>
					<trkpt lat="43.738400" lon="5.978240">
						<ele>405</ele>
						<time>2019-07-31T15:26:32Z</time>
					</trkpt>
					<trkpt lat="43.738380" lon="5.978160">
						<ele>405</ele>
						<time>2019-07-31T15:26:33Z</time>
					</trkpt>
					<trkpt lat="43.738410" lon="5.978030">
						<ele>403</ele>
						<time>2019-07-31T15:26:35Z</time>
					</trkpt>
					<trkpt lat="43.738680" lon="5.977320">
						<ele>396</ele>
						<time>2019-07-31T15:26:45Z</time>
					</trkpt>
					<trkpt lat="43.738990" lon="5.976160">
						<ele>391</ele>
						<time>2019-07-31T15:27:01Z</time>
					</trkpt>
					<trkpt lat="43.739110" lon="5.976010">
						<ele>391</ele>
						<time>2019-07-31T15:27:04Z</time>
					</trkpt>
					<trkpt lat="43.739320" lon="5.975930">
						<ele>389</ele>
						<time>2019-07-31T15:27:08Z</time>
					</trkpt>
					<trkpt lat="43.739550" lon="5.975800">
						<ele>385</ele>
						<time>2019-07-31T15:27:12Z</time>
					</trkpt>
					<trkpt lat="43.739620" lon="5.975710">
						<ele>384</ele>
						<time>2019-07-31T15:27:14Z</time>
					</trkpt>
					<trkpt lat="43.739710" lon="5.975490">
						<ele>383</ele>
						<time>2019-07-31T15:27:17Z</time>
					</trkpt>
					<trkpt lat="43.739880" lon="5.974770">
						<ele>385</ele>
						<time>2019-07-31T15:27:27Z</time>
					</trkpt>
					<trkpt lat="43.739880" lon="5.974650">
						<ele>386</ele>
						<time>2019-07-31T15:27:29Z</time>
					</trkpt>
					<trkpt lat="43.739830" lon="5.974500">
						<ele>387</ele>
						<time>2019-07-31T15:27:31Z</time>
					</trkpt>
					<trkpt lat="43.739730" lon="5.974400">
						<ele>387</ele>
						<time>2019-07-31T15:27:33Z</time>
					</trkpt>
					<trkpt lat="43.739650" lon="5.974360">
						<ele>387</ele>
						<time>2019-07-31T15:27:34Z</time>
					</trkpt>
					<trkpt lat="43.739560" lon="5.974370">
						<ele>387</ele>
						<time>2019-07-31T15:27:36Z</time>
					</trkpt>
					<trkpt lat="43.739430" lon="5.974520">
						<ele>385</ele>
						<time>2019-07-31T15:27:39Z</time>
					</trkpt>
					<trkpt lat="43.739350" lon="5.974560">
						<ele>384</ele>
						<time>2019-07-31T15:27:41Z</time>
					</trkpt>
					<trkpt lat="43.739270" lon="5.974550">
						<ele>384</ele>
						<time>2019-07-31T15:27:42Z</time>
					</trkpt>
					<trkpt lat="43.738760" lon="5.974080">
						<ele>379</ele>
						<time>2019-07-31T15:27:53Z</time>
					</trkpt>
					<trkpt lat="43.738750" lon="5.973790">
						<ele>379</ele>
						<time>2019-07-31T15:27:57Z</time>
					</trkpt>
					<trkpt lat="43.738800" lon="5.973650">
						<ele>380</ele>
						<time>2019-07-31T15:27:59Z</time>
					</trkpt>
					<trkpt lat="43.738940" lon="5.973560">
						<ele>383</ele>
						<time>2019-07-31T15:28:01Z</time>
					</trkpt>
					<trkpt lat="43.738990" lon="5.973730">
						<ele>384</ele>
						<time>2019-07-31T15:28:04Z</time>
					</trkpt>
					<trkpt lat="43.739010" lon="5.973910">
						<ele>383</ele>
						<time>2019-07-31T15:28:06Z</time>
					</trkpt>
					<trkpt lat="43.739110" lon="5.973950">
						<ele>385</ele>
						<time>2019-07-31T15:28:08Z</time>
					</trkpt>
					<trkpt lat="43.739360" lon="5.973900">
						<ele>388</ele>
						<time>2019-07-31T15:28:12Z</time>
					</trkpt>
					<trkpt lat="43.739570" lon="5.973570">
						<ele>393</ele>
						<time>2019-07-31T15:28:18Z</time>
					</trkpt>
					<trkpt lat="43.739770" lon="5.973740">
						<ele>394</ele>
						<time>2019-07-31T15:28:22Z</time>
					</trkpt>
					<trkpt lat="43.740570" lon="5.973840">
						<ele>404</ele>
						<time>2019-07-31T15:28:37Z</time>
					</trkpt>
					<trkpt lat="43.740680" lon="5.973890">
						<ele>406</ele>
						<time>2019-07-31T15:28:39Z</time>
					</trkpt>
					<trkpt lat="43.741100" lon="5.973870">
						<ele>412</ele>
						<time>2019-07-31T15:28:46Z</time>
					</trkpt>
					<trkpt lat="43.741140" lon="5.973800">
						<ele>413</ele>
						<time>2019-07-31T15:28:47Z</time>
					</trkpt>
					<trkpt lat="43.741400" lon="5.973660">
						<ele>417</ele>
						<time>2019-07-31T15:28:52Z</time>
					</trkpt>
					<trkpt lat="43.741760" lon="5.973730">
						<ele>422</ele>
						<time>2019-07-31T15:28:59Z</time>
					</trkpt>
					<trkpt lat="43.742320" lon="5.973730">
						<ele>425</ele>
						<time>2019-07-31T15:29:09Z</time>
					</trkpt>
					<trkpt lat="43.742610" lon="5.973670">
						<ele>427</ele>
						<time>2019-07-31T15:29:14Z</time>
					</trkpt>
					<trkpt lat="43.742790" lon="5.973500">
						<ele>429</ele>
						<time>2019-07-31T15:29:18Z</time>
					</trkpt>
					<trkpt lat="43.743500" lon="5.972650">
						<ele>437</ele>
						<time>2019-07-31T15:29:34Z</time>
					</trkpt>
					<trkpt lat="43.743660" lon="5.972540">
						<ele>438</ele>
						<time>2019-07-31T15:29:38Z</time>
					</trkpt>
					<trkpt lat="43.743700" lon="5.972620">
						<ele>439</ele>
						<time>2019-07-31T15:29:39Z</time>
					</trkpt>
					<trkpt lat="43.743330" lon="5.973210">
						<ele>436</ele>
						<time>2019-07-31T15:29:49Z</time>
					</trkpt>
					<trkpt lat="43.743300" lon="5.973300">
						<ele>436</ele>
						<time>2019-07-31T15:29:50Z</time>
					</trkpt>
					<trkpt lat="43.743310" lon="5.973350">
						<ele>436</ele>
						<time>2019-07-31T15:29:51Z</time>
					</trkpt>
					<trkpt lat="43.743380" lon="5.973370">
						<ele>437</ele>
						<time>2019-07-31T15:29:52Z</time>
					</trkpt>
					<trkpt lat="43.743720" lon="5.972970">
						<ele>442</ele>
						<time>2019-07-31T15:30:00Z</time>
					</trkpt>
					<trkpt lat="43.744160" lon="5.972770">
						<ele>446</ele>
						<time>2019-07-31T15:30:08Z</time>
					</trkpt>
					<trkpt lat="43.744740" lon="5.972340">
						<ele>450</ele>
						<time>2019-07-31T15:30:20Z</time>
					</trkpt>
					<trkpt lat="43.744910" lon="5.972320">
						<ele>451</ele>
						<time>2019-07-31T15:30:23Z</time>
					</trkpt>
					<trkpt lat="43.745300" lon="5.972480">
						<ele>455</ele>
						<time>2019-07-31T15:30:30Z</time>
					</trkpt>
					<trkpt lat="43.745510" lon="5.972460">
						<ele>457</ele>
						<time>2019-07-31T15:30:34Z</time>
					</trkpt>
					<trkpt lat="43.745600" lon="5.972340">
						<ele>458</ele>
						<time>2019-07-31T15:30:36Z</time>
					</trkpt>
					<trkpt lat="43.745580" lon="5.972120">
						<ele>458</ele>
						<time>2019-07-31T15:30:39Z</time>
					</trkpt>
					<trkpt lat="43.745260" lon="5.971460">
						<ele>456</ele>
						<time>2019-07-31T15:30:49Z</time>
					</trkpt>
					<trkpt lat="43.745250" lon="5.971360">
						<ele>456</ele>
						<time>2019-07-31T15:30:51Z</time>
					</trkpt>
					<trkpt lat="43.745290" lon="5.971330">
						<ele>457</ele>
						<time>2019-07-31T15:30:51Z</time>
					</trkpt>
					<trkpt lat="43.745510" lon="5.971290">
						<ele>458</ele>
						<time>2019-07-31T15:30:55Z</time>
					</trkpt>
					<trkpt lat="43.745970" lon="5.971280">
						<ele>459</ele>
						<time>2019-07-31T15:31:04Z</time>
					</trkpt>
					<trkpt lat="43.746300" lon="5.971340">
						<ele>456</ele>
						<time>2019-07-31T15:31:09Z</time>
					</trkpt>
					<trkpt lat="43.746580" lon="5.971520">
						<ele>456</ele>
						<time>2019-07-31T15:31:15Z</time>
					</trkpt>
					<trkpt lat="43.746830" lon="5.971820">
						<ele>457</ele>
						<time>2019-07-31T15:31:21Z</time>
					</trkpt>
					<trkpt lat="43.746870" lon="5.971830">
						<ele>457</ele>
						<time>2019-07-31T15:31:22Z</time>
					</trkpt>
					<trkpt lat="43.746930" lon="5.971790">
						<ele>456</ele>
						<time>2019-07-31T15:31:23Z</time>
					</trkpt>
					<trkpt lat="43.746940" lon="5.971740">
						<ele>456</ele>
						<time>2019-07-31T15:31:23Z</time>
					</trkpt>
					<trkpt lat="43.746730" lon="5.971310">
						<ele>453</ele>
						<time>2019-07-31T15:31:30Z</time>
					</trkpt>
					<trkpt lat="43.746660" lon="5.970990">
						<ele>452</ele>
						<time>2019-07-31T15:31:34Z</time>
					</trkpt>
					<trkpt lat="43.746530" lon="5.970710">
						<ele>452</ele>
						<time>2019-07-31T15:31:39Z</time>
					</trkpt>
					<trkpt lat="43.746530" lon="5.970550">
						<ele>452</ele>
						<time>2019-07-31T15:31:41Z</time>
					</trkpt>
					<trkpt lat="43.746850" lon="5.970200">
						<ele>447</ele>
						<time>2019-07-31T15:31:48Z</time>
					</trkpt>
					<trkpt lat="43.747320" lon="5.969850">
						<ele>440</ele>
						<time>2019-07-31T15:31:57Z</time>
					</trkpt>
					<trkpt lat="43.747370" lon="5.969690">
						<ele>440</ele>
						<time>2019-07-31T15:32:00Z</time>
					</trkpt>
					<trkpt lat="43.747270" lon="5.969430">
						<ele>443</ele>
						<time>2019-07-31T15:32:04Z</time>
					</trkpt>
					<trkpt lat="43.747280" lon="5.969310">
						<ele>443</ele>
						<time>2019-07-31T15:32:05Z</time>
					</trkpt>
					<trkpt lat="43.747510" lon="5.969190">
						<ele>441</ele>
						<time>2019-07-31T15:32:09Z</time>
					</trkpt>
					<trkpt lat="43.747660" lon="5.969180">
						<ele>440</ele>
						<time>2019-07-31T15:32:12Z</time>
					</trkpt>
					<trkpt lat="43.748250" lon="5.969590">
						<ele>433</ele>
						<time>2019-07-31T15:32:24Z</time>
					</trkpt>
					<trkpt lat="43.748430" lon="5.969610">
						<ele>431</ele>
						<time>2019-07-31T15:32:27Z</time>
					</trkpt>
					<trkpt lat="43.749310" lon="5.969380">
						<ele>423</ele>
						<time>2019-07-31T15:32:43Z</time>
					</trkpt>
					<trkpt lat="43.749470" lon="5.969290">
						<ele>420</ele>
						<time>2019-07-31T15:32:46Z</time>
					</trkpt>
					<trkpt lat="43.749570" lon="5.969150">
						<ele>418</ele>
						<time>2019-07-31T15:32:49Z</time>
					</trkpt>
					<trkpt lat="43.749610" lon="5.968970">
						<ele>418</ele>
						<time>2019-07-31T15:32:51Z</time>
					</trkpt>
					<trkpt lat="43.749460" lon="5.968520">
						<ele>424</ele>
						<time>2019-07-31T15:32:57Z</time>
					</trkpt>
					<trkpt lat="43.749480" lon="5.968430">
						<ele>424</ele>
						<time>2019-07-31T15:32:59Z</time>
					</trkpt>
					<trkpt lat="43.749540" lon="5.968330">
						<ele>422</ele>
						<time>2019-07-31T15:33:00Z</time>
					</trkpt>
					<trkpt lat="43.749670" lon="5.968230">
						<ele>419</ele>
						<time>2019-07-31T15:33:03Z</time>
					</trkpt>
					<trkpt lat="43.749730" lon="5.968240">
						<ele>418</ele>
						<time>2019-07-31T15:33:04Z</time>
					</trkpt>
					<trkpt lat="43.749750" lon="5.968310">
						<ele>416</ele>
						<time>2019-07-31T15:33:05Z</time>
					</trkpt>
					<trkpt lat="43.749710" lon="5.968610">
						<ele>417</ele>
						<time>2019-07-31T15:33:09Z</time>
					</trkpt>
					<trkpt lat="43.749810" lon="5.969000">
						<ele>413</ele>
						<time>2019-07-31T15:33:14Z</time>
					</trkpt>
					<trkpt lat="43.749820" lon="5.969730">
						<ele>411</ele>
						<time>2019-07-31T15:33:24Z</time>
					</trkpt>
					<trkpt lat="43.750220" lon="5.971580">
						<ele>411</ele>
						<time>2019-07-31T15:33:48Z</time>
					</trkpt>
					<trkpt lat="43.750340" lon="5.971760">
						<ele>410</ele>
						<time>2019-07-31T15:33:52Z</time>
					</trkpt>
					<trkpt lat="43.750480" lon="5.971830">
						<ele>409</ele>
						<time>2019-07-31T15:33:54Z</time>
					</trkpt>
					<trkpt lat="43.751040" lon="5.971760">
						<ele>406</ele>
						<time>2019-07-31T15:34:04Z</time>
					</trkpt>
					<trkpt lat="43.751210" lon="5.971680">
						<ele>407</ele>
						<time>2019-07-31T15:34:07Z</time>
					</trkpt>
					<trkpt lat="43.751330" lon="5.971570">
						<ele>408</ele>
						<time>2019-07-31T15:34:10Z</time>
					</trkpt>
					<trkpt lat="43.751920" lon="5.970700">
						<ele>412</ele>
						<time>2019-07-31T15:34:25Z</time>
					</trkpt>
					<trkpt lat="43.752040" lon="5.970620">
						<ele>414</ele>
						<time>2019-07-31T15:34:28Z</time>
					</trkpt>
					<trkpt lat="43.753040" lon="5.970450">
						<ele>424</ele>
						<time>2019-07-31T15:34:46Z</time>
					</trkpt>
					<trkpt lat="43.753360" lon="5.970370">
						<ele>426</ele>
						<time>2019-07-31T15:34:51Z</time>
					</trkpt>
					<trkpt lat="43.753470" lon="5.970300">
						<ele>426</ele>
						<time>2019-07-31T15:34:54Z</time>
					</trkpt>
					<trkpt lat="43.753540" lon="5.970140">
						<ele>425</ele>
						<time>2019-07-31T15:34:56Z</time>
					</trkpt>
					<trkpt lat="43.753560" lon="5.969990">
						<ele>424</ele>
						<time>2019-07-31T15:34:58Z</time>
					</trkpt>
					<trkpt lat="43.753550" lon="5.969860">
						<ele>425</ele>
						<time>2019-07-31T15:35:00Z</time>
					</trkpt>
					<trkpt lat="43.753500" lon="5.969690">
						<ele>426</ele>
						<time>2019-07-31T15:35:02Z</time>
					</trkpt>
					<trkpt lat="43.753370" lon="5.969540">
						<ele>427</ele>
						<time>2019-07-31T15:35:05Z</time>
					</trkpt>
					<trkpt lat="43.752850" lon="5.969290">
						<ele>422</ele>
						<time>2019-07-31T15:35:15Z</time>
					</trkpt>
					<trkpt lat="43.752760" lon="5.969130">
						<ele>421</ele>
						<time>2019-07-31T15:35:17Z</time>
					</trkpt>
					<trkpt lat="43.752730" lon="5.968830">
						<ele>419</ele>
						<time>2019-07-31T15:35:21Z</time>
					</trkpt>
					<trkpt lat="43.752900" lon="5.968410">
						<ele>421</ele>
						<time>2019-07-31T15:35:27Z</time>
					</trkpt>
					<trkpt lat="43.753030" lon="5.968230">
						<ele>424</ele>
						<time>2019-07-31T15:35:31Z</time>
					</trkpt>
					<trkpt lat="43.753760" lon="5.967760">
						<ele>437</ele>
						<time>2019-07-31T15:35:45Z</time>
					</trkpt>
					<trkpt lat="43.754280" lon="5.967230">
						<ele>448</ele>
						<time>2019-07-31T15:35:57Z</time>
					</trkpt>
					<trkpt lat="43.754340" lon="5.967090">
						<ele>450</ele>
						<time>2019-07-31T15:35:59Z</time>
					</trkpt>
					<trkpt lat="43.754320" lon="5.966950">
						<ele>450</ele>
						<time>2019-07-31T15:36:00Z</time>
					</trkpt>
					<trkpt lat="43.754230" lon="5.966800">
						<ele>450</ele>
						<time>2019-07-31T15:36:03Z</time>
					</trkpt>
					<trkpt lat="43.754110" lon="5.966680">
						<ele>449</ele>
						<time>2019-07-31T15:36:06Z</time>
					</trkpt>
					<trkpt lat="43.753810" lon="5.966530">
						<ele>441</ele>
						<time>2019-07-31T15:36:11Z</time>
					</trkpt>
					<trkpt lat="43.753710" lon="5.966360">
						<ele>438</ele>
						<time>2019-07-31T15:36:14Z</time>
					</trkpt>
					<trkpt lat="43.753740" lon="5.966160">
						<ele>437</ele>
						<time>2019-07-31T15:36:17Z</time>
					</trkpt>
					<trkpt lat="43.753900" lon="5.966070">
						<ele>440</ele>
						<time>2019-07-31T15:36:20Z</time>
					</trkpt>
					<trkpt lat="43.754100" lon="5.966110">
						<ele>445</ele>
						<time>2019-07-31T15:36:23Z</time>
					</trkpt>
					<trkpt lat="43.754570" lon="5.966520">
						<ele>453</ele>
						<time>2019-07-31T15:36:33Z</time>
					</trkpt>
					<trkpt lat="43.755180" lon="5.966940">
						<ele>458</ele>
						<time>2019-07-31T15:36:45Z</time>
					</trkpt>
					<trkpt lat="43.755350" lon="5.967030">
						<ele>458</ele>
						<time>2019-07-31T15:36:49Z</time>
					</trkpt>
					<trkpt lat="43.755620" lon="5.966910">
						<ele>460</ele>
						<time>2019-07-31T15:36:54Z</time>
					</trkpt>
					<trkpt lat="43.755990" lon="5.966520">
						<ele>464</ele>
						<time>2019-07-31T15:37:02Z</time>
					</trkpt>
					<trkpt lat="43.756140" lon="5.966440">
						<ele>464</ele>
						<time>2019-07-31T15:37:05Z</time>
					</trkpt>
					<trkpt lat="43.756320" lon="5.966460">
						<ele>464</ele>
						<time>2019-07-31T15:37:08Z</time>
					</trkpt>
					<trkpt lat="43.757490" lon="5.966850">
						<ele>467</ele>
						<time>2019-07-31T15:37:29Z</time>
					</trkpt>
					<trkpt lat="43.758420" lon="5.967260">
						<ele>470</ele>
						<time>2019-07-31T15:37:47Z</time>
					</trkpt>
					<trkpt lat="43.758550" lon="5.967270">
						<ele>470</ele>
						<time>2019-07-31T15:37:49Z</time>
					</trkpt>
					<trkpt lat="43.758730" lon="5.967170">
						<ele>469</ele>
						<time>2019-07-31T15:37:53Z</time>
					</trkpt>
					<trkpt lat="43.758880" lon="5.967020">
						<ele>468</ele>
						<time>2019-07-31T15:37:56Z</time>
					</trkpt>
					<trkpt lat="43.759370" lon="5.966310">
						<ele>464</ele>
						<time>2019-07-31T15:38:08Z</time>
					</trkpt>
					<trkpt lat="43.759770" lon="5.965660">
						<ele>462</ele>
						<time>2019-07-31T15:38:19Z</time>
					</trkpt>
					<trkpt lat="43.759900" lon="5.965500">
						<ele>461</ele>
						<time>2019-07-31T15:38:23Z</time>
					</trkpt>
					<trkpt lat="43.760130" lon="5.965360">
						<ele>459</ele>
						<time>2019-07-31T15:38:27Z</time>
					</trkpt>
					<trkpt lat="43.760750" lon="5.965280">
						<ele>454</ele>
						<time>2019-07-31T15:38:38Z</time>
					</trkpt>
					<trkpt lat="43.760910" lon="5.965320">
						<ele>453</ele>
						<time>2019-07-31T15:38:41Z</time>
					</trkpt>
					<trkpt lat="43.760990" lon="5.965460">
						<ele>452</ele>
						<time>2019-07-31T15:38:43Z</time>
					</trkpt>
					<trkpt lat="43.761280" lon="5.966330">
						<ele>452</ele>
						<time>2019-07-31T15:38:56Z</time>
					</trkpt>
					<trkpt lat="43.761460" lon="5.966580">
						<ele>451</ele>
						<time>2019-07-31T15:39:00Z</time>
					</trkpt>
					<trkpt lat="43.761680" lon="5.966790">
						<ele>450</ele>
						<time>2019-07-31T15:39:05Z</time>
					</trkpt>
					<trkpt lat="43.761840" lon="5.966880">
						<ele>450</ele>
						<time>2019-07-31T15:39:08Z</time>
					</trkpt>
					<trkpt lat="43.761960" lon="5.966810">
						<ele>450</ele>
						<time>2019-07-31T15:39:10Z</time>
					</trkpt>
					<trkpt lat="43.762090" lon="5.966610">
						<ele>450</ele>
						<time>2019-07-31T15:39:14Z</time>
					</trkpt>
					<trkpt lat="43.762120" lon="5.966330">
						<ele>450</ele>
						<time>2019-07-31T15:39:17Z</time>
					</trkpt>
					<trkpt lat="43.762090" lon="5.965810">
						<ele>448</ele>
						<time>2019-07-31T15:39:24Z</time>
					</trkpt>
					<trkpt lat="43.762110" lon="5.965450">
						<ele>447</ele>
						<time>2019-07-31T15:39:29Z</time>
					</trkpt>
					<trkpt lat="43.762310" lon="5.964720">
						<ele>445</ele>
						<time>2019-07-31T15:39:39Z</time>
					</trkpt>
					<trkpt lat="43.762640" lon="5.963850">
						<ele>445</ele>
						<time>2019-07-31T15:39:51Z</time>
					</trkpt>
					<trkpt lat="43.762690" lon="5.963650">
						<ele>445</ele>
						<time>2019-07-31T15:39:54Z</time>
					</trkpt>
					<trkpt lat="43.762750" lon="5.963030">
						<ele>444</ele>
						<time>2019-07-31T15:40:02Z</time>
					</trkpt>
					<trkpt lat="43.762720" lon="5.962600">
						<ele>444</ele>
						<time>2019-07-31T15:40:08Z</time>
					</trkpt>
					<trkpt lat="43.762660" lon="5.962180">
						<ele>443</ele>
						<time>2019-07-31T15:40:13Z</time>
					</trkpt>
					<trkpt lat="43.762210" lon="5.960090">
						<ele>438</ele>
						<time>2019-07-31T15:40:41Z</time>
					</trkpt>
					<trkpt lat="43.762100" lon="5.959670">
						<ele>436</ele>
						<time>2019-07-31T15:40:47Z</time>
					</trkpt>
					<trkpt lat="43.761970" lon="5.959260">
						<ele>433</ele>
						<time>2019-07-31T15:40:53Z</time>
					</trkpt>
					<trkpt lat="43.761170" lon="5.957240">
						<ele>427</ele>
						<time>2019-07-31T15:41:22Z</time>
					</trkpt>
					<trkpt lat="43.761030" lon="5.956830">
						<ele>425</ele>
						<time>2019-07-31T15:41:28Z</time>
					</trkpt>
					<trkpt lat="43.760940" lon="5.956390">
						<ele>422</ele>
						<time>2019-07-31T15:41:34Z</time>
					</trkpt>
					<trkpt lat="43.760890" lon="5.955290">
						<ele>422</ele>
						<time>2019-07-31T15:41:48Z</time>
					</trkpt>
					<trkpt lat="43.760810" lon="5.954900">
						<ele>421</ele>
						<time>2019-07-31T15:41:53Z</time>
					</trkpt>
					<trkpt lat="43.760100" lon="5.953450">
						<ele>415</ele>
						<time>2019-07-31T15:42:16Z</time>
					</trkpt>
					<trkpt lat="43.759740" lon="5.951930">
						<ele>413</ele>
						<time>2019-07-31T15:42:36Z</time>
					</trkpt>
					<trkpt lat="43.759550" lon="5.951340">
						<ele>410</ele>
						<time>2019-07-31T15:42:45Z</time>
					</trkpt>
					<trkpt lat="43.758800" lon="5.949870">
						<ele>405</ele>
						<time>2019-07-31T15:43:08Z</time>
					</trkpt>
					<trkpt lat="43.758690" lon="5.949560">
						<ele>405</ele>
						<time>2019-07-31T15:43:12Z</time>
					</trkpt>
					<trkpt lat="43.758570" lon="5.949020">
						<ele>407</ele>
						<time>2019-07-31T15:43:20Z</time>
					</trkpt>
					<trkpt lat="43.758460" lon="5.948810">
						<ele>408</ele>
						<time>2019-07-31T15:43:23Z</time>
					</trkpt>
					<trkpt lat="43.758380" lon="5.948740">
						<ele>407</ele>
						<time>2019-07-31T15:43:25Z</time>
					</trkpt>
					<trkpt lat="43.758130" lon="5.948600">
						<ele>405</ele>
						<time>2019-07-31T15:43:29Z</time>
					</trkpt>
					<trkpt lat="43.758030" lon="5.948500">
						<ele>405</ele>
						<time>2019-07-31T15:43:32Z</time>
					</trkpt>
					<trkpt lat="43.757960" lon="5.948380">
						<ele>404</ele>
						<time>2019-07-31T15:43:34Z</time>
					</trkpt>
					<trkpt lat="43.757610" lon="5.947000">
						<ele>408</ele>
						<time>2019-07-31T15:43:52Z</time>
					</trkpt>
					<trkpt lat="43.757630" lon="5.946690">
						<ele>412</ele>
						<time>2019-07-31T15:43:56Z</time>
					</trkpt>
					<trkpt lat="43.757770" lon="5.946360">
						<ele>419</ele>
						<time>2019-07-31T15:44:01Z</time>
					</trkpt>
					<trkpt lat="43.757790" lon="5.946250">
						<ele>420</ele>
						<time>2019-07-31T15:44:03Z</time>
					</trkpt>
					<trkpt lat="43.757770" lon="5.946090">
						<ele>421</ele>
						<time>2019-07-31T15:44:05Z</time>
					</trkpt>
					<trkpt lat="43.757730" lon="5.946000">
						<ele>421</ele>
						<time>2019-07-31T15:44:06Z</time>
					</trkpt>
					<trkpt lat="43.757650" lon="5.945910">
						<ele>421</ele>
						<time>2019-07-31T15:44:08Z</time>
					</trkpt>
					<trkpt lat="43.757350" lon="5.945720">
						<ele>415</ele>
						<time>2019-07-31T15:44:14Z</time>
					</trkpt>
					<trkpt lat="43.757260" lon="5.945630">
						<ele>413</ele>
						<time>2019-07-31T15:44:16Z</time>
					</trkpt>
					<trkpt lat="43.757130" lon="5.945250">
						<ele>413</ele>
						<time>2019-07-31T15:44:21Z</time>
					</trkpt>
					<trkpt lat="43.757090" lon="5.944930">
						<ele>415</ele>
						<time>2019-07-31T15:44:25Z</time>
					</trkpt>
					<trkpt lat="43.757110" lon="5.944760">
						<ele>417</ele>
						<time>2019-07-31T15:44:28Z</time>
					</trkpt>
					<trkpt lat="43.757370" lon="5.944280">
						<ele>428</ele>
						<time>2019-07-31T15:44:35Z</time>
					</trkpt>
					<trkpt lat="43.757400" lon="5.944060">
						<ele>431</ele>
						<time>2019-07-31T15:44:38Z</time>
					</trkpt>
					<trkpt lat="43.757370" lon="5.943940">
						<ele>433</ele>
						<time>2019-07-31T15:44:40Z</time>
					</trkpt>
					<trkpt lat="43.757250" lon="5.943780">
						<ele>433</ele>
						<time>2019-07-31T15:44:43Z</time>
					</trkpt>
					<trkpt lat="43.757150" lon="5.943710">
						<ele>433</ele>
						<time>2019-07-31T15:44:45Z</time>
					</trkpt>
					<trkpt lat="43.756730" lon="5.943580">
						<ele>429</ele>
						<time>2019-07-31T15:44:52Z</time>
					</trkpt>
					<trkpt lat="43.756650" lon="5.943530">
						<ele>429</ele>
						<time>2019-07-31T15:44:54Z</time>
					</trkpt>
					<trkpt lat="43.756580" lon="5.943440">
						<ele>429</ele>
						<time>2019-07-31T15:44:56Z</time>
					</trkpt>
					<trkpt lat="43.756390" lon="5.942830">
						<ele>434</ele>
						<time>2019-07-31T15:45:04Z</time>
					</trkpt>
					<trkpt lat="43.755830" lon="5.941430">
						<ele>439</ele>
						<time>2019-07-31T15:45:25Z</time>
					</trkpt>
					<trkpt lat="43.755710" lon="5.941210">
						<ele>442</ele>
						<time>2019-07-31T15:45:28Z</time>
					</trkpt>
					<trkpt lat="43.755520" lon="5.941050">
						<ele>445</ele>
						<time>2019-07-31T15:45:32Z</time>
					</trkpt>
					<trkpt lat="43.755290" lon="5.940960">
						<ele>446</ele>
						<time>2019-07-31T15:45:37Z</time>
					</trkpt>
					<trkpt lat="43.755140" lon="5.940960">
						<ele>446</ele>
						<time>2019-07-31T15:45:39Z</time>
					</trkpt>
					<trkpt lat="43.754760" lon="5.941110">
						<ele>438</ele>
						<time>2019-07-31T15:45:46Z</time>
					</trkpt>
					<trkpt lat="43.754560" lon="5.941060">
						<ele>436</ele>
						<time>2019-07-31T15:45:50Z</time>
					</trkpt>
					<trkpt lat="43.754470" lon="5.940960">
						<ele>437</ele>
						<time>2019-07-31T15:45:52Z</time>
					</trkpt>
					<trkpt lat="43.754280" lon="5.940490">
						<ele>442</ele>
						<time>2019-07-31T15:45:59Z</time>
					</trkpt>
					<trkpt lat="43.754070" lon="5.940110">
						<ele>444</ele>
						<time>2019-07-31T15:46:05Z</time>
					</trkpt>
					<trkpt lat="43.754010" lon="5.940040">
						<ele>444</ele>
						<time>2019-07-31T15:46:06Z</time>
					</trkpt>
					<trkpt lat="43.753770" lon="5.939890">
						<ele>441</ele>
						<time>2019-07-31T15:46:11Z</time>
					</trkpt>
					<trkpt lat="43.753510" lon="5.939680">
						<ele>438</ele>
						<time>2019-07-31T15:46:16Z</time>
					</trkpt>
					<trkpt lat="43.753450" lon="5.939600">
						<ele>437</ele>
						<time>2019-07-31T15:46:18Z</time>
					</trkpt>
					<trkpt lat="43.753370" lon="5.939380">
						<ele>438</ele>
						<time>2019-07-31T15:46:21Z</time>
					</trkpt>
					<trkpt lat="43.753330" lon="5.939110">
						<ele>438</ele>
						<time>2019-07-31T15:46:25Z</time>
					</trkpt>
					<trkpt lat="43.753380" lon="5.938820">
						<ele>436</ele>
						<time>2019-07-31T15:46:29Z</time>
					</trkpt>
					<trkpt lat="43.753510" lon="5.938580">
						<ele>436</ele>
						<time>2019-07-31T15:46:32Z</time>
					</trkpt>
					<trkpt lat="43.753600" lon="5.938500">
						<ele>437</ele>
						<time>2019-07-31T15:46:34Z</time>
					</trkpt>
					<trkpt lat="43.753840" lon="5.938360">
						<ele>440</ele>
						<time>2019-07-31T15:46:39Z</time>
					</trkpt>
					<trkpt lat="43.754510" lon="5.938250">
						<ele>447</ele>
						<time>2019-07-31T15:46:51Z</time>
					</trkpt>
					<trkpt lat="43.754770" lon="5.938150">
						<ele>448</ele>
						<time>2019-07-31T15:46:56Z</time>
					</trkpt>
					<trkpt lat="43.754840" lon="5.938070">
						<ele>448</ele>
						<time>2019-07-31T15:46:57Z</time>
					</trkpt>
					<trkpt lat="43.754950" lon="5.937840">
						<ele>447</ele>
						<time>2019-07-31T15:47:01Z</time>
					</trkpt>
					<trkpt lat="43.755010" lon="5.937540">
						<ele>445</ele>
						<time>2019-07-31T15:47:05Z</time>
					</trkpt>
					<trkpt lat="43.755090" lon="5.937050">
						<ele>446</ele>
						<time>2019-07-31T15:47:11Z</time>
					</trkpt>
					<trkpt lat="43.755070" lon="5.936850">
						<ele>445</ele>
						<time>2019-07-31T15:47:14Z</time>
					</trkpt>
					<trkpt lat="43.755030" lon="5.936720">
						<ele>445</ele>
						<time>2019-07-31T15:47:16Z</time>
					</trkpt>
					<trkpt lat="43.754830" lon="5.936410">
						<ele>441</ele>
						<time>2019-07-31T15:47:21Z</time>
					</trkpt>
					<trkpt lat="43.754480" lon="5.936000">
						<ele>435</ele>
						<time>2019-07-31T15:47:29Z</time>
					</trkpt>
					<trkpt lat="43.754260" lon="5.935620">
						<ele>433</ele>
						<time>2019-07-31T15:47:35Z</time>
					</trkpt>
					<trkpt lat="43.754220" lon="5.935370">
						<ele>433</ele>
						<time>2019-07-31T15:47:39Z</time>
					</trkpt>
					<trkpt lat="43.754270" lon="5.934300">
						<ele>431</ele>
						<time>2019-07-31T15:47:53Z</time>
					</trkpt>
					<trkpt lat="43.754310" lon="5.934170">
						<ele>431</ele>
						<time>2019-07-31T15:47:54Z</time>
					</trkpt>
					<trkpt lat="43.754560" lon="5.933800">
						<ele>437</ele>
						<time>2019-07-31T15:48:01Z</time>
					</trkpt>
					<trkpt lat="43.754600" lon="5.933690">
						<ele>438</ele>
						<time>2019-07-31T15:48:02Z</time>
					</trkpt>
					<trkpt lat="43.754590" lon="5.933340">
						<ele>437</ele>
						<time>2019-07-31T15:48:07Z</time>
					</trkpt>
					<trkpt lat="43.754500" lon="5.933180">
						<ele>436</ele>
						<time>2019-07-31T15:48:10Z</time>
					</trkpt>
					<trkpt lat="43.754420" lon="5.933130">
						<ele>435</ele>
						<time>2019-07-31T15:48:11Z</time>
					</trkpt>
					<trkpt lat="43.754180" lon="5.933090">
						<ele>430</ele>
						<time>2019-07-31T15:48:15Z</time>
					</trkpt>
					<trkpt lat="43.753970" lon="5.933020">
						<ele>424</ele>
						<time>2019-07-31T15:48:19Z</time>
					</trkpt>
					<trkpt lat="43.753230" lon="5.932450">
						<ele>410</ele>
						<time>2019-07-31T15:48:34Z</time>
					</trkpt>
					<trkpt lat="43.753140" lon="5.932220">
						<ele>409</ele>
						<time>2019-07-31T15:48:38Z</time>
					</trkpt>
					<trkpt lat="43.753080" lon="5.931830">
						<ele>410</ele>
						<time>2019-07-31T15:48:43Z</time>
					</trkpt>
					<trkpt lat="43.752980" lon="5.931550">
						<ele>409</ele>
						<time>2019-07-31T15:48:47Z</time>
					</trkpt>
					<trkpt lat="43.752900" lon="5.931430">
						<ele>408</ele>
						<time>2019-07-31T15:48:49Z</time>
					</trkpt>
					<trkpt lat="43.752640" lon="5.931190">
						<ele>404</ele>
						<time>2019-07-31T15:48:55Z</time>
					</trkpt>
					<trkpt lat="43.752360" lon="5.931040">
						<ele>398</ele>
						<time>2019-07-31T15:49:00Z</time>
					</trkpt>
					<trkpt lat="43.752170" lon="5.930840">
						<ele>396</ele>
						<time>2019-07-31T15:49:04Z</time>
					</trkpt>
					<trkpt lat="43.752070" lon="5.930420">
						<ele>399</ele>
						<time>2019-07-31T15:49:10Z</time>
					</trkpt>
					<trkpt lat="43.752000" lon="5.930330">
						<ele>398</ele>
						<time>2019-07-31T15:49:11Z</time>
					</trkpt>
					<trkpt lat="43.751820" lon="5.930210">
						<ele>392</ele>
						<time>2019-07-31T15:49:15Z</time>
					</trkpt>
					<trkpt lat="43.751680" lon="5.930030">
						<ele>389</ele>
						<time>2019-07-31T15:49:18Z</time>
					</trkpt>
					<trkpt lat="43.751500" lon="5.929510">
						<ele>385</ele>
						<time>2019-07-31T15:49:26Z</time>
					</trkpt>
					<trkpt lat="43.751460" lon="5.929230">
						<ele>385</ele>
						<time>2019-07-31T15:49:30Z</time>
					</trkpt>
					<trkpt lat="43.751500" lon="5.928690">
						<ele>380</ele>
						<time>2019-07-31T15:49:36Z</time>
					</trkpt>
					<trkpt lat="43.751670" lon="5.928150">
						<ele>375</ele>
						<time>2019-07-31T15:49:44Z</time>
					</trkpt>
					<trkpt lat="43.751820" lon="5.927910">
						<ele>372</ele>
						<time>2019-07-31T15:49:48Z</time>
					</trkpt>
					<trkpt lat="43.752170" lon="5.927670">
						<ele>371</ele>
						<time>2019-07-31T15:49:55Z</time>
					</trkpt>
					<trkpt lat="43.752640" lon="5.927480">
						<ele>369</ele>
						<time>2019-07-31T15:50:04Z</time>
					</trkpt>
					<trkpt lat="43.752800" lon="5.927470">
						<ele>369</ele>
						<time>2019-07-31T15:50:07Z</time>
					</trkpt>
					<trkpt lat="43.753050" lon="5.927510">
						<ele>370</ele>
						<time>2019-07-31T15:50:11Z</time>
					</trkpt>
					<trkpt lat="43.753540" lon="5.927400">
						<ele>370</ele>
						<time>2019-07-31T15:50:20Z</time>
					</trkpt>
					<trkpt lat="43.753640" lon="5.927360">
						<ele>370</ele>
						<time>2019-07-31T15:50:22Z</time>
					</trkpt>
					<trkpt lat="43.754340" lon="5.926920">
						<ele>356</ele>
						<time>2019-07-31T15:50:35Z</time>
					</trkpt>
					<trkpt lat="43.754420" lon="5.926910">
						<ele>355</ele>
						<time>2019-07-31T15:50:37Z</time>
					</trkpt>
					<trkpt lat="43.754550" lon="5.926960">
						<ele>356</ele>
						<time>2019-07-31T15:50:39Z</time>
					</trkpt>
					<trkpt lat="43.754670" lon="5.927130">
						<ele>360</ele>
						<time>2019-07-31T15:50:42Z</time>
					</trkpt>
					<trkpt lat="43.754570" lon="5.928100">
						<ele>388</ele>
						<time>2019-07-31T15:50:55Z</time>
					</trkpt>
					<trkpt lat="43.754600" lon="5.928190">
						<ele>389</ele>
						<time>2019-07-31T15:50:56Z</time>
					</trkpt>
					<trkpt lat="43.754670" lon="5.928240">
						<ele>389</ele>
						<time>2019-07-31T15:50:58Z</time>
					</trkpt>
					<trkpt lat="43.754770" lon="5.928200">
						<ele>387</ele>
						<time>2019-07-31T15:51:00Z</time>
					</trkpt>
					<trkpt lat="43.755200" lon="5.927740">
						<ele>370</ele>
						<time>2019-07-31T15:51:09Z</time>
					</trkpt>
					<trkpt lat="43.755280" lon="5.927710">
						<ele>369</ele>
						<time>2019-07-31T15:51:11Z</time>
					</trkpt>
					<trkpt lat="43.755400" lon="5.927710">
						<ele>368</ele>
						<time>2019-07-31T15:51:13Z</time>
					</trkpt>
					<trkpt lat="43.755650" lon="5.927630">
						<ele>362</ele>
						<time>2019-07-31T15:51:17Z</time>
					</trkpt>
					<trkpt lat="43.755870" lon="5.927520">
						<ele>354</ele>
						<time>2019-07-31T15:51:22Z</time>
					</trkpt>
					<trkpt lat="43.756290" lon="5.927560">
						<ele>356</ele>
						<time>2019-07-31T15:51:29Z</time>
					</trkpt>
					<trkpt lat="43.756410" lon="5.927520">
						<ele>354</ele>
						<time>2019-07-31T15:51:31Z</time>
					</trkpt>
					<trkpt lat="43.756600" lon="5.927380">
						<ele>350</ele>
						<time>2019-07-31T15:51:35Z</time>
					</trkpt>
					<trkpt lat="43.756800" lon="5.926970">
						<ele>343</ele>
						<time>2019-07-31T15:51:41Z</time>
					</trkpt>
					<trkpt lat="43.756890" lon="5.926850">
						<ele>342</ele>
						<time>2019-07-31T15:51:44Z</time>
					</trkpt>
					<trkpt lat="43.756980" lon="5.926790">
						<ele>343</ele>
						<time>2019-07-31T15:51:45Z</time>
					</trkpt>
					<trkpt lat="43.757310" lon="5.926750">
						<ele>351</ele>
						<time>2019-07-31T15:51:51Z</time>
					</trkpt>
					<trkpt lat="43.757340" lon="5.926710">
						<ele>351</ele>
						<time>2019-07-31T15:51:52Z</time>
					</trkpt>
					<trkpt lat="43.757320" lon="5.926550">
						<ele>347</ele>
						<time>2019-07-31T15:51:54Z</time>
					</trkpt>
					<trkpt lat="43.757270" lon="5.926510">
						<ele>345</ele>
						<time>2019-07-31T15:51:55Z</time>
					</trkpt>
					<trkpt lat="43.755890" lon="5.926730">
						<ele>331</ele>
						<time>2019-07-31T15:52:20Z</time>
					</trkpt>
					<trkpt lat="43.755740" lon="5.926720">
						<ele>332</ele>
						<time>2019-07-31T15:52:23Z</time>
					</trkpt>
					<trkpt lat="43.755700" lon="5.926690">
						<ele>332</ele>
						<time>2019-07-31T15:52:23Z</time>
					</trkpt>
					<trkpt lat="43.755680" lon="5.926570">
						<ele>330</ele>
						<time>2019-07-31T15:52:25Z</time>
					</trkpt>
					<trkpt lat="43.755750" lon="5.926470">
						<ele>327</ele>
						<time>2019-07-31T15:52:27Z</time>
					</trkpt>
					<trkpt lat="43.755820" lon="5.926440">
						<ele>326</ele>
						<time>2019-07-31T15:52:28Z</time>
					</trkpt>
					<trkpt lat="43.756490" lon="5.926300">
						<ele>325</ele>
						<time>2019-07-31T15:52:40Z</time>
					</trkpt>
					<trkpt lat="43.756680" lon="5.926220">
						<ele>324</ele>
						<time>2019-07-31T15:52:44Z</time>
					</trkpt>
					<trkpt lat="43.756860" lon="5.926080">
						<ele>326</ele>
						<time>2019-07-31T15:52:47Z</time>
					</trkpt>
					<trkpt lat="43.757110" lon="5.925800">
						<ele>328</ele>
						<time>2019-07-31T15:52:53Z</time>
					</trkpt>
					<trkpt lat="43.757460" lon="5.925140">
						<ele>327</ele>
						<time>2019-07-31T15:53:04Z</time>
					</trkpt>
					<trkpt lat="43.757620" lon="5.924670">
						<ele>329</ele>
						<time>2019-07-31T15:53:10Z</time>
					</trkpt>
					<trkpt lat="43.757740" lon="5.924010">
						<ele>327</ele>
						<time>2019-07-31T15:53:19Z</time>
					</trkpt>
					<trkpt lat="43.757780" lon="5.923400">
						<ele>325</ele>
						<time>2019-07-31T15:53:27Z</time>
					</trkpt>
					<trkpt lat="43.757860" lon="5.923040">
						<ele>324</ele>
						<time>2019-07-31T15:53:32Z</time>
					</trkpt>
					<trkpt lat="43.757860" lon="5.922840">
						<ele>322</ele>
						<time>2019-07-31T15:53:34Z</time>
					</trkpt>
					<trkpt lat="43.757730" lon="5.922430">
						<ele>317</ele>
						<time>2019-07-31T15:53:40Z</time>
					</trkpt>
					<trkpt lat="43.757300" lon="5.921250">
						<ele>321</ele>
						<time>2019-07-31T15:53:57Z</time>
					</trkpt>
					<trkpt lat="43.757080" lon="5.920470">
						<ele>324</ele>
						<time>2019-07-31T15:54:08Z</time>
					</trkpt>
					<trkpt lat="43.756810" lon="5.919840">
						<ele>322</ele>
						<time>2019-07-31T15:54:17Z</time>
					</trkpt>
					<trkpt lat="43.756620" lon="5.919130">
						<ele>323</ele>
						<time>2019-07-31T15:54:27Z</time>
					</trkpt>
					<trkpt lat="43.756070" lon="5.918130">
						<ele>321</ele>
						<time>2019-07-31T15:54:43Z</time>
					</trkpt>
					<trkpt lat="43.755980" lon="5.917810">
						<ele>321</ele>
						<time>2019-07-31T15:54:47Z</time>
					</trkpt>
					<trkpt lat="43.755930" lon="5.917470">
						<ele>321</ele>
						<time>2019-07-31T15:54:52Z</time>
					</trkpt>
					<trkpt lat="43.755930" lon="5.917300">
						<ele>321</ele>
						<time>2019-07-31T15:54:54Z</time>
					</trkpt>
					<trkpt lat="43.755960" lon="5.916960">
						<ele>321</ele>
						<time>2019-07-31T15:54:58Z</time>
					</trkpt>
					<trkpt lat="43.756380" lon="5.915000">
						<ele>322</ele>
						<time>2019-07-31T15:55:25Z</time>
					</trkpt>
					<trkpt lat="43.756480" lon="5.914610">
						<ele>321</ele>
						<time>2019-07-31T15:55:30Z</time>
					</trkpt>
					<trkpt lat="43.756560" lon="5.914450">
						<ele>321</ele>
						<time>2019-07-31T15:55:33Z</time>
					</trkpt>
					<trkpt lat="43.756620" lon="5.914400">
						<ele>322</ele>
						<time>2019-07-31T15:55:34Z</time>
					</trkpt>
					<trkpt lat="43.756700" lon="5.914390">
						<ele>323</ele>
						<time>2019-07-31T15:55:35Z</time>
					</trkpt>
					<trkpt lat="43.756770" lon="5.914440">
						<ele>324</ele>
						<time>2019-07-31T15:55:37Z</time>
					</trkpt>
					<trkpt lat="43.757060" lon="5.912820">
						<ele>322</ele>
						<time>2019-07-31T15:55:58Z</time>
					</trkpt>
					<trkpt lat="43.757640" lon="5.907300">
						<ele>329</ele>
						<time>2019-07-31T15:57:10Z</time>
					</trkpt>
					<trkpt lat="43.757910" lon="5.905720">
						<ele>337</ele>
						<time>2019-07-31T15:57:31Z</time>
					</trkpt>
					<trkpt lat="43.757960" lon="5.905230">
						<ele>338</ele>
						<time>2019-07-31T15:57:37Z</time>
					</trkpt>
					<trkpt lat="43.758090" lon="5.903070">
						<ele>342</ele>
						<time>2019-07-31T15:58:05Z</time>
					</trkpt>
					<trkpt lat="43.758170" lon="5.902680">
						<ele>342</ele>
						<time>2019-07-31T15:58:10Z</time>
					</trkpt>
					<trkpt lat="43.758370" lon="5.901940">
						<ele>343</ele>
						<time>2019-07-31T15:58:20Z</time>
					</trkpt>
					<trkpt lat="43.758420" lon="5.901470">
						<ele>343</ele>
						<time>2019-07-31T15:58:26Z</time>
					</trkpt>
					<trkpt lat="43.758160" lon="5.898930">
						<ele>340</ele>
						<time>2019-07-31T15:58:59Z</time>
					</trkpt>
					<trkpt lat="43.758090" lon="5.898490">
						<ele>341</ele>
						<time>2019-07-31T15:59:05Z</time>
					</trkpt>
					<trkpt lat="43.757870" lon="5.897460">
						<ele>343</ele>
						<time>2019-07-31T15:59:19Z</time>
					</trkpt>
					<trkpt lat="43.757700" lon="5.896900">
						<ele>341</ele>
						<time>2019-07-31T15:59:27Z</time>
					</trkpt>
					<trkpt lat="43.757260" lon="5.896160">
						<ele>335</ele>
						<time>2019-07-31T15:59:39Z</time>
					</trkpt>
					<trkpt lat="43.757200" lon="5.896000">
						<ele>334</ele>
						<time>2019-07-31T15:59:41Z</time>
					</trkpt>
					<trkpt lat="43.757190" lon="5.895870">
						<ele>334</ele>
						<time>2019-07-31T15:59:43Z</time>
					</trkpt>
					<trkpt lat="43.757210" lon="5.895630">
						<ele>333</ele>
						<time>2019-07-31T15:59:46Z</time>
					</trkpt>
					<trkpt lat="43.757730" lon="5.894130">
						<ele>331</ele>
						<time>2019-07-31T16:00:08Z</time>
					</trkpt>
					<trkpt lat="43.757900" lon="5.893330">
						<ele>323</ele>
						<time>2019-07-31T16:00:18Z</time>
					</trkpt>
					<trkpt lat="43.757970" lon="5.892750">
						<ele>319</ele>
						<time>2019-07-31T16:00:26Z</time>
					</trkpt>
					<trkpt lat="43.758000" lon="5.887930">
						<ele>334</ele>
						<time>2019-07-31T16:01:28Z</time>
					</trkpt>
					<trkpt lat="43.758010" lon="5.887830">
						<ele>335</ele>
						<time>2019-07-31T16:01:29Z</time>
					</trkpt>
					<trkpt lat="43.758050" lon="5.887800">
						<ele>335</ele>
						<time>2019-07-31T16:01:30Z</time>
					</trkpt>
					<trkpt lat="43.758080" lon="5.887710">
						<ele>335</ele>
						<time>2019-07-31T16:01:31Z</time>
					</trkpt>
					<trkpt lat="43.758050" lon="5.887570">
						<ele>336</ele>
						<time>2019-07-31T16:01:33Z</time>
					</trkpt>
					<trkpt lat="43.758050" lon="5.887290">
						<ele>337</ele>
						<time>2019-07-31T16:01:37Z</time>
					</trkpt>
					<trkpt lat="43.758360" lon="5.886100">
						<ele>343</ele>
						<time>2019-07-31T16:01:53Z</time>
					</trkpt>
					<trkpt lat="43.758420" lon="5.886110">
						<ele>343</ele>
						<time>2019-07-31T16:01:54Z</time>
					</trkpt>
					</trkseg>
				</trk>
			</gpx>